NH232 / JA823A 7700 Squawk Report (22nd of June, 2018)

Aircraft B788 Reg No. JA823A Age 5 years old
Model 787 Jet engines 2 First flight 04-08-13
Registered 22-08-13 Rollout 16-06-13 Delivered 22-08-13
Construction No. 42246 Line No. 0120 Series 8
ADSHEX 86D5D8 Airline name All Nippon Airways (ANA) Owner N/A
Airfield based Tokyo-Haneda~Tokyo~JA First tracked 2013-08-04 21:05:02
Time Lat Lon Altitude Heading Speed Vertical Rate
2018-06-22 23:35:53 GMT 60.306210 24.934963 0 298 4 0
2018-06-22 23:35:43 GMT 60.306072 24.935263 0 264 6 0
2018-06-22 23:35:19 GMT 60.306377 24.936462 0 219 11 0
2018-06-22 23:35:15 GMT 60.306492 24.936708 0 219 10 0
2018-06-22 23:34:59 GMT 60.307022 24.937876 0 219 13 0
2018-06-22 23:34:53 GMT 60.307251 24.938374 0 219 12 0
2018-06-22 23:34:43 GMT 60.307598 24.939137 0 208 9 0
2018-06-22 23:34:34 GMT 60.307869 24.939508 0 177 10 0
2018-06-22 23:34:24 GMT 60.308296 24.939455 0 157 9 0
2018-06-22 23:34:13 GMT 60.308716 24.939211 0 157 9 0
2018-06-22 23:34:04 GMT 60.309097 24.938990 0 160 9 0
2018-06-22 23:33:51 GMT 60.309574 24.938868 0 177 9 0
2018-06-22 23:33:42 GMT 60.309929 24.938940 0 165 9 0
2018-06-22 23:33:31 GMT 60.310333 24.938696 0 118 9 0
2018-06-22 23:33:18 GMT 60.310638 24.937828 0 129 10 0
2018-06-22 23:33:11 GMT 60.310867 24.937445 0 151 11 0
2018-06-22 23:33:01 GMT 60.311371 24.937237 0 188 11 0
2018-06-22 23:32:52 GMT 60.311852 24.937662 0 213 14 0
2018-06-22 23:32:40 GMT 60.312393 24.938793 0 219 21 0
2018-06-22 23:32:29 GMT 60.313213 24.940622 0 219 24 0
2018-06-22 23:32:19 GMT 60.313923 24.942184 0 219 26 0
2018-06-22 23:32:09 GMT 60.314789 24.944115 0 219 29 0
2018-06-22 23:31:59 GMT 60.315804 24.946321 0 219 34 0
2018-06-22 23:31:47 GMT 60.317047 24.949051 0 219 36 0
2018-06-22 23:31:38 GMT 60.318211 24.951618 0 219 44 0
2018-06-22 23:31:27 GMT 60.319702 24.954901 0 219 51 0
2018-06-22 23:31:17 GMT 60.321507 24.958853 0 219 65 0
2018-06-22 23:31:07 GMT 60.324005 24.964348 400 228 106 0
2018-06-22 23:30:55 GMT 60.328300 24.973886 375 228 138 -64
2018-06-22 23:30:46 GMT 60.332520 24.983101 500 228 138 -704
2018-06-22 23:30:36 GMT 60.337097 24.993235 625 228 137 -704
2018-06-22 23:30:28 GMT 60.340172 25.000076 700 228 135 -768
2018-06-22 23:30:25 GMT 60.341476 25.002920 750 228 135 -768
2018-06-22 23:30:18 GMT 60.344467 25.009523 825 228 135 -768
2018-06-22 23:30:15 GMT 60.345665 25.012239 875 228 135 -704
2018-06-22 23:30:08 GMT 60.348785 25.019106 975 228 134 -768
2018-06-22 23:30:05 GMT 60.350227 25.022245 1,000 228 134 -768
2018-06-22 23:29:57 GMT 60.353069 25.028522 1,100 228 135 -832
2018-06-22 23:29:54 GMT 60.354538 25.031780 1,125 228 135 -704
2018-06-22 23:29:47 GMT 60.357376 25.038031 1,225 228 132 -704
2018-06-22 23:29:43 GMT 60.358841 25.041346 1,250 228 129 -704
2018-06-22 23:29:34 GMT 60.362961 25.050343 1,375 228 124 -640
2018-06-22 23:29:27 GMT 60.365356 25.055695 1,450 228 121 -640
2018-06-22 23:29:23 GMT 60.366802 25.058931 1,500 228 121 -640
2018-06-22 23:29:17 GMT 60.369186 25.064171 1,550 228 118 -640
2018-06-22 23:29:13 GMT 60.370651 25.067390 1,600 228 118 -640
2018-06-22 23:29:07 GMT 60.372944 25.072565 1,675 228 117 -640
2018-06-22 23:29:02 GMT 60.374714 25.076490 1,725 229 118 -704
2018-06-22 23:28:56 GMT 60.376785 25.081123 1,825 228 118 -640
2018-06-22 23:28:51 GMT 60.378571 25.085102 1,825 228 119 -640
2018-06-22 23:28:46 GMT 60.380539 25.089363 1,875 228 121 -704
2018-06-22 23:28:41 GMT 60.382397 25.093460 1,925 228 121 -768
2018-06-22 23:28:35 GMT 60.384705 25.098644 2,000 228 122 -704
2018-06-22 23:28:30 GMT 60.386398 25.102339 2,050 228 123 -704
2018-06-22 23:28:24 GMT 60.388687 25.107452 2,125 228 124 -704
2018-06-22 23:28:20 GMT 60.390472 25.111431 2,175 228 125 -640
2018-06-22 23:28:14 GMT 60.392685 25.116217 2,225 228 130 -704
2018-06-22 23:28:10 GMT 60.394958 25.121281 2,300 228 134 -704
2018-06-22 23:28:04 GMT 60.396881 25.125544 2,350 228 137 -768
2018-06-22 23:27:59 GMT 60.399387 25.131126 2,425 228 138 -768
2018-06-22 23:27:54 GMT 60.401203 25.135149 2,475 228 138 -768
2018-06-22 23:27:48 GMT 60.403809 25.140938 2,550 228 140 -768
2018-06-22 23:27:44 GMT 60.405762 25.145336 2,600 228 142 -896
2018-06-22 23:27:38 GMT 60.408417 25.151138 2,700 228 146 -960
2018-06-22 23:27:33 GMT 60.410328 25.155455 2,750 228 149 -960
2018-06-22 23:27:28 GMT 60.413166 25.161634 2,850 228 152 -832
2018-06-22 23:27:17 GMT 60.418076 25.172613 2,975 228 161 -832
2018-06-22 23:27:11 GMT 60.421452 25.180174 3,100 228 162 -960
2018-06-22 23:27:07 GMT 60.423294 25.184263 3,150 228 162 -896
2018-06-22 23:27:03 GMT 60.425362 25.188904 3,200 228 162 -640
2018-06-22 23:26:57 GMT 60.428558 25.195911 3,250 228 161 -64
2018-06-22 23:26:53 GMT 60.430481 25.200174 3,250 228 161 0
2018-06-22 23:26:46 GMT 60.433838 25.207640 3,250 228 161 -64
2018-06-22 23:26:43 GMT 60.435650 25.211660 3,250 228 162 0
2018-06-22 23:26:35 GMT 60.439270 25.219496 3,250 228 161 0
2018-06-22 23:26:32 GMT 60.440781 25.222811 3,250 228 161 0
2018-06-22 23:26:26 GMT 60.444450 25.230986 3,250 229 162 -64
2018-06-22 23:26:21 GMT 60.446358 25.235300 3,250 229 162 0
2018-06-22 23:26:15 GMT 60.449478 25.242559 3,250 230 161 0
2018-06-22 23:26:11 GMT 60.451447 25.247339 3,250 230 161 -64
2018-06-22 23:26:05 GMT 60.454330 25.254253 3,250 231 160 0
2018-06-22 23:26:01 GMT 60.456135 25.258745 3,250 233 159 -64
2018-06-22 23:25:54 GMT 60.459023 25.266691 3,250 238 159 -64
2018-06-22 23:25:51 GMT 60.460369 25.271399 3,250 246 161 -64
2018-06-22 23:25:44 GMT 60.462158 25.280771 3,250 255 164 -64
2018-06-22 23:25:38 GMT 60.463486 25.290716 3,250 255 170 64
2018-06-22 23:25:34 GMT 60.464310 25.296589 3,250 255 173 0
2018-06-22 23:25:30 GMT 60.465088 25.302271 3,250 255 175 64
2018-06-22 23:25:24 GMT 60.466461 25.312311 3,250 255 175 -64
2018-06-22 23:25:20 GMT 60.467354 25.318876 3,250 255 175 0
2018-06-22 23:25:14 GMT 60.468704 25.329075 3,250 255 175 -64
2018-06-22 23:25:03 GMT 60.470985 25.345655 3,250 255 175 0
2018-06-22 23:24:53 GMT 60.473080 25.361155 3,250 255 178 64
2018-06-22 23:24:47 GMT 60.474567 25.372141 3,225 255 179 0
2018-06-22 23:24:42 GMT 60.475361 25.378025 3,225 255 183 0
2018-06-22 23:24:32 GMT 60.477814 25.395845 3,225 255 193 -64
2018-06-22 23:24:21 GMT 60.480389 25.415007 3,250 255 202 0
2018-06-22 23:24:11 GMT 60.483044 25.434332 3,250 255 212 -64
2018-06-22 23:24:01 GMT 60.485687 25.453997 3,250 255 221 -192
2018-06-22 23:23:55 GMT 60.487289 25.465647 3,300 255 223 -320
2018-06-22 23:23:50 GMT 60.488663 25.475401 3,325 255 227 -832
2018-06-22 23:23:47 GMT 60.489532 25.482031 3,375 255 228 -1152
2018-06-22 23:23:40 GMT 60.491592 25.496805 3,525 255 229 -1216
2018-06-22 23:23:30 GMT 60.494431 25.517925 3,725 255 229 -1280
2018-06-22 23:23:19 GMT 60.497379 25.539780 3,950 255 230 -1216
2018-06-22 23:23:09 GMT 60.500172 25.560772 4,150 256 231 -1344
2018-06-22 23:22:59 GMT 60.503036 25.582329 4,375 255 232 -1408
2018-06-22 23:22:49 GMT 60.506058 25.604490 4,625 255 232 -1344
2018-06-22 23:22:45 GMT 60.506783 25.610210 4,675 255 232 -1344
2018-06-22 23:22:38 GMT 60.508850 25.625517 4,825 256 232 -1280
2018-06-22 23:22:26 GMT 60.512192 25.650803 5,075 255 235 -1216
2018-06-22 23:22:16 GMT 60.515301 25.674459 5,300 255 236 -1408
2018-06-22 23:22:05 GMT 60.518280 25.696453 5,600 255 235 -2112
2018-06-22 23:22:02 GMT 60.519241 25.703651 5,700 255 234 -2240
2018-06-22 23:21:54 GMT 60.521164 25.718046 5,950 255 234 -2176
2018-06-22 23:21:50 GMT 60.522263 25.726570 6,100 255 235 -2112
2018-06-22 23:21:44 GMT 60.524193 25.740770 6,325 255 235 -2112
2018-06-22 23:21:40 GMT 60.525146 25.748165 6,450 255 235 -2176
2018-06-22 23:21:34 GMT 60.526939 25.761663 6,675 256 236 -2240
2018-06-22 23:21:24 GMT 60.529781 25.783049 7,025 255 238 -1536
2018-06-22 23:21:20 GMT 60.531178 25.793839 7,125 256 240 -1344
2018-06-22 23:21:13 GMT 60.532715 25.805611 7,250 256 241 -1344
2018-06-22 23:21:08 GMT 60.534248 25.817381 7,375 256 241 -1408
2018-06-22 23:21:03 GMT 60.535721 25.828480 7,500 256 241 -1536
2018-06-22 23:21:00 GMT 60.536671 25.835724 7,600 255 240 -1600
2018-06-22 23:20:53 GMT 60.538834 25.851587 7,775 255 240 -1600
2018-06-22 23:20:49 GMT 60.539749 25.858501 7,875 255 240 -1536
2018-06-22 23:20:42 GMT 60.541855 25.874224 8,050 256 240 -1344
2018-06-22 23:20:32 GMT 60.544724 25.896248 8,250 256 242 -1280
2018-06-22 23:20:21 GMT 60.547806 25.919779 8,475 256 243 -1216
2018-06-22 23:20:11 GMT 60.550781 25.942699 8,700 256 244 -1216
2018-06-22 23:20:01 GMT 60.553707 25.964714 8,875 255 246 -1024
2018-06-22 23:19:51 GMT 60.556732 25.987669 9,025 255 250 -960
2018-06-22 23:19:48 GMT 60.557617 25.994436 9,075 256 251 -1088
2018-06-22 23:19:38 GMT 60.560642 26.017685 9,325 256 251 -1728
2018-06-22 23:19:30 GMT 60.562958 26.035231 9,525 256 251 -1152
2018-06-22 23:19:27 GMT 60.563690 26.040724 9,575 256 251 -1024
2018-06-22 23:19:19 GMT 60.566231 26.060061 9,700 256 252 -960
2018-06-22 23:19:09 GMT 60.569164 26.083014 9,850 256 253 -896
2018-06-22 23:18:56 GMT 60.572800 26.111187 10,000 256 251 -64
2018-06-22 23:18:47 GMT 60.575775 26.134218 10,000 256 251 -64
2018-06-22 23:18:37 GMT 60.579025 26.159016 10,000 256 250 -64
2018-06-22 23:18:25 GMT 60.581966 26.181990 10,000 256 249 -64
2018-06-22 23:18:16 GMT 60.584850 26.204159 10,000 256 250 0
2018-06-22 23:18:04 GMT 60.588345 26.231428 10,000 256 250 -64
2018-06-22 23:17:55 GMT 60.590763 26.250065 10,000 256 250 0
2018-06-22 23:17:45 GMT 60.593811 26.273897 10,000 256 249 0
2018-06-22 23:17:35 GMT 60.596741 26.297102 10,000 256 249 0
2018-06-22 23:17:25 GMT 60.600025 26.322655 10,000 256 249 -64
2018-06-22 23:17:14 GMT 60.603745 26.351465 10,000 256 249 -64
2018-06-22 23:17:04 GMT 60.605713 26.366903 10,000 256 248 0
2018-06-22 23:16:54 GMT 60.608639 26.390141 10,000 256 248 -64
2018-06-22 23:16:43 GMT 60.611618 26.413683 10,000 256 248 0
2018-06-22 23:16:33 GMT 60.614552 26.436735 10,000 256 249 0
2018-06-22 23:16:22 GMT 60.617661 26.461044 10,000 256 250 -64
2018-06-22 23:16:13 GMT 60.620911 26.486523 10,000 256 250 -64
2018-06-22 23:16:01 GMT 60.623817 26.509520 10,000 256 250 0
2018-06-22 23:15:51 GMT 60.626862 26.533499 10,000 256 250 -64
2018-06-22 23:15:41 GMT 60.629883 26.557743 10,000 256 251 0
2018-06-22 23:15:38 GMT 60.630611 26.563471 10,000 256 251 0
2018-06-22 23:15:30 GMT 60.632755 26.580441 10,000 256 251 0
2018-06-22 23:15:19 GMT 60.635780 26.604767 10,000 256 251 0
2018-06-22 23:15:10 GMT 60.638851 26.628996 10,000 256 251 0
2018-06-22 23:14:58 GMT 60.641785 26.652832 10,000 256 250 0
2018-06-22 23:14:49 GMT 60.644577 26.674707 10,000 256 249 -64
2018-06-22 23:14:38 GMT 60.647606 26.698837 9,975 256 250 0
2018-06-22 23:14:28 GMT 60.650482 26.721970 10,000 256 251 -64
2018-06-22 23:14:18 GMT 60.653378 26.745626 10,000 256 249 -64
2018-06-22 23:14:08 GMT 60.656307 26.768778 9,975 256 249 0
2018-06-22 23:13:58 GMT 60.659336 26.793398 10,000 256 250 -64
2018-06-22 23:13:47 GMT 60.662155 26.816397 10,000 256 247 -64
2018-06-22 23:13:37 GMT 60.664993 26.838938 10,000 256 247 -64
2018-06-22 23:13:26 GMT 60.667969 26.862803 10,000 256 247 0
2018-06-22 23:13:16 GMT 60.670738 26.885702 9,975 257 249 -64
2018-06-22 23:13:06 GMT 60.674057 26.912716 10,000 256 247 64
2018-06-22 23:12:54 GMT 60.676941 26.936110 10,000 256 247 -64
2018-06-22 23:12:43 GMT 60.679771 26.959370 10,000 256 246 -64
2018-06-22 23:12:33 GMT 60.682663 26.982990 10,000 256 246 -64
2018-06-22 23:12:23 GMT 60.685497 27.006062 10,000 256 245 0
2018-06-22 23:12:13 GMT 60.688290 27.028917 10,000 256 245 -64
2018-06-22 23:12:02 GMT 60.691177 27.052507 10,000 257 245 0
2018-06-22 23:11:51 GMT 60.694298 27.077866 10,000 257 247 0
2018-06-22 23:11:41 GMT 60.697083 27.101093 10,000 257 246 0
2018-06-22 23:11:30 GMT 60.700241 27.127234 10,000 257 246 -64
2018-06-22 23:11:19 GMT 60.703033 27.150152 10,000 257 245 -64
2018-06-22 23:11:09 GMT 60.705746 27.172722 10,000 257 245 -64
2018-06-22 23:10:57 GMT 60.708893 27.198549 10,000 257 244 0
2018-06-22 23:10:52 GMT 60.710358 27.210672 10,000 257 245 -64
2018-06-22 23:10:47 GMT 60.711685 27.221848 10,000 257 245 -64
2018-06-22 23:10:36 GMT 60.714546 27.245996 10,000 257 245 -64
2018-06-22 23:10:25 GMT 60.717407 27.269487 10,000 257 244 -64
2018-06-22 23:10:16 GMT 60.720154 27.292879 10,000 257 244 -64
2018-06-22 23:10:04 GMT 60.723110 27.317308 10,000 257 244 -64
2018-06-22 23:09:57 GMT 60.725098 27.334173 10,000 257 243 0
2018-06-22 23:09:54 GMT 60.725784 27.339951 10,000 257 243 0
2018-06-22 23:09:51 GMT 60.726700 27.347528 10,000 257 243 0
2018-06-22 23:09:44 GMT 60.728577 27.363251 10,000 257 243 0
2018-06-22 23:09:34 GMT 60.731445 27.387150 10,000 257 243 0
2018-06-22 23:09:31 GMT 60.732002 27.392056 9,975 257 243 0
2018-06-22 23:09:23 GMT 60.734192 27.409908 10,000 257 243 0
2018-06-22 23:09:10 GMT 60.737541 27.438158 10,000 257 243 0
2018-06-22 23:09:00 GMT 60.740288 27.461407 10,000 257 243 -64
2018-06-22 23:08:50 GMT 60.743729 27.490635 10,000 257 243 0
2018-06-22 23:08:41 GMT 60.745331 27.504084 10,000 257 244 -64
2018-06-22 23:08:37 GMT 60.746342 27.512806 10,000 257 244 0
2018-06-22 23:08:27 GMT 60.748993 27.535271 10,000 257 244 -64
2018-06-22 23:08:19 GMT 60.751137 27.553614 10,000 257 244 0
2018-06-22 23:08:14 GMT 60.752300 27.563520 10,000 257 244 0
2018-06-22 23:08:06 GMT 60.754440 27.581863 10,000 257 244 -64
2018-06-22 23:07:56 GMT 60.757050 27.604326 10,000 257 244 0
2018-06-22 23:07:45 GMT 60.759933 27.629290 10,000 257 244 -64
2018-06-22 23:07:35 GMT 60.762543 27.651735 10,000 257 244 -64
We lost coverage of the aircraft here for a total of 7 minutes
2018-06-22 23:00:18 GMT 60.860535 28.633608 10,000 260 242 0
2018-06-22 23:00:08 GMT 60.862564 28.655848 10,000 260 242 0
2018-06-22 22:59:58 GMT 60.864624 28.678862 10,000 260 242 0
2018-06-22 22:59:48 GMT 60.866631 28.701096 9,975 260 242 -64
2018-06-22 22:59:37 GMT 60.868927 28.726597 10,000 260 242 0
2018-06-22 22:59:27 GMT 60.870895 28.748285 10,000 260 243 -64
2018-06-22 22:59:18 GMT 60.872776 28.769760 10,000 260 243 0
2018-06-22 22:59:10 GMT 60.874420 28.788063 10,000 260 243 0
2018-06-22 22:59:06 GMT 60.875057 28.795559 10,000 260 243 0
2018-06-22 22:59:02 GMT 60.875885 28.804827 10,000 260 242 -64
2018-06-22 22:58:56 GMT 60.877075 28.817896 10,000 260 242 -64
2018-06-22 22:58:46 GMT 60.879063 28.840288 10,000 260 241 -64
2018-06-22 22:58:36 GMT 60.881149 28.863926 10,000 260 241 -64
2018-06-22 22:58:33 GMT 60.881668 28.870010 10,000 260 240 0
2018-06-22 22:58:26 GMT 60.883160 28.886686 10,000 260 240 0
2018-06-22 22:58:16 GMT 60.885040 28.908060 10,000 260 241 0
2018-06-22 22:58:06 GMT 60.887161 28.932201 10,000 260 241 0
2018-06-22 22:57:56 GMT 60.889023 28.953615 10,000 260 241 -64
2018-06-22 22:57:46 GMT 60.891117 28.977324 10,000 260 241 -64
2018-06-22 22:57:36 GMT 60.893120 28.999884 10,000 260 242 -64
2018-06-22 22:57:25 GMT 60.895214 29.023819 10,000 260 242 -64
2018-06-22 22:57:16 GMT 60.897076 29.045498 10,000 260 241 0
2018-06-22 22:57:05 GMT 60.899124 29.068844 10,000 260 240 0
2018-06-22 22:56:55 GMT 60.901218 29.092680 10,000 260 240 -64
2018-06-22 22:56:43 GMT 60.903362 29.117399 10,000 260 240 0
2018-06-22 22:56:33 GMT 60.905457 29.141628 10,000 260 240 0
2018-06-22 22:56:24 GMT 60.907196 29.162071 10,000 261 240 -64
2018-06-22 22:56:13 GMT 60.909348 29.186695 10,000 260 240 -64
2018-06-22 22:56:01 GMT 60.911602 29.212940 10,000 260 240 0
2018-06-22 22:55:51 GMT 60.913464 29.234913 10,000 261 239 0
2018-06-22 22:55:39 GMT 60.915882 29.262772 10,000 260 240 0
2018-06-22 22:55:28 GMT 60.918259 29.290630 10,000 261 240 0
2018-06-22 22:55:22 GMT 60.919144 29.300928 10,000 261 240 0
2018-06-22 22:55:04 GMT 60.922485 29.341640 10,000 261 240 -64
2018-06-22 22:54:58 GMT 60.923565 29.353996 10,000 261 241 0
2018-06-22 22:54:50 GMT 60.925007 29.371262 10,000 261 242 -64
2018-06-22 22:54:38 GMT 60.927475 29.400297 10,000 261 242 -64
2018-06-22 22:54:30 GMT 60.929077 29.419113 10,000 261 241 0
2018-06-22 22:54:15 GMT 60.931759 29.451012 10,000 261 242 0
2018-06-22 22:54:11 GMT 60.932549 29.460526 10,000 261 242 0
2018-06-22 22:54:01 GMT 60.934433 29.482948 10,000 261 242 -64
We lost coverage of the aircraft here for a total of 11 minutes
2018-06-22 22:42:33 GMT 61.057526 31.069139 10,000 262 248 -64
2018-06-22 22:42:09 GMT 61.061501 31.126200 10,000 262 248 0
2018-06-22 22:42:06 GMT 61.061966 31.132812 10,000 262 248 64
2018-06-22 22:41:54 GMT 61.063782 31.159466 10,000 263 248 -64
2018-06-22 22:41:47 GMT 61.064941 31.177532 9,975 263 249 -64
2018-06-22 22:41:37 GMT 61.066406 31.200191 10,000 263 250 0
2018-06-22 22:41:27 GMT 61.067871 31.224224 10,000 263 250 -64
2018-06-22 22:41:17 GMT 61.069519 31.248844 10,000 262 250 -64
2018-06-22 22:41:06 GMT 61.071415 31.273600 10,000 260 251 0
2018-06-22 22:40:56 GMT 61.073650 31.297506 10,000 260 250 0
2018-06-22 22:40:46 GMT 61.075882 31.321728 10,000 260 250 0
2018-06-22 22:40:36 GMT 61.078213 31.346842 10,000 260 250 0
2018-06-22 22:40:25 GMT 61.080353 31.369831 10,000 260 250 -64
2018-06-22 22:40:15 GMT 61.082611 31.394415 10,000 259 250 0
2018-06-22 22:40:04 GMT 61.084915 31.419067 10,000 260 250 0
2018-06-22 22:39:54 GMT 61.087055 31.442566 10,000 260 250 -64
2018-06-22 22:39:44 GMT 61.089336 31.467386 10,000 260 250 -64
2018-06-22 22:39:33 GMT 61.091526 31.491394 10,000 260 250 0
2018-06-22 22:39:24 GMT 61.093666 31.514791 10,000 260 249 -64
2018-06-22 22:39:13 GMT 61.095901 31.539103 10,000 260 249 0
2018-06-22 22:39:03 GMT 61.098137 31.563416 10,000 260 250 -64
2018-06-22 22:38:52 GMT 61.100327 31.587557 10,000 260 250 -64
2018-06-22 22:38:42 GMT 61.102570 31.611492 10,000 260 249 -64
2018-06-22 22:38:31 GMT 61.104794 31.635946 10,000 260 249 0
2018-06-22 22:38:22 GMT 61.107029 31.660257 10,000 260 249 -64
2018-06-22 22:38:11 GMT 61.109253 31.684767 10,000 260 249 -64
2018-06-22 22:38:01 GMT 61.111404 31.709093 10,000 260 249 -64
2018-06-22 22:37:50 GMT 61.113686 31.734112 10,000 260 249 -64
2018-06-22 22:37:39 GMT 61.115826 31.758017 10,000 260 249 0
2018-06-22 22:37:30 GMT 61.117905 31.781191 10,000 260 250 -64
2018-06-22 22:37:19 GMT 61.120064 31.805420 10,000 260 251 0
2018-06-22 22:37:08 GMT 61.122299 31.830629 10,000 260 251 -64
2018-06-22 22:36:58 GMT 61.124393 31.854553 10,000 260 252 -64
2018-06-22 22:36:48 GMT 61.126534 31.879068 10,000 260 251 -64
2018-06-22 22:36:38 GMT 61.128674 31.903076 9,975 260 251 -64
2018-06-22 22:36:27 GMT 61.130859 31.927349 10,000 260 252 -64
2018-06-22 22:36:17 GMT 61.133011 31.951969 10,000 260 252 0
2018-06-22 22:36:07 GMT 61.135143 31.976318 10,000 260 252 -64
2018-06-22 22:35:57 GMT 61.137451 32.002094 10,000 260 252 0
2018-06-22 22:35:46 GMT 61.139557 32.026325 9,975 260 252 -64
2018-06-22 22:35:36 GMT 61.141708 32.050171 10,000 260 251 -64
2018-06-22 22:35:26 GMT 61.143906 32.074879 10,000 260 250 0
2018-06-22 22:35:15 GMT 61.145992 32.099102 10,000 260 249 -64
2018-06-22 22:35:04 GMT 61.148071 32.123337 10,000 260 248 -64
2018-06-22 22:34:55 GMT 61.150177 32.147663 10,000 260 247 64
2018-06-22 22:34:44 GMT 61.152184 32.170818 10,000 260 248 0
2018-06-22 22:34:34 GMT 61.154297 32.195435 10,000 260 249 -64
2018-06-22 22:34:23 GMT 61.156448 32.220253 10,000 261 248 64
2018-06-22 22:34:13 GMT 61.158421 32.243450 10,000 260 248 -64
2018-06-22 22:34:03 GMT 61.160522 32.268120 10,000 261 250 -64
2018-06-22 22:33:53 GMT 61.162563 32.291973 10,000 261 251 -64
2018-06-22 22:33:42 GMT 61.164612 32.316181 10,000 261 251 -64
2018-06-22 22:33:32 GMT 61.166656 32.340611 10,000 260 251 -64
2018-06-22 22:33:21 GMT 61.168808 32.365623 10,000 260 250 0
2018-06-22 22:33:12 GMT 61.170898 32.389935 10,000 261 250 0
2018-06-22 22:33:01 GMT 61.172947 32.413532 10,000 260 249 64
2018-06-22 22:32:51 GMT 61.174988 32.437626 10,000 261 247 -64
2018-06-22 22:32:41 GMT 61.176956 32.461460 9,975 261 247 0
2018-06-22 22:32:30 GMT 61.179043 32.485554 9,975 260 249 -64
2018-06-22 22:32:20 GMT 61.181187 32.510578 9,975 261 252 -64
2018-06-22 22:32:09 GMT 61.183235 32.535198 10,000 261 259 0
2018-06-22 22:32:00 GMT 61.185379 32.561317 9,975 261 269 -128
2018-06-22 22:31:49 GMT 61.187469 32.586872 10,000 261 278 -128
2018-06-22 22:31:39 GMT 61.189774 32.614975 10,000 261 291 0
2018-06-22 22:31:28 GMT 61.192219 32.644146 9,975 261 302 64
2018-06-22 22:31:18 GMT 61.194626 32.673340 10,000 261 310 0
2018-06-22 22:31:08 GMT 61.197105 32.703552 10,000 261 310 0
2018-06-22 22:30:58 GMT 61.199669 32.734577 10,000 261 310 -64
2018-06-22 22:30:47 GMT 61.202087 32.763874 10,000 261 311 64
2018-06-22 22:30:37 GMT 61.204514 32.793602 10,000 261 312 0
2018-06-22 22:30:26 GMT 61.207024 32.824505 10,000 261 311 0
2018-06-22 22:30:16 GMT 61.209583 32.855633 10,000 261 311 64
2018-06-22 22:30:06 GMT 61.212021 32.885807 10,000 261 311 -64
2018-06-22 22:29:56 GMT 61.214493 32.916412 10,000 261 311 -64
2018-06-22 22:29:45 GMT 61.216919 32.946331 10,000 261 310 -64
2018-06-22 22:29:35 GMT 61.219345 32.976837 10,000 261 311 0
2018-06-22 22:29:24 GMT 61.221733 33.006489 10,000 261 311 0
2018-06-22 22:29:14 GMT 61.224152 33.037109 10,000 261 311 -64
2018-06-22 22:29:04 GMT 61.226482 33.066509 10,000 261 311 0
2018-06-22 22:28:53 GMT 61.229004 33.098572 10,000 261 311 0
2018-06-22 22:28:44 GMT 61.231323 33.127644 10,000 261 311 0
2018-06-22 22:28:33 GMT 61.233650 33.157551 10,000 261 310 -64
2018-06-22 22:28:22 GMT 61.236118 33.188679 10,000 261 310 64
2018-06-22 22:28:13 GMT 61.238491 33.218586 9,975 261 312 0
2018-06-22 22:28:02 GMT 61.240906 33.249043 10,000 261 312 0
2018-06-22 22:27:52 GMT 61.243240 33.278961 9,975 261 310 -64
2018-06-22 22:27:41 GMT 61.245621 33.309566 10,000 261 309 -64
2018-06-22 22:27:31 GMT 61.247894 33.339741 10,000 261 309 -64
2018-06-22 22:27:21 GMT 61.250244 33.369991 10,000 261 309 -64
2018-06-22 22:27:11 GMT 61.252579 33.400005 10,000 261 311 -64
2018-06-22 22:27:01 GMT 61.254959 33.430710 10,000 261 312 -64
2018-06-22 22:26:50 GMT 61.257339 33.462097 10,000 262 312 0
2018-06-22 22:26:39 GMT 61.259624 33.492634 9,975 261 314 64
2018-06-22 22:26:29 GMT 61.262009 33.523407 10,000 261 316 -64
2018-06-22 22:26:19 GMT 61.264328 33.553669 10,000 262 315 -64
2018-06-22 22:26:08 GMT 61.266678 33.584518 10,000 262 315 0
2018-06-22 22:25:59 GMT 61.268967 33.615025 10,000 262 316 -64
2018-06-22 22:25:48 GMT 61.271313 33.646545 10,000 262 316 -64
2018-06-22 22:25:38 GMT 61.273590 33.677410 10,000 262 315 -64
2018-06-22 22:25:28 GMT 61.275967 33.709412 10,000 262 316 -64
2018-06-22 22:25:17 GMT 61.278168 33.739113 10,000 262 316 -64
2018-06-22 22:25:06 GMT 61.280479 33.770649 10,000 262 316 -64
2018-06-22 22:24:56 GMT 61.282883 33.802773 10,000 262 316 -64
2018-06-22 22:24:45 GMT 61.285183 33.833721 10,000 262 316 -64
2018-06-22 22:24:36 GMT 61.287415 33.864082 9,975 262 316 0
2018-06-22 22:24:25 GMT 61.289745 33.895569 10,000 262 315 -64
2018-06-22 22:24:15 GMT 61.291946 33.925682 10,000 262 313 0
2018-06-22 22:24:04 GMT 61.294212 33.956299 10,000 262 312 -64
2018-06-22 22:23:54 GMT 61.296387 33.986794 10,000 262 312 -64
2018-06-22 22:23:44 GMT 61.298630 34.017693 9,975 262 312 -64
2018-06-22 22:23:33 GMT 61.300919 34.048870 9,975 262 313 -64
2018-06-22 22:23:24 GMT 61.303116 34.079002 9,975 262 314 -64
2018-06-22 22:23:13 GMT 61.305359 34.109409 10,000 262 314 -64
2018-06-22 22:23:02 GMT 61.307621 34.140827 9,975 262 315 -128
2018-06-22 22:22:53 GMT 61.309715 34.171448 10,000 262 316 -128
2018-06-22 22:22:42 GMT 61.312183 34.202576 10,000 260 315 -64
2018-06-22 22:22:32 GMT 61.315163 34.232685 10,000 257 314 -64
2018-06-22 22:22:21 GMT 61.318703 34.262592 9,975 255 313 -64
2018-06-22 22:22:11 GMT 61.322937 34.293316 10,000 254 314 -64
2018-06-22 22:22:01 GMT 61.326942 34.322308 10,000 254 314 0
2018-06-22 22:21:50 GMT 61.331268 34.353027 10,000 254 315 -64
2018-06-22 22:21:40 GMT 61.335926 34.386292 10,000 254 316 64
2018-06-22 22:21:29 GMT 61.339966 34.415260 10,000 254 317 -64
2018-06-22 22:21:19 GMT 61.344223 34.445766 10,000 254 318 0
2018-06-22 22:21:08 GMT 61.348587 34.477337 10,000 255 320 -64
2018-06-22 22:20:57 GMT 61.352776 34.508057 10,000 255 319 0
2018-06-22 22:20:48 GMT 61.357014 34.538677 10,000 254 318 -64
2018-06-22 22:20:37 GMT 61.361156 34.568684 10,000 254 318 -64
2018-06-22 22:20:27 GMT 61.365299 34.598694 9,975 254 318 -64
2018-06-22 22:20:16 GMT 61.369629 34.630535 10,000 255 318 -64
2018-06-22 22:20:06 GMT 61.373585 34.660645 10,000 255 318 -64
2018-06-22 22:19:56 GMT 61.377544 34.691467 10,000 256 318 -64
2018-06-22 22:19:45 GMT 61.381313 34.722393 9,975 258 319 -64
2018-06-22 22:19:34 GMT 61.384277 34.754269 10,000 262 323 0
2018-06-22 22:19:24 GMT 61.386295 34.785461 10,000 263 323 -64
2018-06-22 22:19:14 GMT 61.388351 34.817928 10,000 263 323 0
2018-06-22 22:19:03 GMT 61.390438 34.849854 9,975 263 324 64
2018-06-22 22:18:54 GMT 61.392380 34.880611 9,975 263 326 0
2018-06-22 22:18:43 GMT 61.394115 34.913433 9,975 266 325 -128
2018-06-22 22:18:33 GMT 61.394989 34.945549 10,025 268 325 -512
2018-06-22 22:18:22 GMT 61.395493 34.978016 10,125 269 323 -512
2018-06-22 22:18:12 GMT 61.395931 35.009357 10,175 269 324 -512
2018-06-22 22:18:02 GMT 61.395977 35.042011 10,250 272 328 -384
2018-06-22 22:17:51 GMT 61.394806 35.075325 10,300 279 333 -128
2018-06-22 22:17:42 GMT 61.390778 35.108086 10,300 290 343 0
2018-06-22 22:17:31 GMT 61.385147 35.139183 10,300 292 346 0
2018-06-22 22:17:20 GMT 61.379196 35.171551 10,300 292 347 -64
2018-06-22 22:17:10 GMT 61.373337 35.203236 10,300 292 345 -64
2018-06-22 22:17:00 GMT 61.367249 35.236294 10,300 292 345 -64
2018-06-22 22:16:50 GMT 61.361576 35.266926 10,300 292 344 0
2018-06-22 22:16:40 GMT 61.355484 35.299953 10,300 292 344 0
2018-06-22 22:16:29 GMT 61.349396 35.332718 10,300 292 345 64
2018-06-22 22:16:19 GMT 61.343674 35.363617 10,300 292 345 -64
2018-06-22 22:16:08 GMT 61.337692 35.396118 10,300 292 345 -64
2018-06-22 22:15:58 GMT 61.331680 35.428654 10,300 292 345 0
2018-06-22 22:15:48 GMT 61.325500 35.462101 10,300 292 345 -64
2018-06-22 22:15:36 GMT 61.319321 35.495453 10,300 291 344 0
2018-06-22 22:15:26 GMT 61.313416 35.527531 10,300 291 343 -64
2018-06-22 22:15:16 GMT 61.307556 35.559605 10,300 291 343 -64
2018-06-22 22:15:05 GMT 61.301605 35.592270 10,300 291 343 0
2018-06-22 22:14:55 GMT 61.295982 35.623371 10,300 291 343 -64
2018-06-22 22:14:45 GMT 61.290302 35.654804 10,300 291 343 0
2018-06-22 22:14:34 GMT 61.284576 35.686634 10,300 291 345 -64
2018-06-22 22:14:23 GMT 61.278572 35.719910 10,300 291 347 64
2018-06-22 22:14:14 GMT 61.272755 35.752563 10,300 291 349 -64
2018-06-22 22:14:03 GMT 61.266888 35.785217 10,300 291 349 -64
2018-06-22 22:13:53 GMT 61.261395 35.816040 10,300 291 348 -64
2018-06-22 22:13:43 GMT 61.255508 35.848881 10,300 291 348 0
2018-06-22 22:13:32 GMT 61.249603 35.882034 10,300 291 347 -64
2018-06-22 22:13:22 GMT 61.243973 35.913132 10,300 291 345 -64
2018-06-22 22:13:11 GMT 61.238297 35.944813 10,300 291 345 -64
2018-06-22 22:13:01 GMT 61.232578 35.976765 10,300 291 345 0
2018-06-22 22:12:51 GMT 61.226807 36.009014 10,300 291 345 0
2018-06-22 22:12:40 GMT 61.221085 36.040943 10,300 291 345 -64
2018-06-22 22:12:30 GMT 61.215454 36.072529 10,300 291 345 -64
2018-06-22 22:12:20 GMT 61.209816 36.104534 10,300 291 346 -64
2018-06-22 22:12:10 GMT 61.204182 36.136169 10,300 290 345 0
2018-06-22 22:12:00 GMT 61.198380 36.169445 10,300 290 345 -64
2018-06-22 22:11:49 GMT 61.192932 36.200539 10,300 290 345 -64
2018-06-22 22:11:38 GMT 61.187145 36.233723 10,300 291 344 -64
2018-06-22 22:11:29 GMT 61.181557 36.265362 10,300 291 345 -64
2018-06-22 22:11:18 GMT 61.175766 36.297848 10,300 291 345 -64
2018-06-22 22:11:07 GMT 61.170090 36.329433 10,300 291 345 -64
2018-06-22 22:10:58 GMT 61.164276 36.361706 10,300 291 346 -64
2018-06-22 22:10:47 GMT 61.158646 36.392700 10,300 291 347 0
2018-06-22 22:10:36 GMT 61.152374 36.427624 10,300 291 349 -64
2018-06-22 22:10:26 GMT 61.146606 36.459404 10,300 291 348 0
2018-06-22 22:10:15 GMT 61.140545 36.492718 10,300 291 348 0
2018-06-22 22:10:05 GMT 61.134727 36.525066 10,300 291 347 0
2018-06-22 22:09:54 GMT 61.129074 36.556419 10,300 291 347 0
2018-06-22 22:09:44 GMT 61.123398 36.588200 10,300 291 348 -64
2018-06-22 22:09:34 GMT 61.117767 36.620079 10,300 291 348 -64
2018-06-22 22:09:23 GMT 61.111824 36.653339 10,300 291 347 -64
2018-06-22 22:09:14 GMT 61.106049 36.685509 10,300 291 350 -64
2018-06-22 22:09:03 GMT 61.100555 36.716209 10,300 291 350 0
2018-06-22 22:08:53 GMT 61.094604 36.748680 10,300 291 350 64
2018-06-22 22:08:43 GMT 61.088516 36.781933 10,300 291 351 -64
2018-06-22 22:08:32 GMT 61.082588 36.814167 10,300 291 350 -64
2018-06-22 22:08:21 GMT 61.076584 36.846516 10,300 292 348 -64
2018-06-22 22:08:11 GMT 61.070808 36.877441 10,300 292 347 -64
2018-06-22 22:08:01 GMT 61.064758 36.909744 10,300 292 348 64
2018-06-22 22:07:50 GMT 61.058395 36.943981 10,275 292 351 256
2018-06-22 22:07:40 GMT 61.052887 36.973675 10,200 291 351 640
2018-06-22 22:07:30 GMT 61.046951 37.005836 10,100 291 349 512
2018-06-22 22:07:20 GMT 61.040924 37.038345 10,025 292 348 256
2018-06-22 22:07:09 GMT 61.035057 37.069832 10,000 292 345 -64
2018-06-22 22:07:00 GMT 61.029282 37.100830 10,000 291 346 -64
2018-06-22 22:06:49 GMT 61.023281 37.133301 10,000 291 347 -128
2018-06-22 22:06:38 GMT 61.017323 37.165375 10,000 292 348 64
2018-06-22 22:06:29 GMT 61.011383 37.197338 9,975 291 349 320
2018-06-22 22:06:18 GMT 61.005543 37.228645 9,875 291 347 1024
2018-06-22 22:06:08 GMT 60.999573 37.260983 9,725 291 347 832
2018-06-22 22:05:58 GMT 60.993713 37.292522 9,600 291 350 320
2018-06-22 22:05:46 GMT 60.987305 37.326900 9,575 291 352 0
2018-06-22 22:05:37 GMT 60.981354 37.358818 9,575 291 355 128
2018-06-22 22:05:26 GMT 60.975266 37.391872 9,525 291 361 128
2018-06-22 22:05:15 GMT 60.969177 37.425304 9,525 291 359 -64
2018-06-22 22:05:06 GMT 60.963226 37.457317 9,575 291 344 -320
2018-06-22 22:04:55 GMT 60.957455 37.488392 9,625 291 337 -832
2018-06-22 22:04:44 GMT 60.951683 37.519585 9,850 291 338 -1920
2018-06-22 22:04:35 GMT 60.946049 37.550091 10,300 292 334 -3392
2018-06-22 22:04:24 GMT 60.939857 37.579422 10,875 298 330 -4032
2018-06-22 22:04:14 GMT 60.931183 37.607620 11,500 311 344 -3392
2018-06-22 22:04:04 GMT 60.919052 37.632339 12,075 323 359 -3520
2018-06-22 22:03:53 GMT 60.904587 37.651283 12,700 334 371 -3904
2018-06-22 22:03:43 GMT 60.888279 37.664371 13,325 345 380 -3968
2018-06-22 22:03:33 GMT 60.870346 37.671268 13,950 356 389 -3776
2018-06-22 22:03:22 GMT 60.851532 37.671455 14,575 5 396 -3584
2018-06-22 22:03:11 GMT 60.832417 37.664860 15,150 14 404 -3264
2018-06-22 22:03:02 GMT 60.814407 37.652515 15,675 23 412 -3264
2018-06-22 22:02:51 GMT 60.796200 37.633472 16,225 31 417 -3392
2018-06-22 22:02:41 GMT 60.780533 37.610844 16,775 39 422 -3392
2018-06-22 22:02:30 GMT 60.764915 37.581287 17,375 47 425 -3584
2018-06-22 22:02:20 GMT 60.751968 37.550510 17,950 51 427 -3456
2018-06-22 22:02:10 GMT 60.739609 37.518974 18,500 51 431 -3520
2018-06-22 22:01:59 GMT 60.726276 37.485058 19,125 51 433 -3584
2018-06-22 22:01:49 GMT 60.713608 37.452866 19,700 51 436 -3520
2018-06-22 22:01:39 GMT 60.700470 37.419624 20,300 50 439 -3520
2018-06-22 22:01:28 GMT 60.686989 37.385887 20,875 50 442 -3200
2018-06-22 22:01:18 GMT 60.673416 37.351810 21,400 50 447 -3072
2018-06-22 22:01:08 GMT 60.660049 37.318378 21,900 50 453 -3200
2018-06-22 22:00:57 GMT 60.646393 37.284264 22,450 50 457 -3392
2018-06-22 22:00:47 GMT 60.632401 37.249146 23,000 50 461 -3264
2018-06-22 22:00:36 GMT 60.618183 37.213734 23,550 50 466 -3200
2018-06-22 22:00:26 GMT 60.603939 37.178322 24,075 50 472 -3008
2018-06-22 22:00:15 GMT 60.588547 37.139946 24,625 50 479 -3136
2018-06-22 22:00:05 GMT 60.574997 37.106419 25,100 50 484 -3264
2018-06-22 21:59:54 GMT 60.560040 37.069344 25,675 50 489 -3584
2018-06-22 21:59:44 GMT 60.545792 37.034153 26,250 50 493 -3712
2018-06-22 21:59:34 GMT 60.530457 36.996178 26,900 50 497 -3648
2018-06-22 21:59:24 GMT 60.515167 36.958672 27,500 50 502 -3648
2018-06-22 21:59:14 GMT 60.499969 36.921734 28,100 50 507 -3776
2018-06-22 21:59:03 GMT 60.484158 36.883263 28,750 50 513 -3776
2018-06-22 21:58:53 GMT 60.468563 36.845692 29,375 49 518 -4032
2018-06-22 21:58:43 GMT 60.452225 36.806259 30,100 50 521 -4736
2018-06-22 21:58:32 GMT 60.436954 36.768593 30,900 51 521 -5120
2018-06-22 21:58:21 GMT 60.421509 36.727104 31,825 55 520 -5376
2018-06-22 21:58:11 GMT 60.408371 36.684391 32,725 61 517 -5120
2018-06-22 21:58:01 GMT 60.397526 36.639896 33,575 66 516 -5120
2018-06-22 21:57:51 GMT 60.389008 36.595066 34,375 72 516 -4032
2018-06-22 21:57:40 GMT 60.381866 36.545357 34,850 75 523 -1280
2018-06-22 21:57:30 GMT 60.376064 36.497269 35,000 76 528 0
2018-06-22 21:57:20 GMT 60.370247 36.448418 34,975 76 529 0
2018-06-22 21:57:10 GMT 60.364193 36.397705 35,000 76 529 0
2018-06-22 21:56:59 GMT 60.358292 36.348267 35,000 76 529 0
2018-06-22 21:56:48 GMT 60.352367 36.298927 34,975 76 530 64
2018-06-22 21:56:39 GMT 60.346458 36.249977 34,975 76 531 0
2018-06-22 21:56:28 GMT 60.340485 36.200520 34,975 76 531 -64
2018-06-22 21:56:18 GMT 60.334579 36.151649 35,000 76 530 0
2018-06-22 21:56:08 GMT 60.328300 36.100388 34,975 76 530 0
2018-06-22 21:55:57 GMT 60.322403 36.052013 34,975 76 531 64
2018-06-22 21:55:46 GMT 60.316177 36.001156 34,975 76 531 0
2018-06-22 21:55:36 GMT 60.309952 35.950390 34,975 76 531 0
2018-06-22 21:55:25 GMT 60.303955 35.901520 35,000 76 530 -64
2018-06-22 21:55:15 GMT 60.297821 35.851799 35,000 76 531 -64
2018-06-22 21:55:05 GMT 60.291573 35.801502 35,000 75 532 0
2018-06-22 21:54:55 GMT 60.285278 35.751217 35,000 75 532 0
2018-06-22 21:54:44 GMT 60.279099 35.701305 35,000 75 533 0
2018-06-22 21:54:34 GMT 60.273136 35.653774 34,975 75 533 0
2018-06-22 21:54:24 GMT 60.266712 35.602863 35,000 75 534 0
2018-06-22 21:54:13 GMT 60.260288 35.551857 34,975 75 535 0
2018-06-22 21:54:02 GMT 60.254051 35.502811 35,000 75 535 0
2018-06-22 21:53:53 GMT 60.247814 35.453667 34,975 75 535 0
2018-06-22 21:53:42 GMT 60.241470 35.404106 34,975 75 536 0
2018-06-22 21:53:32 GMT 60.235062 35.354004 35,000 75 536 -64
2018-06-22 21:53:22 GMT 60.228493 35.302505 35,000 75 536 0
2018-06-22 21:53:11 GMT 60.222256 35.254341 34,975 75 537 64
2018-06-22 21:53:01 GMT 60.215836 35.204647 34,975 75 538 0
2018-06-22 21:52:51 GMT 60.209267 35.153996 35,000 75 538 0
2018-06-22 21:52:40 GMT 60.202881 35.105202 34,975 75 538 0
2018-06-22 21:52:29 GMT 60.196140 35.053547 34,975 75 538 64
2018-06-22 21:52:20 GMT 60.189880 35.005852 34,975 75 538 0
2018-06-22 21:52:09 GMT 60.183105 34.954277 35,000 75 538 0
2018-06-22 21:51:58 GMT 60.176495 34.904152 34,975 75 538 0
2018-06-22 21:51:49 GMT 60.170059 34.855453 35,000 75 540 0
2018-06-22 21:51:38 GMT 60.163422 34.805256 35,000 75 540 -64
2018-06-22 21:51:27 GMT 60.156601 34.754112 35,000 74 540 0
2018-06-22 21:51:18 GMT 60.150146 34.705811 35,000 74 540 0
2018-06-22 21:51:07 GMT 60.143349 34.655098 35,000 74 540 0
2018-06-22 21:50:56 GMT 60.136688 34.605515 35,000 74 539 0
2018-06-22 21:50:46 GMT 60.130177 34.556908 34,975 74 539 64
2018-06-22 21:50:36 GMT 60.123230 34.505501 34,975 74 538 -64
2018-06-22 21:50:25 GMT 60.116535 34.455971 34,975 74 539 0
2018-06-22 21:50:15 GMT 60.109737 34.405945 34,975 74 540 0
2018-06-22 21:50:05 GMT 60.103176 34.357876 34,975 74 539 64
2018-06-22 21:49:55 GMT 60.096268 34.307556 34,975 74 539 0
2018-06-22 21:49:44 GMT 60.089535 34.258118 35,000 74 538 0
2018-06-22 21:49:33 GMT 60.082413 34.206520 35,000 74 537 -64
2018-06-22 21:49:24 GMT 60.075943 34.159634 35,000 74 538 0
2018-06-22 21:49:13 GMT 60.068848 34.108475 35,000 74 538 0
2018-06-22 21:49:03 GMT 60.062069 34.060169 35,000 74 538 64
2018-06-22 21:48:52 GMT 60.054932 34.008938 35,000 74 538 0
2018-06-22 21:48:42 GMT 60.048065 33.960159 34,975 74 539 0
2018-06-22 21:48:32 GMT 60.041260 33.911755 35,000 74 540 0
2018-06-22 21:48:21 GMT 60.034058 33.860527 34,975 74 541 0
2018-06-22 21:48:11 GMT 60.027061 33.811111 35,000 74 541 0
2018-06-22 21:48:00 GMT 60.020050 33.761650 35,000 74 541 0
2018-06-22 21:47:50 GMT 60.013092 33.712685 35,000 74 541 0
2018-06-22 21:47:40 GMT 60.006065 33.663284 35,000 74 541 0
2018-06-22 21:47:30 GMT 59.998993 33.613903 35,000 74 541 64
2018-06-22 21:47:19 GMT 59.991776 33.563625 34,975 74 541 0
2018-06-22 21:47:09 GMT 59.984745 33.514675 35,000 73 542 0
2018-06-22 21:46:59 GMT 59.977249 33.462982 34,975 73 542 0
2018-06-22 21:46:48 GMT 59.970222 33.414131 35,000 73 542 0
2018-06-22 21:46:38 GMT 59.963196 33.365669 35,000 73 543 64
2018-06-22 21:46:28 GMT 59.956055 33.316799 35,000 73 543 0
2018-06-22 21:46:17 GMT 59.948437 33.264423 34,975 73 543 0
2018-06-22 21:46:07 GMT 59.941360 33.216499 35,000 73 543 0
2018-06-22 21:45:56 GMT 59.933853 33.165161 34,975 73 543 0
2018-06-22 21:45:45 GMT 59.926208 33.113342 34,975 73 543 0
2018-06-22 21:45:35 GMT 59.918922 33.064018 35,000 73 544 -64
2018-06-22 21:45:25 GMT 59.911659 33.015148 35,000 73 544 0
2018-06-22 21:45:14 GMT 59.904259 32.965328 35,000 73 544 0
2018-06-22 21:45:04 GMT 59.897049 32.916962 35,000 73 544 0
2018-06-22 21:44:54 GMT 59.889500 32.866642 35,000 73 545 64
2018-06-22 21:44:44 GMT 59.881821 32.815880 35,000 73 546 64
2018-06-22 21:44:33 GMT 59.874325 32.766060 34,975 73 546 64
2018-06-22 21:44:23 GMT 59.867107 32.718044 34,975 73 546 64
2018-06-22 21:44:12 GMT 59.859604 32.668762 34,975 73 546 0
2018-06-22 21:44:02 GMT 59.852142 32.619965 34,975 73 546 0
2018-06-22 21:43:52 GMT 59.844482 32.569633 34,975 73 545 -64
2018-06-22 21:43:42 GMT 59.836945 32.520355 35,000 72 546 0
2018-06-22 21:43:31 GMT 59.829216 32.470093 34,975 73 547 0
2018-06-22 21:43:21 GMT 59.821793 32.421661 34,975 73 547 0
2018-06-22 21:43:11 GMT 59.813873 32.370941 35,000 72 547 0
2018-06-22 21:43:00 GMT 59.805801 32.323009 34,975 70 546 -64
2018-06-22 21:42:50 GMT 59.797047 32.274990 35,000 69 545 0
2018-06-22 21:42:40 GMT 59.787415 32.226288 34,975 67 544 64
2018-06-22 21:42:32 GMT 59.779823 32.190037 34,975 66 542 64
2018-06-22 21:42:29 GMT 59.777405 32.179146 34,975 66 543 64
2018-06-22 21:42:21 GMT 59.769024 32.142017 34,975 65 542 64
2018-06-22 21:42:18 GMT 59.766510 32.131222 34,975 64 542 64
2018-06-22 21:42:09 GMT 59.755848 32.086426 34,975 64 541 64
2018-06-22 21:42:01 GMT 59.747330 32.050625 35,000 64 541 0
2018-06-22 21:41:58 GMT 59.744350 32.038120 34,975 64 541 0
2018-06-22 21:41:48 GMT 59.733582 31.993011 35,000 64 540 -64
2018-06-22 21:41:40 GMT 59.725067 31.957214 35,000 64 541 0
2018-06-22 21:41:37 GMT 59.722275 31.945679 35,000 64 541 0
2018-06-22 21:41:29 GMT 59.714046 31.911304 34,975 64 541 0
2018-06-22 21:41:26 GMT 59.710835 31.897858 35,000 64 541 0
2018-06-22 21:41:17 GMT 59.700485 31.854584 35,000 64 541 0
2018-06-22 21:41:06 GMT 59.688953 31.806841 35,000 64 542 0
2018-06-22 21:40:56 GMT 59.678329 31.762665 35,000 64 542 64
2018-06-22 21:40:45 GMT 59.666840 31.714876 35,000 64 542 0
2018-06-22 21:40:35 GMT 59.655853 31.669416 35,000 64 542 0
2018-06-22 21:40:25 GMT 59.644958 31.624512 34,975 64 542 0
2018-06-22 21:40:14 GMT 59.633514 31.577271 35,000 64 542 64
2018-06-22 21:40:04 GMT 59.622070 31.530029 34,975 64 543 64
2018-06-22 21:39:54 GMT 59.611176 31.485535 34,975 64 543 0
2018-06-22 21:39:43 GMT 59.599640 31.438293 35,000 64 544 0
2018-06-22 21:39:33 GMT 59.588699 31.393799 35,000 64 544 0
2018-06-22 21:39:23 GMT 59.577530 31.348297 35,000 64 546 -64
2018-06-22 21:39:12 GMT 59.565964 31.301279 35,000 63 549 0
2018-06-22 21:39:02 GMT 59.554047 31.253174 34,975 63 551 64
2018-06-22 21:38:52 GMT 59.543060 31.208954 35,000 63 556 64
2018-06-22 21:38:41 GMT 59.531139 31.161015 34,975 63 564 64
2018-06-22 21:38:31 GMT 59.519222 31.112997 35,025 63 567 0
2018-06-22 21:38:20 GMT 59.506981 31.064032 34,975 63 567 0
2018-06-22 21:38:10 GMT 59.495544 31.018158 34,975 63 567 0
2018-06-22 21:38:00 GMT 59.483192 30.968658 34,975 63 568 -64
2018-06-22 21:37:50 GMT 59.471741 30.922943 35,000 63 568 0
2018-06-22 21:37:40 GMT 59.459591 30.874422 35,000 63 568 0
2018-06-22 21:37:29 GMT 59.447388 30.825989 35,000 63 568 64
2018-06-22 21:37:18 GMT 59.435074 30.777100 34,975 63 567 0
2018-06-22 21:37:09 GMT 59.423325 30.730558 35,000 63 567 0
2018-06-22 21:36:58 GMT 59.411362 30.683167 34,975 63 568 0
2018-06-22 21:36:47 GMT 59.399002 30.634369 34,975 63 568 0
2018-06-22 21:36:38 GMT 59.386642 30.585663 34,975 63 567 0
2018-06-22 21:36:27 GMT 59.374741 30.538879 35,000 63 568 0
2018-06-22 21:36:16 GMT 59.362576 30.491701 35,000 63 567 -64
2018-06-22 21:36:06 GMT 59.350342 30.444580 35,000 63 568 0
2018-06-22 21:35:55 GMT 59.338348 30.396698 35,000 64 566 64
2018-06-22 21:35:50 GMT 59.331432 30.367537 34,975 65 565 64
2018-06-22 21:35:45 GMT 59.327271 30.349365 35,000 66 564 0
2018-06-22 21:35:40 GMT 59.321274 30.322266 35,000 67 563 0
2018-06-22 21:35:35 GMT 59.316513 30.299744 34,975 67 562 0
2018-06-22 21:35:29 GMT 59.310150 30.268707 35,000 68 561 0
2018-06-22 21:35:24 GMT 59.306713 30.251232 35,000 69 560 64
2018-06-22 21:35:19 GMT 59.300476 30.218084 34,975 70 559 64
2018-06-22 21:35:14 GMT 59.297653 30.202423 35,000 70 558 64
2018-06-22 21:35:04 GMT 59.289413 30.153717 34,975 72 557 0
2018-06-22 21:34:57 GMT 59.283531 30.117882 35,000 72 557 0
2018-06-22 21:34:54 GMT 59.280739 30.100645 35,000 72 557 0
2018-06-22 21:34:48 GMT 59.275635 30.069580 35,000 72 557 0
2018-06-22 21:34:42 GMT 59.272125 30.048080 34,975 72 556 0
2018-06-22 21:34:37 GMT 59.267944 30.022705 35,000 72 556 64
2018-06-22 21:34:31 GMT 59.263229 29.994141 34,975 72 555 64
2018-06-22 21:34:25 GMT 59.259232 29.969851 34,975 72 555 0
2018-06-22 21:34:21 GMT 59.255356 29.946533 35,000 72 555 0
2018-06-22 21:34:17 GMT 59.251640 29.924200 34,975 72 555 0
2018-06-22 21:34:13 GMT 59.248901 29.907623 35,000 72 555 0
2018-06-22 21:34:10 GMT 59.246754 29.894747 34,975 72 555 0
2018-06-22 21:34:05 GMT 59.242905 29.871460 35,000 72 555 0
2018-06-22 21:34:02 GMT 59.240387 29.856262 35,000 72 554 -64
2018-06-22 21:33:59 GMT 59.238510 29.844910 34,975 71 554 0
2018-06-22 21:33:55 GMT 59.234928 29.823524 35,000 71 554 0
2018-06-22 21:33:52 GMT 59.232468 29.808838 35,000 71 554 0
2018-06-22 21:33:48 GMT 59.229767 29.792816 35,000 71 554 0
2018-06-22 21:33:45 GMT 59.227066 29.776703 35,000 71 554 -64
2018-06-22 21:33:42 GMT 59.224129 29.759123 34,975 71 554 0
2018-06-22 21:33:38 GMT 59.221569 29.743967 35,000 71 553 64
2018-06-22 21:33:35 GMT 59.218868 29.727867 35,000 71 553 0
2018-06-22 21:33:31 GMT 59.215942 29.710419 35,000 71 553 0
2018-06-22 21:33:28 GMT 59.213562 29.696228 35,000 71 553 64
2018-06-22 21:33:25 GMT 59.211182 29.682037 35,000 71 553 0
2018-06-22 21:33:20 GMT 59.207703 29.661163 34,975 71 553 64
2018-06-22 21:33:15 GMT 59.202854 29.632401 34,975 71 553 64
2018-06-22 21:33:11 GMT 59.199688 29.613459 34,975 71 552 0
2018-06-22 21:33:05 GMT 59.194977 29.585632 34,975 71 552 -64
2018-06-22 21:33:00 GMT 59.191216 29.563452 34,975 71 552 -64
2018-06-22 21:32:53 GMT 59.185547 29.530060 35,000 71 551 -64
2018-06-22 21:32:49 GMT 59.183071 29.515432 35,000 71 550 0
2018-06-22 21:32:46 GMT 59.180042 29.497627 35,000 71 550 0
2018-06-22 21:32:43 GMT 59.178040 29.485840 35,000 71 549 -64
2018-06-22 21:32:40 GMT 59.175018 29.468079 35,000 71 549 0
2018-06-22 21:32:33 GMT 59.169849 29.437582 35,000 71 548 0
2018-06-22 21:32:29 GMT 59.166637 29.418924 35,000 71 548 0
2018-06-22 21:32:23 GMT 59.161564 29.388996 35,000 71 548 0
2018-06-22 21:32:19 GMT 59.158676 29.372232 35,000 71 548 -64
2018-06-22 21:32:12 GMT 59.153000 29.339081 35,000 71 547 64
2018-06-22 21:32:08 GMT 59.149879 29.320900 35,000 71 547 0
2018-06-22 21:32:05 GMT 59.146912 29.303741 34,975 71 547 64
2018-06-22 21:32:01 GMT 59.144669 29.290649 35,000 71 547 64
2018-06-22 21:31:57 GMT 59.141590 29.272503 35,000 71 547 -64
2018-06-22 21:31:54 GMT 59.138809 29.256226 34,975 71 547 64
2018-06-22 21:31:50 GMT 59.135818 29.238976 35,000 71 546 64
2018-06-22 21:31:47 GMT 59.133362 29.224640 35,000 71 546 64
2018-06-22 21:31:41 GMT 59.127998 29.193516 34,975 71 545 0
2018-06-22 21:31:33 GMT 59.122147 29.159637 35,000 71 544 64
2018-06-22 21:31:30 GMT 59.119339 29.143414 34,975 71 544 0
2018-06-22 21:31:21 GMT 59.111755 29.099579 35,000 71 542 64
2018-06-22 21:31:10 GMT 59.103149 29.049957 35,000 71 540 64
2018-06-22 21:31:00 GMT 59.095230 29.004181 35,000 71 539 0
2018-06-22 21:30:50 GMT 59.087311 28.958405 34,975 71 539 0
2018-06-22 21:30:39 GMT 59.078979 28.910797 35,000 71 539 64
2018-06-22 21:30:29 GMT 59.070648 28.863190 34,975 71 540 0
2018-06-22 21:30:18 GMT 59.061893 28.813162 35,000 71 542 64
2018-06-22 21:30:10 GMT 59.055313 28.775940 34,975 71 542 64
2018-06-22 21:30:07 GMT 59.053528 28.765869 34,975 71 542 64
2018-06-22 21:29:59 GMT 59.045509 28.720345 35,000 71 543 -64
2018-06-22 21:29:48 GMT 59.037323 28.673950 35,000 71 543 0
2018-06-22 21:29:37 GMT 59.028351 28.623322 35,000 70 544 0
2018-06-22 21:29:27 GMT 59.018974 28.571083 35,000 70 547 0
2018-06-22 21:29:16 GMT 59.011524 28.529505 34,975 70 548 64
2018-06-22 21:29:07 GMT 59.004547 28.490204 35,000 70 549 64
2018-06-22 21:28:58 GMT 58.995975 28.442467 34,975 70 549 64
2018-06-22 21:28:47 GMT 58.987198 28.393890 35,000 70 549 -64
2018-06-22 21:28:36 GMT 58.978661 28.346243 35,000 70 548 0
2018-06-22 21:28:27 GMT 58.970467 28.300970 35,000 70 548 0
2018-06-22 21:28:16 GMT 58.961296 28.250113 34,975 70 548 0
2018-06-22 21:28:05 GMT 58.952080 28.199347 35,000 70 547 -64
2018-06-22 21:27:55 GMT 58.944210 28.156065 35,000 70 548 64
2018-06-22 21:27:45 GMT 58.935242 28.106689 34,975 70 548 64
2018-06-22 21:27:34 GMT 58.926682 28.059723 34,975 70 547 0
2018-06-22 21:27:24 GMT 58.917816 28.011538 35,000 70 546 -64
2018-06-22 21:27:14 GMT 58.909065 27.963900 35,000 70 544 0
2018-06-22 21:27:04 GMT 58.900406 27.916901 34,975 70 543 0
2018-06-22 21:26:53 GMT 58.891514 27.868999 35,000 70 543 0
2018-06-22 21:26:43 GMT 58.883041 27.823540 34,975 70 543 0
2018-06-22 21:26:32 GMT 58.874195 27.776279 35,000 70 541 0
2018-06-22 21:26:22 GMT 58.865341 27.728668 35,000 70 541 0
2018-06-22 21:26:12 GMT 58.856598 27.681948 34,975 70 541 64
2018-06-22 21:26:01 GMT 58.847569 27.634003 34,975 69 540 0
2018-06-22 21:25:51 GMT 58.838863 27.587952 35,000 69 540 0
2018-06-22 21:25:41 GMT 58.829773 27.539536 34,975 70 541 0
2018-06-22 21:25:30 GMT 58.820938 27.492920 34,975 69 542 -64
2018-06-22 21:25:20 GMT 58.812286 27.447126 35,000 69 544 0
2018-06-22 21:25:09 GMT 58.803249 27.399353 35,000 70 546 0
2018-06-22 21:24:58 GMT 58.794250 27.350199 35,000 70 550 0
2018-06-22 21:24:48 GMT 58.785652 27.302582 34,975 70 553 0
2018-06-22 21:24:37 GMT 58.776627 27.252916 34,975 70 554 0
2018-06-22 21:24:27 GMT 58.767918 27.205078 34,975 70 554 64
2018-06-22 21:24:17 GMT 58.759445 27.158752 34,975 70 553 0
2018-06-22 21:24:07 GMT 58.750462 27.109589 35,000 70 553 0
2018-06-22 21:23:55 GMT 58.740875 27.057287 34,975 70 552 0
2018-06-22 21:23:46 GMT 58.732773 27.012989 35,000 70 552 -64
2018-06-22 21:23:35 GMT 58.723618 26.963106 35,000 70 551 0
2018-06-22 21:23:25 GMT 58.714966 26.916061 34,975 70 551 0
2018-06-22 21:23:14 GMT 58.706001 26.867706 35,000 70 551 -64
2018-06-22 21:23:03 GMT 58.696739 26.818176 35,000 70 550 0
2018-06-22 21:22:54 GMT 58.687958 26.770935 34,975 70 549 64
2018-06-22 21:22:43 GMT 58.679077 26.723356 34,975 70 549 64
2018-06-22 21:22:32 GMT 58.669693 26.673120 34,975 70 548 0
2018-06-22 21:22:21 GMT 58.660568 26.624359 35,000 70 547 0
2018-06-22 21:22:12 GMT 58.652802 26.582838 35,000 70 546 0
2018-06-22 21:22:01 GMT 58.643600 26.533754 35,000 70 546 -64
2018-06-22 21:21:50 GMT 58.634033 26.483276 35,000 70 546 0
2018-06-22 21:21:40 GMT 58.625519 26.438334 34,975 70 547 -64
2018-06-22 21:21:29 GMT 58.616180 26.389160 35,000 69 548 0
2018-06-22 21:21:18 GMT 58.606846 26.340454 35,000 69 549 0
2018-06-22 21:21:09 GMT 58.597675 26.292114 34,975 69 549 64
2018-06-22 21:20:58 GMT 58.588783 26.245605 35,000 70 550 0
2018-06-22 21:20:47 GMT 58.579330 26.195925 34,975 69 549 -64
2018-06-22 21:20:36 GMT 58.570038 26.147638 35,000 69 550 -64
2018-06-22 21:20:26 GMT 58.560574 26.098846 35,000 69 551 64
2018-06-22 21:20:14 GMT 58.550892 26.048676 35,000 69 552 0
2018-06-22 21:20:11 GMT 58.548111 26.034496 35,000 69 552 0
2018-06-22 21:20:05 GMT 58.542252 26.004374 34,975 69 552 0
2018-06-22 21:20:02 GMT 58.539093 25.987892 35,000 69 552 -64
2018-06-22 21:19:54 GMT 58.532364 25.953161 34,975 69 552 0
2018-06-22 21:19:50 GMT 58.529430 25.938080 35,000 69 552 0
2018-06-22 21:19:43 GMT 58.523380 25.907043 34,975 69 551 0
2018-06-22 21:19:39 GMT 58.519730 25.888395 34,975 69 551 0
2018-06-22 21:19:33 GMT 58.513824 25.858273 34,975 69 551 -64
2018-06-22 21:19:29 GMT 58.509384 25.835590 34,975 69 550 -64
2018-06-22 21:19:22 GMT 58.504337 25.809631 35,000 69 550 0
2018-06-22 21:19:17 GMT 58.500240 25.788757 35,000 69 549 0
2018-06-22 21:19:11 GMT 58.494701 25.760651 35,000 69 549 -64
2018-06-22 21:19:07 GMT 58.491211 25.743006 35,000 69 549 0
2018-06-22 21:19:01 GMT 58.485489 25.714033 35,000 69 548 0
2018-06-22 21:18:57 GMT 58.481808 25.695557 35,000 69 548 0
2018-06-22 21:18:51 GMT 58.476379 25.667961 34,975 69 547 0
2018-06-22 21:18:47 GMT 58.472870 25.650421 34,975 69 547 0
2018-06-22 21:18:41 GMT 58.466633 25.618835 35,000 69 547 0
2018-06-22 21:18:37 GMT 58.463470 25.603106 34,975 69 547 0
2018-06-22 21:18:29 GMT 58.457321 25.572052 35,000 69 546 0
2018-06-22 21:18:26 GMT 58.453735 25.554108 35,000 69 546 0
2018-06-22 21:18:19 GMT 58.448135 25.525759 34,975 69 546 0
2018-06-22 21:18:15 GMT 58.444565 25.507772 34,975 69 546 0
2018-06-22 21:18:09 GMT 58.438747 25.478577 34,975 69 546 -64
2018-06-22 21:18:05 GMT 58.435349 25.461456 34,975 69 546 -64
2018-06-22 21:17:58 GMT 58.429550 25.432375 35,000 69 545 0
2018-06-22 21:17:55 GMT 58.426037 25.414856 35,000 69 546 -64
2018-06-22 21:17:48 GMT 58.420128 25.385284 35,000 69 546 0
2018-06-22 21:17:42 GMT 58.414726 25.358368 34,975 69 546 0
2018-06-22 21:17:37 GMT 58.410507 25.337309 34,975 69 546 0
2018-06-22 21:17:33 GMT 58.405655 25.313120 34,975 69 546 0
2018-06-22 21:17:30 GMT 58.403870 25.304083 34,975 69 545 0
2018-06-22 21:17:26 GMT 58.400341 25.286682 34,975 69 545 0
2018-06-22 21:17:21 GMT 58.396385 25.266998 34,975 69 545 0
2018-06-22 21:17:15 GMT 58.390984 25.240265 34,975 69 544 0
2018-06-22 21:17:12 GMT 58.387398 25.222412 34,975 69 544 -64
2018-06-22 21:17:03 GMT 58.379719 25.184052 35,000 69 542 0
2018-06-22 21:16:56 GMT 58.372284 25.147173 35,000 68 542 -64
2018-06-22 21:16:53 GMT 58.370548 25.138733 34,975 68 542 0
2018-06-22 21:16:48 GMT 58.365097 25.111734 35,000 68 542 -64
2018-06-22 21:16:42 GMT 58.361050 25.091766 35,000 68 542 0
2018-06-22 21:16:37 GMT 58.355652 25.065125 35,000 68 542 -64
2018-06-22 21:16:32 GMT 58.351959 25.046968 34,975 68 542 64
2018-06-22 21:16:25 GMT 58.345921 25.017242 34,975 68 542 64
2018-06-22 21:16:22 GMT 58.342289 24.999481 34,975 68 542 0
2018-06-22 21:16:15 GMT 58.336285 24.970184 35,000 68 542 0
2018-06-22 21:16:11 GMT 58.332653 24.952423 34,975 68 542 0
2018-06-22 21:16:05 GMT 58.327023 24.924866 34,975 68 543 0
2018-06-22 21:16:01 GMT 58.323486 24.907600 35,000 68 543 0
2018-06-22 21:15:55 GMT 58.317627 24.879250 35,000 68 542 0
2018-06-22 21:15:51 GMT 58.313892 24.861053 35,000 68 542 0
2018-06-22 21:15:44 GMT 58.308380 24.834063 35,000 68 542 0
2018-06-22 21:15:40 GMT 58.304443 24.815002 35,000 68 542 0
2018-06-22 21:15:34 GMT 58.298763 24.787628 35,000 68 542 0
2018-06-22 21:15:29 GMT 58.295132 24.769958 34,975 68 542 64
2018-06-22 21:15:23 GMT 58.288971 24.740326 34,975 68 542 0
2018-06-22 21:15:19 GMT 58.285126 24.721807 34,975 68 542 0
2018-06-22 21:15:13 GMT 58.279911 24.696625 35,000 68 541 -64
2018-06-22 21:15:08 GMT 58.275349 24.674561 34,975 68 541 0
2018-06-22 21:15:02 GMT 58.270275 24.649841 35,000 68 541 0
2018-06-22 21:14:58 GMT 58.265339 24.626038 34,975 68 541 64
2018-06-22 21:14:52 GMT 58.260452 24.602640 34,975 68 540 0
2018-06-22 21:14:46 GMT 58.255051 24.576691 35,000 68 540 -64
2018-06-22 21:14:42 GMT 58.251419 24.559113 35,000 68 540 0
2018-06-22 21:14:38 GMT 58.247559 24.540619 35,000 68 540 0
2018-06-22 21:14:35 GMT 58.245743 24.531830 35,000 68 540 0
2018-06-22 21:14:32 GMT 58.241505 24.511597 35,000 68 540 0
2018-06-22 21:14:25 GMT 58.236153 24.486145 35,000 68 540 0
2018-06-22 21:14:20 GMT 58.231216 24.462433 34,975 68 541 0
2018-06-22 21:14:17 GMT 58.227631 24.445290 35,000 68 540 -64
2018-06-22 21:14:14 GMT 58.226349 24.439087 34,975 68 540 -64
2018-06-22 21:14:11 GMT 58.222557 24.421143 34,975 68 540 0
2018-06-22 21:14:04 GMT 58.216461 24.392212 34,975 68 540 -64
2018-06-22 21:14:00 GMT 58.213028 24.375916 35,000 68 539 0
2018-06-22 21:13:54 GMT 58.206940 24.347033 35,000 68 539 -64
2018-06-22 21:13:49 GMT 58.203331 24.329956 35,000 68 539 -64
2018-06-22 21:13:43 GMT 58.197098 24.300695 35,000 68 539 -64
2018-06-22 21:13:39 GMT 58.193390 24.283152 35,000 68 539 -64
2018-06-22 21:13:32 GMT 58.187412 24.254700 35,000 68 539 0
2018-06-22 21:13:28 GMT 58.183502 24.236389 35,000 68 539 0
2018-06-22 21:13:25 GMT 58.179703 24.218473 35,000 68 539 0
2018-06-22 21:13:20 GMT 58.175079 24.196590 35,000 68 539 0
2018-06-22 21:13:17 GMT 58.173679 24.190063 35,000 68 539 0
2018-06-22 21:13:11 GMT 58.167709 24.161594 35,000 68 538 0
2018-06-22 21:13:08 GMT 58.165020 24.148956 34,975 68 538 64
2018-06-22 21:13:04 GMT 58.160477 24.127571 34,975 68 539 0
2018-06-22 21:12:58 GMT 58.156082 24.107117 35,000 68 539 0
2018-06-22 21:12:52 GMT 58.150223 24.079639 35,000 67 538 64
2018-06-22 21:12:48 GMT 58.145187 24.056160 34,975 67 538 0
2018-06-22 21:12:41 GMT 58.139324 24.028748 35,000 67 538 0
2018-06-22 21:12:37 GMT 58.136158 24.013916 34,975 67 538 0
2018-06-22 21:12:31 GMT 58.130814 23.989180 34,975 67 538 0
2018-06-22 21:12:27 GMT 58.127033 23.971344 35,000 67 538 0
2018-06-22 21:12:22 GMT 58.121155 23.943905 34,975 67 537 0
2018-06-22 21:12:17 GMT 58.117863 23.928772 34,975 67 537 0
2018-06-22 21:12:11 GMT 58.111343 23.898376 35,000 67 537 0
2018-06-22 21:12:06 GMT 58.106781 23.877102 34,975 67 536 0
2018-06-22 21:12:01 GMT 58.102112 23.855482 34,975 67 536 0
2018-06-22 21:11:55 GMT 58.096893 23.831295 34,975 67 536 -64
2018-06-22 21:11:49 GMT 58.090256 23.800598 34,975 67 536 -64
2018-06-22 21:11:44 GMT 58.086777 23.784603 34,975 67 535 0
2018-06-22 21:11:40 GMT 58.082657 23.765554 35,000 67 535 -64
2018-06-22 21:11:35 GMT 58.078106 23.744385 35,000 67 535 0
2018-06-22 21:11:30 GMT 58.073589 23.723694 35,000 67 535 0
2018-06-22 21:11:26 GMT 58.069199 23.703358 35,000 67 536 0
2018-06-22 21:11:22 GMT 58.065628 23.686966 34,975 67 536 0
2018-06-22 21:11:14 GMT 58.057892 23.651615 34,975 67 535 0
2018-06-22 21:11:08 GMT 58.051666 23.623175 35,000 67 535 -64
2018-06-22 21:11:05 GMT 58.050156 23.616352 34,975 67 535 0
2018-06-22 21:11:02 GMT 58.047428 23.603851 35,000 67 535 0
2018-06-22 21:10:55 GMT 58.040073 23.570251 35,000 67 535 0
2018-06-22 21:10:52 GMT 58.037651 23.559082 35,000 67 535 0
2018-06-22 21:10:45 GMT 58.030670 23.527222 34,975 67 535 0
2018-06-22 21:10:42 GMT 58.028549 23.517387 34,975 67 534 0
2018-06-22 21:10:35 GMT 58.020813 23.482124 34,975 67 534 0
2018-06-22 21:10:31 GMT 58.018425 23.471466 34,975 67 534 0
2018-06-22 21:10:24 GMT 58.011070 23.437958 34,975 67 533 0
2018-06-22 21:10:21 GMT 58.008602 23.426880 35,000 67 533 0
2018-06-22 21:10:14 GMT 58.001358 23.393969 34,975 67 533 0
2018-06-22 21:10:11 GMT 57.998703 23.382008 34,975 67 533 0
2018-06-22 21:10:04 GMT 57.990967 23.347010 35,000 67 532 -64
2018-06-22 21:10:01 GMT 57.989006 23.337982 34,975 67 532 -64
2018-06-22 21:09:52 GMT 57.981277 23.303009 35,000 67 532 -64
2018-06-22 21:09:49 GMT 57.978485 23.290192 35,000 67 532 -64
2018-06-22 21:09:43 GMT 57.972061 23.261169 35,000 67 533 -64
2018-06-22 21:09:39 GMT 57.969406 23.249268 35,000 67 533 -64
2018-06-22 21:09:32 GMT 57.961487 23.213757 34,975 67 534 0
2018-06-22 21:09:29 GMT 57.959492 23.204773 35,000 67 534 0
2018-06-22 21:09:22 GMT 57.952515 23.173532 35,000 67 536 64
2018-06-22 21:09:19 GMT 57.949631 23.160686 35,000 67 536 64
2018-06-22 21:09:08 GMT 57.939651 23.116119 34,975 67 538 64
2018-06-22 21:08:58 GMT 57.929325 23.070007 34,975 67 540 0
2018-06-22 21:08:50 GMT 57.921707 23.036026 34,975 67 539 0
2018-06-22 21:08:47 GMT 57.919189 23.024775 34,975 67 539 -64
2018-06-22 21:08:41 GMT 57.912521 22.995117 35,000 66 539 -64
2018-06-22 21:08:37 GMT 57.909588 22.982208 35,000 66 539 -64
2018-06-22 21:08:32 GMT 57.903854 22.956820 35,000 66 539 0
2018-06-22 21:08:27 GMT 57.899368 22.936972 35,000 66 539 0
2018-06-22 21:08:21 GMT 57.893738 22.912077 34,975 66 539 0
2018-06-22 21:08:17 GMT 57.889069 22.891432 35,000 66 539 -64
2018-06-22 21:08:11 GMT 57.884075 22.869507 35,000 66 539 0
2018-06-22 21:08:05 GMT 57.878445 22.844604 35,000 66 539 -64
2018-06-22 21:08:02 GMT 57.874695 22.827818 35,000 67 539 -64
2018-06-22 21:07:59 GMT 57.872726 22.819223 35,000 67 538 -64
2018-06-22 21:07:56 GMT 57.868835 22.802034 35,000 66 539 -64
2018-06-22 21:07:52 GMT 57.864662 22.783630 35,000 66 539 -64
2018-06-22 21:07:45 GMT 57.858353 22.755787 35,000 66 538 64
2018-06-22 21:07:41 GMT 57.854233 22.737801 35,000 66 538 0
2018-06-22 21:07:35 GMT 57.848278 22.711670 35,000 66 538 0
2018-06-22 21:07:31 GMT 57.844414 22.694550 35,000 66 537 -64
2018-06-22 21:07:23 GMT 57.837757 22.665527 34,975 66 537 0
2018-06-22 21:07:20 GMT 57.834732 22.652302 34,975 66 537 0
2018-06-22 21:07:14 GMT 57.828167 22.623688 34,975 66 536 0
2018-06-22 21:07:11 GMT 57.824631 22.608398 34,975 66 536 0
2018-06-22 21:07:07 GMT 57.821045 22.592587 34,975 66 536 0
2018-06-22 21:07:03 GMT 57.817886 22.578941 34,975 66 536 0
2018-06-22 21:07:00 GMT 57.814178 22.562817 34,975 66 535 -64
2018-06-22 21:06:53 GMT 57.807823 22.535156 35,000 66 535 -64
2018-06-22 21:06:49 GMT 57.803833 22.517719 35,000 66 534 0
2018-06-22 21:06:42 GMT 57.797012 22.488039 35,000 66 534 -64
2018-06-22 21:06:39 GMT 57.794632 22.477850 35,000 66 534 0
2018-06-22 21:06:34 GMT 57.789482 22.455414 35,000 66 534 0
2018-06-22 21:06:30 GMT 57.784515 22.433817 35,000 66 533 -64
2018-06-22 21:06:27 GMT 57.782135 22.423628 35,000 66 534 0
2018-06-22 21:06:22 GMT 57.777332 22.402954 35,000 66 534 64
2018-06-22 21:06:19 GMT 57.774399 22.390228 34,975 66 534 64
2018-06-22 21:06:12 GMT 57.767441 22.360279 34,975 66 533 0
2018-06-22 21:06:09 GMT 57.763916 22.345039 34,975 66 533 64
2018-06-22 21:05:59 GMT 57.754662 22.304901 35,000 66 533 -64
2018-06-22 21:05:51 GMT 57.746384 22.269020 34,975 66 532 0
2018-06-22 21:05:48 GMT 57.742859 22.253872 34,975 66 532 0
2018-06-22 21:05:40 GMT 57.736462 22.226440 34,975 66 532 0
2018-06-22 21:05:35 GMT 57.730919 22.202911 34,975 66 533 -64
2018-06-22 21:05:28 GMT 57.723610 22.171740 35,000 66 532 0
2018-06-22 21:05:17 GMT 57.713837 22.130156 35,000 66 531 0
2018-06-22 21:05:08 GMT 57.704041 22.088184 35,000 66 531 0
2018-06-22 21:04:58 GMT 57.695389 22.051277 35,000 66 531 0
2018-06-22 21:04:54 GMT 57.691536 22.034943 35,000 66 531 0
2018-06-22 21:04:49 GMT 57.685020 22.007299 35,000 66 530 64
2018-06-22 21:04:38 GMT 57.675289 21.966366 34,975 66 531 0
2018-06-22 21:04:26 GMT 57.663757 21.917467 34,975 66 530 0
2018-06-22 21:04:16 GMT 57.652679 21.870775 35,000 66 530 -64
2018-06-22 21:04:06 GMT 57.643982 21.834040 35,000 66 529 0
2018-06-22 21:03:54 GMT 57.631577 21.781990 35,000 66 530 0
2018-06-22 21:03:45 GMT 57.623154 21.746578 34,975 65 532 64
2018-06-22 21:03:34 GMT 57.611938 21.699715 34,975 65 534 -64
2018-06-22 21:03:22 GMT 57.600037 21.650276 35,000 65 534 0
2018-06-22 21:03:15 GMT 57.592438 21.618347 35,000 65 534 -64
2018-06-22 21:03:12 GMT 57.590332 21.609575 35,000 65 534 0
2018-06-22 21:03:02 GMT 57.580170 21.567278 34,975 65 534 0
2018-06-22 21:02:52 GMT 57.569641 21.523676 35,000 65 534 0
2018-06-22 21:02:41 GMT 57.559093 21.479778 35,000 65 533 -64
2018-06-22 21:02:34 GMT 57.550808 21.445578 35,000 65 533 -64
2018-06-22 21:02:31 GMT 57.547073 21.430120 35,000 65 533 0
2018-06-22 21:02:23 GMT 57.540390 21.402569 35,000 65 533 0
2018-06-22 21:02:20 GMT 57.537781 21.391754 35,000 65 533 0
2018-06-22 21:02:13 GMT 57.530090 21.359997 34,975 65 533 0
2018-06-22 21:02:10 GMT 57.527481 21.349182 35,000 65 533 0
2018-06-22 21:02:02 GMT 57.519562 21.316566 34,975 65 526 -64
2018-06-22 21:01:59 GMT 57.516640 21.304527 34,975 65 534 0
2018-06-22 21:01:53 GMT 57.509285 21.274492 34,975 65 534 -64
2018-06-22 21:01:48 GMT 57.505047 21.256950 35,000 65 534 -64
2018-06-22 21:01:42 GMT 57.498158 21.228598 35,000 65 532 0
2018-06-22 21:01:39 GMT 57.495506 21.217789 35,000 65 532 0
2018-06-22 21:01:29 GMT 57.485775 21.178007 35,000 65 531 0
2018-06-22 21:01:21 GMT 57.477676 21.144873 34,975 65 530 64
2018-06-22 21:01:18 GMT 57.474747 21.132889 34,975 65 530 0
2018-06-22 21:01:12 GMT 57.467285 21.102247 34,975 65 529 0
2018-06-22 21:01:08 GMT 57.464363 21.090296 34,975 65 529 0
2018-06-22 21:01:00 GMT 57.456680 21.059019 34,975 65 528 0
2018-06-22 21:00:57 GMT 57.453369 21.045427 34,975 65 528 0
2018-06-22 21:00:51 GMT 57.446869 21.019077 34,975 65 527 0
2018-06-22 21:00:47 GMT 57.443253 21.004314 35,000 65 527 -64
2018-06-22 21:00:40 GMT 57.436478 20.976887 35,000 65 526 -64
2018-06-22 21:00:37 GMT 57.432472 20.960497 34,975 65 526 -64
2018-06-22 21:00:29 GMT 57.425125 20.930586 35,000 65 525 -64
2018-06-22 21:00:26 GMT 57.421764 20.917084 35,000 65 526 0
2018-06-22 21:00:19 GMT 57.414963 20.889816 35,000 65 525 -64
2018-06-22 21:00:15 GMT 57.411198 20.874731 35,000 64 525 -64
2018-06-22 21:00:09 GMT 57.405052 20.850279 34,975 64 525 0
2018-06-22 21:00:05 GMT 57.400726 20.833267 34,975 64 525 0
2018-06-22 20:59:57 GMT 57.391525 20.797119 34,975 64 526 0
2018-06-22 20:59:54 GMT 57.389553 20.789412 34,975 64 526 64
2018-06-22 20:59:49 GMT 57.383652 20.766220 34,975 64 526 -64
2018-06-22 20:59:45 GMT 57.379303 20.749140 34,975 64 526 -64
2018-06-22 20:59:39 GMT 57.373306 20.725622 34,975 64 525 64
2018-06-22 20:59:34 GMT 57.368088 20.705366 34,975 64 525 -64
2018-06-22 20:59:28 GMT 57.362091 20.681849 35,000 64 526 64
2018-06-22 20:59:23 GMT 57.357513 20.663996 34,975 64 526 0
2018-06-22 20:59:19 GMT 57.351986 20.642513 34,975 64 526 -64
2018-06-22 20:59:13 GMT 57.346893 20.622625 34,975 64 526 -64
2018-06-22 20:59:08 GMT 57.341000 20.599455 35,000 64 525 -64
2018-06-22 20:59:02 GMT 57.335365 20.577570 35,000 64 526 0
2018-06-22 20:58:57 GMT 57.330570 20.558964 35,000 64 526 -64
2018-06-22 20:58:53 GMT 57.324520 20.535484 35,000 64 525 -64
2018-06-22 20:58:48 GMT 57.319492 20.516083 34,975 64 525 -64
2018-06-22 20:58:42 GMT 57.314163 20.495510 35,000 64 525 -64
2018-06-22 20:58:35 GMT 57.306885 20.467272 35,000 64 524 -64
2018-06-22 20:58:31 GMT 57.301895 20.447874 35,000 64 524 -64
2018-06-22 20:58:27 GMT 57.298264 20.433773 35,000 64 524 -64
2018-06-22 20:58:21 GMT 57.292099 20.410023 35,000 64 524 0
2018-06-22 20:58:16 GMT 57.287109 20.390711 34,975 64 523 0
2018-06-22 20:58:10 GMT 57.281021 20.367365 35,000 64 523 0
2018-06-22 20:58:06 GMT 57.276855 20.351315 35,000 64 523 0
2018-06-22 20:58:01 GMT 57.270584 20.327196 35,000 64 523 -64
2018-06-22 20:57:55 GMT 57.265026 20.305836 35,000 64 523 0
2018-06-22 20:57:50 GMT 57.260330 20.287800 34,975 64 522 0
2018-06-22 20:57:44 GMT 57.254177 20.264194 34,975 64 522 64
2018-06-22 20:57:39 GMT 57.248840 20.243769 34,975 64 521 0
2018-06-22 20:57:35 GMT 57.244080 20.225315 35,000 64 521 -64
2018-06-22 20:57:28 GMT 57.237282 20.199339 34,975 64 521 0
2018-06-22 20:57:24 GMT 57.233322 20.184189 34,975 64 521 0
2018-06-22 20:57:18 GMT 57.226730 20.159054 34,975 64 521 0
2018-06-22 20:57:15 GMT 57.222565 20.143089 34,975 64 521 -64
2018-06-22 20:57:09 GMT 57.216610 20.120308 34,975 64 521 -64
2018-06-22 20:57:03 GMT 57.211487 20.100775 34,975 64 521 -64
2018-06-22 20:56:58 GMT 57.205254 20.077337 34,975 63 521 -64
2018-06-22 20:56:53 GMT 57.200829 20.060593 35,000 63 521 -64
2018-06-22 20:56:48 GMT 57.194916 20.038265 35,000 64 521 -64
2018-06-22 20:56:43 GMT 57.190018 20.019579 35,000 64 521 0
2018-06-22 20:56:37 GMT 57.184116 19.996801 35,000 64 521 0
2018-06-22 20:56:32 GMT 57.179043 19.976776 34,975 65 521 0
2018-06-22 20:56:27 GMT 57.173458 19.954273 34,975 65 521 -64
2018-06-22 20:56:23 GMT 57.169601 19.938469 35,000 65 521 -64
2018-06-22 20:56:16 GMT 57.163261 19.912277 35,000 66 521 0
2018-06-22 20:56:13 GMT 57.159584 19.896860 34,975 66 521 -64
2018-06-22 20:56:06 GMT 57.153069 19.869217 35,000 66 521 0
2018-06-22 20:56:02 GMT 57.149715 19.854509 35,000 67 522 -64
2018-06-22 20:55:56 GMT 57.143509 19.827061 34,975 67 522 -64
2018-06-22 20:55:52 GMT 57.140171 19.811893 34,975 67 522 -64
2018-06-22 20:55:45 GMT 57.133842 19.783188 35,000 67 522 -64
2018-06-22 20:55:42 GMT 57.131012 19.770412 35,000 67 522 -64
2018-06-22 20:55:32 GMT 57.121765 19.728613 34,975 67 522 0
2018-06-22 20:55:24 GMT 57.114853 19.697371 34,975 67 522 -64
2018-06-22 20:55:20 GMT 57.111603 19.682693 34,975 67 522 -64
2018-06-22 20:55:14 GMT 57.105377 19.654799 35,000 67 522 -64
2018-06-22 20:55:10 GMT 57.102558 19.642138 35,000 67 521 -64
2018-06-22 20:55:03 GMT 57.095947 19.612312 35,000 67 521 0
2018-06-22 20:55:00 GMT 57.093567 19.601669 35,000 67 521 -64
2018-06-22 20:54:51 GMT 57.084030 19.558765 35,000 67 520 -64
2018-06-22 20:54:40 GMT 57.075138 19.518719 35,000 67 521 0
2018-06-22 20:54:32 GMT 57.067455 19.484518 35,000 67 521 -64
2018-06-22 20:54:29 GMT 57.064896 19.473089 35,000 67 521 -64
2018-06-22 20:54:19 GMT 57.056213 19.434385 35,000 67 520 64
2018-06-22 20:54:10 GMT 57.046280 19.390440 34,975 67 519 0
2018-06-22 20:53:59 GMT 57.037247 19.350290 35,000 67 518 0
2018-06-22 20:53:49 GMT 57.028309 19.310598 34,975 67 517 0
2018-06-22 20:53:39 GMT 57.018494 19.267445 34,975 67 516 -64
2018-06-22 20:53:27 GMT 57.008148 19.221821 35,000 67 516 0
2018-06-22 20:53:18 GMT 56.999771 19.184788 35,000 67 515 0
2018-06-22 20:53:08 GMT 56.990646 19.144564 35,000 67 515 -64
2018-06-22 20:52:58 GMT 56.980728 19.100761 35,000 67 515 0
2018-06-22 20:52:46 GMT 56.971024 19.058189 34,975 67 515 -64
2018-06-22 20:52:35 GMT 56.960724 19.013214 35,000 67 516 0
2018-06-22 20:52:25 GMT 56.951405 18.972679 35,000 67 516 -64
2018-06-22 20:52:15 GMT 56.941628 18.930153 35,000 67 515 0
2018-06-22 20:52:12 GMT 56.939812 18.922178 35,000 67 515 -64
2018-06-22 20:52:05 GMT 56.932968 18.892496 35,000 67 514 -64
2018-06-22 20:51:55 GMT 56.924076 18.854134 35,000 67 514 -64
2018-06-22 20:51:44 GMT 56.913601 18.808681 34,975 67 513 0
2018-06-22 20:51:35 GMT 56.904877 18.770828 35,000 67 513 -64
2018-06-22 20:51:25 GMT 56.896004 18.732222 34,975 67 512 -64
2018-06-22 20:51:16 GMT 56.887859 18.697224 34,975 67 512 0
2018-06-22 20:50:53 GMT 56.866196 18.604660 34,975 66 513 -64
2018-06-22 20:50:42 GMT 56.855072 18.556938 35,000 66 512 0
2018-06-22 20:50:37 GMT 56.851364 18.541059 35,000 66 512 -64
2018-06-22 20:50:32 GMT 56.846802 18.521620 34,975 66 512 -64
2018-06-22 20:50:26 GMT 56.841339 18.498316 34,975 66 512 -64
2018-06-22 20:50:22 GMT 56.837219 18.480892 35,000 66 512 -64
2018-06-22 20:50:16 GMT 56.832047 18.458662 35,000 66 512 0
2018-06-22 20:50:10 GMT 56.826550 18.435324 34,975 66 512 0
2018-06-22 20:50:06 GMT 56.822266 18.417072 35,000 66 512 -64
2018-06-22 20:50:00 GMT 56.817612 18.397314 35,000 66 512 0
2018-06-22 20:49:55 GMT 56.812454 18.375492 35,000 66 512 0
2018-06-22 20:49:49 GMT 56.807137 18.352926 34,975 66 513 -64
2018-06-22 20:49:45 GMT 56.802807 18.334764 34,975 66 513 -64
2018-06-22 20:49:39 GMT 56.797623 18.313007 34,975 66 513 -64
2018-06-22 20:49:34 GMT 56.793404 18.295160 34,975 66 512 0
2018-06-22 20:49:30 GMT 56.788101 18.272581 34,975 66 512 0
2018-06-22 20:49:24 GMT 56.782883 18.250437 34,975 66 512 0
2018-06-22 20:49:18 GMT 56.778088 18.230217 35,000 66 513 -64
2018-06-22 20:49:14 GMT 56.773865 18.212414 35,000 66 513 -64
2018-06-22 20:49:08 GMT 56.768738 18.191128 35,000 66 512 -64
2018-06-22 20:49:04 GMT 56.764572 18.173704 34,975 66 513 -64
2018-06-22 20:49:01 GMT 56.761368 18.160315 34,975 66 513 -64
2018-06-22 20:48:58 GMT 56.759048 18.150389 34,975 66 513 -64
2018-06-22 20:48:53 GMT 56.754349 18.130630 35,000 66 512 0
2018-06-22 20:48:50 GMT 56.751984 18.120747 34,975 66 512 0
2018-06-22 20:48:47 GMT 56.749191 18.108902 34,975 66 512 0
2018-06-22 20:48:43 GMT 56.745026 18.091564 34,975 66 512 -64
2018-06-22 20:48:36 GMT 56.738892 18.065952 34,975 66 512 -64
2018-06-22 20:48:33 GMT 56.735229 18.050537 34,975 66 512 -64
2018-06-22 20:48:26 GMT 56.729301 18.025728 35,000 66 512 -64
2018-06-22 20:48:22 GMT 56.725250 18.008823 35,000 66 511 0
2018-06-22 20:48:19 GMT 56.722134 17.995783 35,000 66 511 0
2018-06-22 20:48:11 GMT 56.713531 17.959986 35,000 66 511 -64
2018-06-22 20:48:01 GMT 56.705841 17.928270 35,000 66 511 -64
2018-06-22 20:47:50 GMT 56.694435 17.881136 35,000 66 511 0
2018-06-22 20:47:40 GMT 56.685608 17.844629 35,000 66 512 -64
2018-06-22 20:47:30 GMT 56.675999 17.804939 35,000 66 512 0
2018-06-22 20:47:21 GMT 56.667160 17.768412 34,975 66 513 64
2018-06-22 20:47:10 GMT 56.656727 17.725554 35,000 66 513 -64
2018-06-22 20:47:00 GMT 56.647247 17.686615 35,000 66 513 -64
2018-06-22 20:46:49 GMT 56.637177 17.645372 34,975 65 513 0
2018-06-22 20:46:40 GMT 56.627838 17.607222 35,000 66 513 -64
2018-06-22 20:46:28 GMT 56.616302 17.560186 34,975 66 513 0
2018-06-22 20:46:21 GMT 56.609619 17.532721 34,975 66 513 -64
2018-06-22 20:46:18 GMT 56.607010 17.522219 34,975 66 513 -64
2018-06-22 20:46:15 GMT 56.604034 17.510061 34,975 66 513 -64
2018-06-22 20:46:09 GMT 56.598450 17.487316 34,975 65 513 -64
2018-06-22 20:45:58 GMT 56.587971 17.444572 34,975 65 513 -64
2018-06-22 20:45:49 GMT 56.578705 17.406979 35,000 65 512 -64
2018-06-22 20:45:37 GMT 56.567734 17.362810 35,000 65 512 -64
2018-06-22 20:45:34 GMT 56.564621 17.350243 35,000 65 512 -64
2018-06-22 20:45:27 GMT 56.557384 17.320976 35,000 65 512 0
2018-06-22 20:45:23 GMT 56.554077 17.307673 34,975 65 512 -64
2018-06-22 20:45:16 GMT 56.547455 17.280745 35,000 65 512 -64
2018-06-22 20:45:13 GMT 56.544159 17.267427 35,000 65 512 0
2018-06-22 20:45:06 GMT 56.537647 17.241240 35,000 65 513 -64
2018-06-22 20:45:03 GMT 56.534573 17.228794 34,975 65 513 -64
2018-06-22 20:44:55 GMT 56.526306 17.195601 35,000 65 513 0
2018-06-22 20:44:52 GMT 56.523449 17.184248 34,975 65 513 0
2018-06-22 20:44:46 GMT 56.517700 17.161226 35,000 65 513 0
2018-06-22 20:44:43 GMT 56.514694 17.149143 34,975 65 513 0
2018-06-22 20:44:36 GMT 56.508224 17.123308 35,000 65 513 0
2018-06-22 20:44:32 GMT 56.504734 17.109318 34,975 65 513 -64
2018-06-22 20:44:25 GMT 56.497284 17.079620 35,000 65 513 -64
2018-06-22 20:44:19 GMT 56.491333 17.055775 34,975 65 513 -64
2018-06-22 20:44:15 GMT 56.487213 17.039379 34,975 65 513 -64
2018-06-22 20:44:11 GMT 56.484329 17.027727 35,000 65 513 -64
2018-06-22 20:44:05 GMT 56.476803 16.997652 34,975 65 512 -64
2018-06-22 20:43:59 GMT 56.472286 16.979799 34,975 65 512 -64
2018-06-22 20:43:55 GMT 56.467770 16.961861 35,000 65 512 -64
2018-06-22 20:43:51 GMT 56.463776 16.945995 34,975 65 512 -64
2018-06-22 20:43:45 GMT 56.457951 16.923065 34,975 65 511 -64
2018-06-22 20:43:40 GMT 56.453568 16.905628 34,975 65 511 -64
2018-06-22 20:43:35 GMT 56.447525 16.881575 34,975 65 511 -64
2018-06-22 20:43:30 GMT 56.444077 16.867962 35,000 65 511 -64
2018-06-22 20:43:25 GMT 56.438507 16.845953 35,000 65 511 -64
2018-06-22 20:43:22 GMT 56.435944 16.835882 34,975 65 511 -64
2018-06-22 20:43:19 GMT 56.433426 16.825811 34,975 65 510 0
2018-06-22 20:43:14 GMT 56.427521 16.802673 34,975 65 510 0
2018-06-22 20:43:10 GMT 56.423996 16.788774 34,975 65 510 -64
2018-06-22 20:43:04 GMT 56.417496 16.763306 34,975 65 510 -64
2018-06-22 20:43:00 GMT 56.413971 16.749407 34,975 65 510 -64
2018-06-22 20:42:53 GMT 56.407207 16.722736 35,000 65 510 -64
2018-06-22 20:42:49 GMT 56.403252 16.707287 34,975 65 510 -64
2018-06-22 20:42:44 GMT 56.398361 16.688061 35,000 65 510 -64
2018-06-22 20:42:41 GMT 56.395012 16.674929 35,000 65 509 -64
2018-06-22 20:42:38 GMT 56.392960 16.666842 35,000 65 509 -64
2018-06-22 20:42:33 GMT 56.387238 16.644537 35,000 65 509 -64
2018-06-22 20:42:28 GMT 56.382812 16.627207 34,975 65 508 -64
2018-06-22 20:42:21 GMT 56.375179 16.597252 35,000 65 508 -64
2018-06-22 20:42:18 GMT 56.373276 16.589937 35,000 65 507 -64
2018-06-22 20:42:14 GMT 56.367916 16.568842 35,000 65 507 -64
2018-06-22 20:42:11 GMT 56.366043 16.561558 34,975 65 507 -64
2018-06-22 20:42:08 GMT 56.363400 16.551247 35,000 65 507 -64
2018-06-22 20:42:02 GMT 56.356979 16.526266 34,975 65 507 -64
2018-06-22 20:41:58 GMT 56.353455 16.512533 35,000 65 507 -64
2018-06-22 20:41:51 GMT 56.346359 16.484985 34,975 65 507 -64
2018-06-22 20:41:47 GMT 56.342056 16.468090 34,975 65 507 -64
2018-06-22 20:41:43 GMT 56.338032 16.452456 35,000 65 507 -64
2018-06-22 20:41:40 GMT 56.335968 16.444368 34,975 65 507 0
2018-06-22 20:41:36 GMT 56.331326 16.426449 35,000 65 507 -64
2018-06-22 20:41:33 GMT 56.327682 16.412327 34,975 65 507 0
2018-06-22 20:41:30 GMT 56.325600 16.404219 35,000 65 507 0
2018-06-22 20:41:27 GMT 56.323040 16.394348 34,975 65 507 -64
2018-06-22 20:41:19 GMT 56.314754 16.362247 35,000 65 507 -64
2018-06-22 20:41:15 GMT 56.309818 16.343193 34,975 65 507 -64
2018-06-22 20:41:11 GMT 56.305573 16.326849 35,000 65 507 -64
2018-06-22 20:41:06 GMT 56.302597 16.315363 35,000 65 507 -64
2018-06-22 20:41:00 GMT 56.295914 16.289394 34,975 65 507 -64
2018-06-22 20:40:53 GMT 56.289185 16.263512 34,975 64 507 -64
2018-06-22 20:40:49 GMT 56.285431 16.249029 34,975 64 507 -64
2018-06-22 20:40:46 GMT 56.282169 16.236420 34,975 64 507 -64
2018-06-22 20:40:42 GMT 56.277187 16.217365 34,975 64 508 -64
2018-06-22 20:40:39 GMT 56.275604 16.211271 34,975 64 508 -64
2018-06-22 20:40:33 GMT 56.268436 16.183805 35,000 64 508 0
2018-06-22 20:40:29 GMT 56.264969 16.170460 34,975 64 508 0
2018-06-22 20:40:25 GMT 56.260895 16.154881 34,975 64 508 -64
2018-06-22 20:40:19 GMT 56.255219 16.133089 34,975 64 508 0
2018-06-22 20:40:14 GMT 56.250824 16.116362 34,975 64 508 -64
2018-06-22 20:40:08 GMT 56.244133 16.090765 35,000 64 508 -64
2018-06-22 20:40:03 GMT 56.239059 16.071333 35,000 64 508 -64
2018-06-22 20:39:58 GMT 56.234665 16.054604 34,975 64 508 -64
2018-06-22 20:39:53 GMT 56.229145 16.033602 35,000 64 508 0
2018-06-22 20:39:50 GMT 56.226353 16.022959 34,975 64 508 -64
2018-06-22 20:39:47 GMT 56.223679 16.012655 34,975 64 508 -64
2018-06-22 20:39:43 GMT 56.219696 15.997425 34,975 64 508 -64
2018-06-22 20:39:40 GMT 56.216080 15.983776 35,000 64 509 -64
2018-06-22 20:39:37 GMT 56.213783 15.974979 35,000 64 509 -64
2018-06-22 20:39:30 GMT 56.205231 15.942660 35,000 64 509 -64
2018-06-22 20:39:27 GMT 56.203217 15.935086 35,000 64 509 -64
2018-06-22 20:39:22 GMT 56.197906 15.914898 35,000 64 509 -64
2018-06-22 20:39:19 GMT 56.195488 15.905800 35,000 64 508 0
2018-06-22 20:39:15 GMT 56.191483 15.890608 34,975 64 508 0
2018-06-22 20:39:12 GMT 56.188457 15.879192 34,975 64 508 -64
2018-06-22 20:39:09 GMT 56.185059 15.866232 34,975 64 508 -64
2018-06-22 20:39:05 GMT 56.181614 15.853357 35,000 64 508 0
2018-06-22 20:39:02 GMT 56.178085 15.840121 35,000 64 508 0
2018-06-22 20:38:58 GMT 56.174469 15.826472 34,975 64 508 -64
2018-06-22 20:38:55 GMT 56.171143 15.813961 34,975 64 507 0
2018-06-22 20:38:52 GMT 56.167927 15.801773 35,000 64 507 -64
2018-06-22 20:38:49 GMT 56.164295 15.788212 35,000 64 507 -64
2018-06-22 20:38:44 GMT 56.160294 15.773020 34,975 64 507 -64
2018-06-22 20:38:41 GMT 56.156895 15.760145 34,975 64 507 -64
2018-06-22 20:38:38 GMT 56.153637 15.748043 35,000 64 507 -64
2018-06-22 20:38:34 GMT 56.150528 15.736334 35,000 64 507 -64
2018-06-22 20:38:28 GMT 56.143768 15.710964 35,000 64 507 0
2018-06-22 20:38:24 GMT 56.140045 15.696966 34,975 64 507 -64
2018-06-22 20:38:18 GMT 56.133591 15.672746 34,975 64 507 -64
2018-06-22 20:38:14 GMT 56.129662 15.658007 34,975 64 508 -64
2018-06-22 20:38:10 GMT 56.126404 15.645905 34,975 64 508 -64
2018-06-22 20:38:07 GMT 56.122238 15.630382 34,975 64 507 -64
2018-06-22 20:38:01 GMT 56.117279 15.611916 34,975 64 507 -64
2018-06-22 20:37:57 GMT 56.112534 15.594094 35,000 64 507 -64
2018-06-22 20:37:52 GMT 56.106991 15.573378 34,975 64 506 -64
2018-06-22 20:37:47 GMT 56.103058 15.558638 35,000 64 506 -64
2018-06-22 20:37:44 GMT 56.099442 15.545072 35,000 64 506 -64
2018-06-22 20:37:41 GMT 56.096935 15.535612 35,000 64 506 0
2018-06-22 20:37:38 GMT 56.093304 15.522051 35,000 64 506 -64
2018-06-22 20:37:34 GMT 56.089439 15.507803 34,975 64 506 64
2018-06-22 20:37:30 GMT 56.085480 15.493053 34,975 64 505 0
2018-06-22 20:37:25 GMT 56.080921 15.476131 35,000 64 507 -64
2018-06-22 20:37:21 GMT 56.076187 15.458430 35,000 64 507 -64
2018-06-22 20:37:18 GMT 56.072403 15.444546 35,000 64 507 -64
2018-06-22 20:37:15 GMT 56.070694 15.438121 34,975 64 507 -64
2018-06-22 20:37:10 GMT 56.065018 15.417064 35,000 64 506 -64
2018-06-22 20:37:07 GMT 56.062069 15.406094 35,000 64 506 -64
2018-06-22 20:37:03 GMT 56.057598 15.389614 34,975 64 506 0
2018-06-22 20:37:00 GMT 56.054672 15.378695 35,000 64 506 -64
2018-06-22 20:36:55 GMT 56.050003 15.361467 35,000 64 505 -64
2018-06-22 20:36:49 GMT 56.044006 15.339317 35,000 64 505 0
2018-06-22 20:36:45 GMT 56.039352 15.322065 34,975 64 505 0
2018-06-22 20:36:40 GMT 56.034988 15.305953 35,000 64 505 -64
2018-06-22 20:36:35 GMT 56.028671 15.282731 34,975 64 505 0
2018-06-22 20:36:30 GMT 56.024689 15.268078 34,975 64 504 0
2018-06-22 20:36:24 GMT 56.018776 15.246449 34,975 64 504 -64
2018-06-22 20:36:20 GMT 56.014305 15.229969 34,975 64 504 -64
2018-06-22 20:36:17 GMT 56.011368 15.219144 34,975 64 504 0
2018-06-22 20:36:14 GMT 56.008022 15.206795 35,000 64 503 -64
2018-06-22 20:36:09 GMT 56.003265 15.189264 34,975 64 503 -64
2018-06-22 20:36:06 GMT 56.000713 15.179930 34,975 64 503 -64
2018-06-22 20:36:03 GMT 55.997589 15.168374 35,000 64 503 -128
2018-06-22 20:35:57 GMT 55.990036 15.140825 35,000 64 502 -64
2018-06-22 20:35:54 GMT 55.987198 15.130421 35,000 64 502 -64
2018-06-22 20:35:46 GMT 55.979576 15.102510 34,975 63 502 -64
2018-06-22 20:35:43 GMT 55.976551 15.091352 35,000 63 502 -64
2018-06-22 20:35:38 GMT 55.971664 15.073586 35,000 63 502 0
2018-06-22 20:35:35 GMT 55.968887 15.063588 34,975 63 502 -64
2018-06-22 20:35:28 GMT 55.961468 15.036507 34,975 63 502 -64
2018-06-22 20:35:25 GMT 55.957901 15.023554 34,975 63 502 -64
2018-06-22 20:35:22 GMT 55.955658 15.015398 35,000 63 502 -64
2018-06-22 20:35:18 GMT 55.951088 14.998741 35,000 63 502 -64
2018-06-22 20:35:12 GMT 55.945129 14.977198 35,000 63 502 -64
2018-06-22 20:35:07 GMT 55.940552 14.960549 34,975 63 501 0
2018-06-22 20:35:02 GMT 55.934563 14.938745 34,975 63 502 -64
2018-06-22 20:34:58 GMT 55.931301 14.926901 34,975 63 502 0
2018-06-22 20:34:55 GMT 55.928329 14.916104 35,000 63 502 -64
2018-06-22 20:34:52 GMT 55.924484 14.902039 35,000 63 501 -64
2018-06-22 20:34:45 GMT 55.918167 14.879150 35,000 63 501 -64
2018-06-22 20:34:41 GMT 55.913799 14.863214 35,000 63 501 -64
2018-06-22 20:34:38 GMT 55.910309 14.850683 35,000 63 501 0
2018-06-22 20:34:35 GMT 55.907547 14.840698 34,975 63 501 -64
2018-06-22 20:34:32 GMT 55.903473 14.825883 35,000 63 501 -64
2018-06-22 20:34:29 GMT 55.901001 14.817061 35,000 63 501 -64
2018-06-22 20:34:25 GMT 55.897411 14.804163 35,000 63 501 -64
2018-06-22 20:34:20 GMT 55.891800 14.783852 35,000 63 501 -64
2018-06-22 20:34:15 GMT 55.886986 14.766483 35,000 63 501 -64
2018-06-22 20:34:09 GMT 55.880905 14.744734 35,000 63 501 0
2018-06-22 20:34:04 GMT 55.876419 14.728421 34,975 63 501 0
2018-06-22 20:33:59 GMT 55.870785 14.708118 34,975 63 502 0
2018-06-22 20:33:54 GMT 55.865852 14.690351 34,975 63 499 0
2018-06-22 20:33:49 GMT 55.858868 14.665289 35,000 63 502 -64
2018-06-22 20:33:46 GMT 55.856277 14.656011 34,975 63 502 -64
2018-06-22 20:33:42 GMT 55.849789 14.632759 35,000 63 502 -64
2018-06-22 20:33:38 GMT 55.847855 14.625716 35,000 63 502 -64
2018-06-22 20:33:34 GMT 55.844788 14.614646 35,000 63 502 -64
2018-06-22 20:33:30 GMT 55.840340 14.598770 35,000 63 502 -64
2018-06-22 20:33:27 GMT 55.837738 14.589594 35,000 63 502 -64
2018-06-22 20:33:23 GMT 55.834148 14.576712 34,975 63 502 0
2018-06-22 20:33:17 GMT 55.825974 14.547563 34,975 63 502 0
2018-06-22 20:33:13 GMT 55.823349 14.538431 34,975 63 499 0
2018-06-22 20:33:09 GMT 55.818832 14.522209 34,975 63 501 -64
2018-06-22 20:33:06 GMT 55.814877 14.508219 35,000 63 501 -64
2018-06-22 20:33:03 GMT 55.813248 14.502382 34,975 63 500 0
2018-06-22 20:32:59 GMT 55.808498 14.485474 34,975 63 500 -64
2018-06-22 20:32:56 GMT 55.805511 14.474820 34,975 63 500 0
2018-06-22 20:32:53 GMT 55.802307 14.463415 34,975 63 499 0
2018-06-22 20:32:46 GMT 55.794525 14.435952 34,975 63 499 -64
2018-06-22 20:32:43 GMT 55.791973 14.426765 34,975 63 499 -64
2018-06-22 20:32:36 GMT 55.785461 14.403742 34,975 63 500 -64
2018-06-22 20:32:32 GMT 55.781219 14.388657 35,000 63 499 -64
2018-06-22 20:32:26 GMT 55.775162 14.367121 35,000 63 499 -64
2018-06-22 20:32:22 GMT 55.770813 14.351723 35,000 63 499 0
2018-06-22 20:32:17 GMT 55.764320 14.328661 35,000 63 499 -64
2018-06-22 20:32:12 GMT 55.760178 14.314070 35,000 63 499 -64
2018-06-22 20:32:06 GMT 55.753693 14.291049 34,975 63 499 0
2018-06-22 20:32:01 GMT 55.749237 14.275360 35,000 63 499 -64
2018-06-22 20:31:56 GMT 55.742859 14.252701 34,975 63 499 -64
2018-06-22 20:31:51 GMT 55.738632 14.237699 35,000 63 500 -64
2018-06-22 20:31:47 GMT 55.734238 14.222384 35,000 63 500 -64
2018-06-22 20:31:44 GMT 55.731686 14.213219 35,000 63 500 -64
2018-06-22 20:31:40 GMT 55.727497 14.198627 35,000 63 500 -64
2018-06-22 20:31:35 GMT 55.720840 14.175282 35,000 63 499 -64
2018-06-22 20:31:30 GMT 55.715626 14.157000 35,000 63 499 0
2018-06-22 20:31:27 GMT 55.712631 14.146479 35,000 63 500 -64
2018-06-22 20:31:24 GMT 55.710415 14.138803 34,975 63 499 -64
2018-06-22 20:31:21 GMT 55.706223 14.124212 34,975 63 499 -64
2018-06-22 20:31:18 GMT 55.704781 14.119148 34,975 63 499 -64
2018-06-22 20:31:13 GMT 55.699448 14.100536 35,000 63 499 0
2018-06-22 20:31:09 GMT 55.693817 14.080894 34,975 63 499 -64
2018-06-22 20:31:03 GMT 55.688301 14.061642 35,000 63 499 -64
2018-06-22 20:30:59 GMT 55.684158 14.047050 35,000 63 499 -64
2018-06-22 20:30:56 GMT 55.680386 14.034004 35,000 63 499 -64
2018-06-22 20:30:53 GMT 55.677872 14.025249 35,000 63 499 -64
2018-06-22 20:30:50 GMT 55.674755 14.014435 35,000 63 499 0
2018-06-22 20:30:47 GMT 55.672054 14.004993 35,000 63 499 0
2018-06-22 20:30:43 GMT 55.666840 13.986797 35,000 63 499 -64
2018-06-22 20:30:40 GMT 55.664745 13.979502 34,975 63 499 0
2018-06-22 20:30:37 GMT 55.660557 13.964996 34,975 63 499 0
2018-06-22 20:30:32 GMT 55.656181 13.949718 34,975 63 499 -64
2018-06-22 20:30:27 GMT 55.649940 13.927917 35,000 62 499 -64
2018-06-22 20:30:24 GMT 55.648266 13.922167 35,000 63 499 -64
2018-06-22 20:30:21 GMT 55.645248 13.911604 35,000 63 499 -64
2018-06-22 20:30:18 GMT 55.642216 13.901052 34,975 63 500 -64
2018-06-22 20:30:14 GMT 55.637695 13.885387 34,975 63 501 -64
2018-06-22 20:30:11 GMT 55.634068 13.872643 35,000 63 500 -64
2018-06-22 20:30:07 GMT 55.630299 13.859596 35,000 63 501 -64
2018-06-22 20:30:04 GMT 55.626945 13.847923 35,000 62 501 -64
2018-06-22 20:30:01 GMT 55.623459 13.835865 34,975 62 501 -64
2018-06-22 20:29:57 GMT 55.619659 13.822798 34,975 62 501 -64
2018-06-22 20:29:53 GMT 55.615353 13.807840 34,975 62 501 -64
2018-06-22 20:29:50 GMT 55.612335 13.797247 34,975 62 501 -64
2018-06-22 20:29:47 GMT 55.609489 13.787413 35,000 62 501 -64
2018-06-22 20:29:43 GMT 55.604324 13.769614 35,000 62 500 -64
2018-06-22 20:29:40 GMT 55.601578 13.760126 34,975 62 500 -64
2018-06-22 20:29:36 GMT 55.597477 13.745956 35,000 62 500 -64
2018-06-22 20:29:33 GMT 55.594128 13.734283 34,975 62 500 -64
2018-06-22 20:29:29 GMT 55.590309 13.721237 34,975 62 500 0
2018-06-22 20:29:26 GMT 55.587563 13.711796 35,000 62 500 -64
2018-06-22 20:29:23 GMT 55.583557 13.698063 34,975 62 495 0
2018-06-22 20:29:19 GMT 55.579880 13.685386 34,975 62 499 -64
2018-06-22 20:29:16 GMT 55.576721 13.674566 34,975 62 498 -64
2018-06-22 20:29:12 GMT 55.572281 13.659418 34,975 62 498 0
2018-06-22 20:29:09 GMT 55.568802 13.647509 34,975 62 498 0
2018-06-22 20:29:06 GMT 55.565636 13.636694 34,975 62 498 -64
2018-06-22 20:29:02 GMT 55.561169 13.621588 34,975 62 498 -64
2018-06-22 20:28:58 GMT 55.557495 13.608981 34,975 62 498 -64
2018-06-22 20:28:55 GMT 55.554565 13.598827 35,000 62 497 -128
2018-06-22 20:28:51 GMT 55.549988 13.583013 35,000 62 497 -128
2018-06-22 20:28:48 GMT 55.546829 13.572193 35,000 62 497 -64
2018-06-22 20:28:44 GMT 55.542919 13.558846 35,000 62 496 -64
2018-06-22 20:28:41 GMT 55.538406 13.543396 35,000 62 496 -64
2018-06-22 20:28:38 GMT 55.536217 13.535929 35,000 62 496 -64
2018-06-22 20:28:34 GMT 55.531979 13.521509 35,000 62 496 -64
2018-06-22 20:28:31 GMT 55.528931 13.511186 35,000 62 496 -64
2018-06-22 20:28:27 GMT 55.524574 13.496447 35,000 62 496 -64
2018-06-22 20:28:24 GMT 55.521103 13.484636 35,000 62 496 -64
2018-06-22 20:28:20 GMT 55.517990 13.473899 35,000 62 495 -64
2018-06-22 20:28:17 GMT 55.514290 13.461342 35,000 62 495 0
2018-06-22 20:28:14 GMT 55.510750 13.449154 35,000 62 495 0
2018-06-22 20:28:11 GMT 55.506931 13.436193 35,000 62 495 0
2018-06-22 20:28:06 GMT 55.503296 13.423712 34,975 62 495 64
2018-06-22 20:28:03 GMT 55.500137 13.412975 34,975 62 495 0
2018-06-22 20:28:00 GMT 55.496460 13.400402 34,975 62 495 0
2018-06-22 20:27:54 GMT 55.489334 13.376112 34,975 62 496 -64
2018-06-22 20:27:49 GMT 55.484261 13.358860 35,000 62 496 0
2018-06-22 20:27:45 GMT 55.479904 13.344227 35,000 62 497 0
2018-06-22 20:27:41 GMT 55.475876 13.330661 34,975 62 496 0
2018-06-22 20:27:38 GMT 55.473042 13.320923 34,975 62 497 -64
2018-06-22 20:27:34 GMT 55.469227 13.308048 34,975 62 497 -64
2018-06-22 20:27:31 GMT 55.465759 13.296204 34,975 62 497 -64
2018-06-22 20:27:28 GMT 55.461407 13.281441 35,000 62 498 -64
2018-06-22 20:27:23 GMT 55.456982 13.266420 35,000 62 497 -64
2018-06-22 20:27:20 GMT 55.454189 13.257065 35,000 62 497 -64
2018-06-22 20:27:13 GMT 55.447128 13.233115 35,000 62 496 0
2018-06-22 20:27:10 GMT 55.443512 13.220996 35,000 62 495 0
2018-06-22 20:27:05 GMT 55.438732 13.204984 35,000 62 495 0
2018-06-22 20:27:02 GMT 55.435043 13.192561 34,975 62 494 64
2018-06-22 20:26:59 GMT 55.432251 13.183271 34,975 62 494 -64
2018-06-22 20:26:56 GMT 55.427811 13.168326 35,000 62 494 -64
2018-06-22 20:26:53 GMT 55.424652 13.157744 34,975 62 494 -64
2018-06-22 20:26:49 GMT 55.421371 13.146723 35,000 62 494 -64
2018-06-22 20:26:45 GMT 55.415955 13.128581 35,000 62 493 -64
2018-06-22 20:26:42 GMT 55.413967 13.121837 35,000 62 493 -64
2018-06-22 20:26:39 GMT 55.410568 13.110518 34,975 62 493 0
2018-06-22 20:26:34 GMT 55.404240 13.089294 34,975 62 492 -64
2018-06-22 20:26:31 GMT 55.402222 13.082536 34,975 62 492 -64
2018-06-22 20:26:28 GMT 55.399586 13.073730 35,000 62 492 -64
2018-06-22 20:26:24 GMT 55.394852 13.057816 34,975 62 491 0
2018-06-22 20:26:21 GMT 55.392105 13.048688 34,975 62 491 -64
2018-06-22 20:26:18 GMT 55.388077 13.035278 35,000 62 491 -64
2018-06-22 20:26:12 GMT 55.382217 13.015568 35,000 62 491 -64
2018-06-22 20:26:09 GMT 55.379566 13.006731 34,975 62 490 -64
2018-06-22 20:26:05 GMT 55.375259 12.992302 35,000 62 490 -64
2018-06-22 20:26:02 GMT 55.371559 12.980014 35,000 62 490 -64
2018-06-22 20:25:59 GMT 55.368160 12.968778 35,000 62 490 -64
2018-06-22 20:25:56 GMT 55.364456 12.956435 35,000 62 490 -64
2018-06-22 20:25:52 GMT 55.361115 12.945207 34,975 62 490 -64
2018-06-22 20:25:49 GMT 55.358013 12.934986 34,975 62 490 -64
2018-06-22 20:25:45 GMT 55.353588 12.920255 34,975 62 490 -64
2018-06-22 20:25:41 GMT 55.349487 12.906593 34,975 62 489 -64
2018-06-22 20:25:38 GMT 55.345768 12.894287 34,975 62 489 -64
2018-06-22 20:25:34 GMT 55.342712 12.884136 35,000 62 488 -64
2018-06-22 20:25:31 GMT 55.339252 12.872647 35,000 62 487 -64
2018-06-22 20:25:27 GMT 55.334831 12.857999 35,000 62 486 -64
2018-06-22 20:25:24 GMT 55.331131 12.845764 35,000 62 486 -64
2018-06-22 20:25:20 GMT 55.326508 12.830496 34,975 62 486 -64
2018-06-22 20:25:17 GMT 55.324078 12.822460 35,000 62 486 -64
2018-06-22 20:25:12 GMT 55.319550 12.807554 35,000 62 486 -64
2018-06-22 20:25:09 GMT 55.315884 12.795327 35,000 62 486 -64
2018-06-22 20:25:06 GMT 55.312717 12.784923 35,000 62 486 -64
2018-06-22 20:25:02 GMT 55.308243 12.769991 34,975 62 486 -64
2018-06-22 20:24:59 GMT 55.304031 12.756096 35,000 62 486 -64
2018-06-22 20:24:56 GMT 55.302383 12.750522 34,975 62 486 0
2018-06-22 20:24:52 GMT 55.298584 12.738001 34,975 62 486 -64
2018-06-22 20:24:49 GMT 55.294098 12.723083 34,975 62 486 -64
2018-06-22 20:24:46 GMT 55.292187 12.716841 35,000 62 486 -64
2018-06-22 20:24:43 GMT 55.288284 12.703992 35,000 62 486 -64
2018-06-22 20:24:40 GMT 55.285172 12.693571 34,975 62 486 -64
2018-06-22 20:24:37 GMT 55.282085 12.683466 34,975 62 486 -64
2018-06-22 20:24:34 GMT 55.279266 12.674103 35,000 61 486 -64
2018-06-22 20:24:31 GMT 55.275990 12.663325 34,975 61 486 -64
2018-06-22 20:24:27 GMT 55.271667 12.649141 35,000 61 486 -64
2018-06-22 20:24:24 GMT 55.269150 12.640821 35,000 61 486 -64
2018-06-22 20:24:21 GMT 55.265350 12.628299 35,000 62 485 0
2018-06-22 20:24:18 GMT 55.261139 12.614486 34,975 62 485 -64
2018-06-22 20:24:15 GMT 55.259033 12.607539 34,975 62 485 0
2018-06-22 20:24:12 GMT 55.256157 12.598156 34,975 61 486 0
2018-06-22 20:24:09 GMT 55.252571 12.586420 35,000 61 485 -64
2018-06-22 20:24:06 GMT 55.249741 12.577084 35,000 61 485 -64
2018-06-22 20:24:03 GMT 55.246582 12.566663 35,000 61 485 -64
2018-06-22 20:24:00 GMT 55.243492 12.556624 35,000 61 485 -64
2018-06-22 20:23:56 GMT 55.239166 12.542428 35,000 61 484 -64
2018-06-22 20:23:53 GMT 55.234909 12.528615 35,000 61 483 -64
2018-06-22 20:23:50 GMT 55.230927 12.515528 35,000 61 485 -64
2018-06-22 20:23:47 GMT 55.229416 12.510681 35,000 61 484 0
2018-06-22 20:23:44 GMT 55.225616 12.498241 35,000 61 484 -64
2018-06-22 20:23:41 GMT 55.222458 12.487901 35,000 61 484 -64
2018-06-22 20:23:38 GMT 55.220169 12.480307 34,975 61 483 -64
2018-06-22 20:23:35 GMT 55.216679 12.468900 35,000 61 484 0
2018-06-22 20:23:32 GMT 55.212799 12.456153 34,975 61 484 -64
2018-06-22 20:23:27 GMT 55.207718 12.439674 35,000 61 483 0
2018-06-22 20:23:23 GMT 55.203411 12.425537 34,975 61 483 -64
2018-06-22 20:23:18 GMT 55.199112 12.411481 35,000 61 482 -64
2018-06-22 20:23:15 GMT 55.195591 12.400152 34,975 61 485 -64
2018-06-22 20:23:12 GMT 55.192844 12.391246 35,000 61 482 0
2018-06-22 20:23:08 GMT 55.187256 12.373029 35,000 61 483 0
2018-06-22 20:23:05 GMT 55.184738 12.364789 35,000 61 483 -64
2018-06-22 20:23:02 GMT 55.181023 12.352794 34,975 61 484 0
2018-06-22 20:22:59 GMT 55.178692 12.345220 34,975 61 485 0
2018-06-22 20:22:55 GMT 55.174759 12.332557 35,000 61 484 0
2018-06-22 20:22:52 GMT 55.171898 12.323248 34,975 61 485 0
2018-06-22 20:22:48 GMT 55.166702 12.306465 34,975 61 485 0
2018-06-22 20:22:44 GMT 55.162674 12.293378 34,975 61 485 0
2018-06-22 20:22:41 GMT 55.158955 12.281300 34,975 61 485 -64
2018-06-22 20:22:37 GMT 55.155373 12.269565 34,975 61 485 -64
2018-06-22 20:22:34 GMT 55.151642 12.257511 34,975 61 485 -64
2018-06-22 20:22:31 GMT 55.149536 12.250644 34,975 61 486 -64
2018-06-22 20:22:28 GMT 55.144638 12.234730 34,975 61 486 -64
2018-06-22 20:22:23 GMT 55.140564 12.221644 35,000 61 486 -64
2018-06-22 20:22:19 GMT 55.136425 12.208224 35,000 61 485 -64
2018-06-22 20:22:16 GMT 55.132690 12.196198 35,000 61 485 -64
2018-06-22 20:22:13 GMT 55.129074 12.184484 35,000 61 485 -64
2018-06-22 20:22:10 GMT 55.127151 12.178345 35,000 61 485 -64
2018-06-22 20:22:07 GMT 55.122784 12.164279 34,975 61 484 -64
2018-06-22 20:22:04 GMT 55.119804 12.154624 35,000 61 484 -64
2018-06-22 20:22:01 GMT 55.116531 12.144012 34,975 61 484 -64
2018-06-22 20:21:58 GMT 55.113846 12.135398 34,975 61 484 -64
2018-06-22 20:21:55 GMT 55.110764 12.125433 35,000 61 484 -64
2018-06-22 20:21:52 GMT 55.107605 12.115173 35,000 61 484 -64
2018-06-22 20:21:49 GMT 55.103348 12.101440 35,000 61 484 -64
2018-06-22 20:21:46 GMT 55.100143 12.091181 35,000 61 484 -64
2018-06-22 20:21:42 GMT 55.096809 12.080550 35,000 61 484 -64
2018-06-22 20:21:39 GMT 55.094147 12.072036 34,975 61 484 -64
2018-06-22 20:21:35 GMT 55.089066 12.055556 34,975 61 484 -64
2018-06-22 20:21:31 GMT 55.085121 12.042847 35,000 61 484 -64
2018-06-22 20:21:25 GMT 55.078812 12.022597 34,975 61 480 -64
2018-06-22 20:21:22 GMT 55.075722 12.012718 34,975 61 485 -64
2018-06-22 20:21:19 GMT 55.072323 12.001731 34,975 61 485 -64
2018-06-22 20:21:16 GMT 55.068970 11.991092 35,000 61 486 -64
2018-06-22 20:21:13 GMT 55.064896 11.978006 34,975 61 486 -64
2018-06-22 20:21:10 GMT 55.062870 11.971519 34,975 61 486 -64
2018-06-22 20:21:07 GMT 55.059845 11.961947 34,975 61 486 -64
2018-06-22 20:21:04 GMT 55.056747 11.951994 35,000 61 485 -64
2018-06-22 20:21:01 GMT 55.052856 11.939634 34,975 61 486 0
2018-06-22 20:20:58 GMT 55.050163 11.931069 35,000 61 486 -64
2018-06-22 20:20:54 GMT 55.044994 11.914673 34,975 61 485 -64
2018-06-22 20:20:50 GMT 55.040897 11.901689 34,975 61 484 -64
2018-06-22 20:20:47 GMT 55.037338 11.890358 34,975 61 480 0
2018-06-22 20:20:44 GMT 55.034893 11.882546 34,975 61 484 -64
2018-06-22 20:20:39 GMT 55.028320 11.861680 34,975 61 483 -128
2018-06-22 20:20:36 GMT 55.026169 11.854894 35,000 61 483 -64
2018-06-22 20:20:33 GMT 55.022835 11.844344 35,000 61 482 -128
2018-06-22 20:20:29 GMT 55.018021 11.829044 35,000 61 482 -64
2018-06-22 20:20:26 GMT 55.015457 11.820885 35,000 61 481 -64
2018-06-22 20:20:23 GMT 55.012363 11.811052 35,000 61 479 -64
2018-06-22 20:20:19 GMT 55.008080 11.797485 35,000 61 480 -64
2018-06-22 20:20:16 GMT 55.004333 11.785664 35,000 61 480 0
2018-06-22 20:20:13 GMT 55.001701 11.777261 35,000 61 480 -64
2018-06-22 20:20:09 GMT 54.996765 11.761697 35,000 61 480 -64
2018-06-22 20:20:06 GMT 54.993603 11.751543 34,975 61 480 0
2018-06-22 20:20:03 GMT 54.990692 11.742446 34,975 61 479 0
2018-06-22 20:19:59 GMT 54.986340 11.728654 35,000 61 478 0
2018-06-22 20:19:56 GMT 54.982941 11.717834 34,975 61 479 0
2018-06-22 20:19:53 GMT 54.979309 11.706432 35,000 61 479 -64
2018-06-22 20:19:48 GMT 54.974609 11.691617 34,975 61 478 -64
2018-06-22 20:19:45 GMT 54.971630 11.682129 35,000 61 479 -64
2018-06-22 20:19:41 GMT 54.967712 11.669662 34,975 61 479 -64
2018-06-22 20:19:38 GMT 54.963528 11.656494 34,975 61 478 -64
2018-06-22 20:19:35 GMT 54.960022 11.645427 35,000 61 480 -64
2018-06-22 20:19:32 GMT 54.956635 11.634602 34,975 61 480 -64
2018-06-22 20:19:29 GMT 54.954712 11.628544 34,975 61 480 -64
2018-06-22 20:19:26 GMT 54.951611 11.618791 35,000 61 480 -64
2018-06-22 20:19:22 GMT 54.947144 11.604642 35,000 61 480 0
2018-06-22 20:19:17 GMT 54.942352 11.589445 34,975 61 480 0
2018-06-22 20:19:14 GMT 54.938049 11.575955 35,000 60 480 -64
2018-06-22 20:19:09 GMT 54.933334 11.561091 35,000 60 480 -64
2018-06-22 20:19:05 GMT 54.929031 11.547681 34,975 60 480 -64
2018-06-22 20:19:02 GMT 54.924843 11.534479 35,000 60 480 -64
2018-06-22 20:18:58 GMT 54.919025 11.516335 35,000 60 480 -64
2018-06-22 20:18:55 GMT 54.917450 11.511329 35,000 60 477 -64
2018-06-22 20:18:52 GMT 54.914658 11.502605 35,000 60 479 -64
2018-06-22 20:18:47 GMT 54.910458 11.489452 35,000 61 478 -64
2018-06-22 20:18:44 GMT 54.905525 11.474055 35,000 61 478 0
2018-06-22 20:18:41 GMT 54.903946 11.469000 35,000 60 478 -64
2018-06-22 20:18:38 GMT 54.899872 11.456317 34,975 60 478 -64
2018-06-22 20:18:34 GMT 54.895702 11.443259 35,000 60 478 0
2018-06-22 20:18:31 GMT 54.892365 11.432890 34,975 60 478 0
2018-06-22 20:18:27 GMT 54.888859 11.421869 35,000 60 478 -64
2018-06-22 20:18:24 GMT 54.885544 11.411483 34,975 60 478 -64
2018-06-22 20:18:21 GMT 54.881241 11.398073 35,000 60 477 -64
2018-06-22 20:18:18 GMT 54.878036 11.388056 35,000 60 477 -64
2018-06-22 20:18:15 GMT 54.875931 11.381432 34,975 60 477 -64
2018-06-22 20:18:12 GMT 54.871307 11.367104 35,000 60 477 -64
2018-06-22 20:18:09 GMT 54.869705 11.362044 35,000 60 477 -64
2018-06-22 20:18:05 GMT 54.864349 11.345403 35,000 60 477 -64
2018-06-22 20:18:02 GMT 54.861557 11.336760 34,975 60 477 -64
2018-06-22 20:17:59 GMT 54.857994 11.325739 34,975 60 477 -64
2018-06-22 20:17:55 GMT 54.853710 11.312422 34,975 60 477 -64
2018-06-22 20:17:52 GMT 54.851479 11.305431 34,975 60 477 0
2018-06-22 20:17:49 GMT 54.846218 11.289118 34,975 60 477 -64
2018-06-22 20:17:45 GMT 54.843239 11.279796 34,975 60 477 -64
2018-06-22 20:17:42 GMT 54.839951 11.269468 34,975 60 477 -64
2018-06-22 20:17:39 GMT 54.837463 11.261819 34,975 60 476 -64
2018-06-22 20:17:36 GMT 54.832577 11.246504 34,975 60 476 -64
2018-06-22 20:17:33 GMT 54.830856 11.241178 35,000 60 476 -64
2018-06-22 20:17:30 GMT 54.826992 11.229193 34,975 60 475 -64
2018-06-22 20:17:25 GMT 54.822372 11.214860 35,000 60 476 -128
2018-06-22 20:17:22 GMT 54.819168 11.204924 35,000 60 476 -64
2018-06-22 20:17:19 GMT 54.815399 11.193321 34,975 60 476 -64
2018-06-22 20:17:16 GMT 54.811954 11.182667 35,000 60 475 -64
2018-06-22 20:17:13 GMT 54.808182 11.171076 34,975 60 475 -64
2018-06-22 20:17:09 GMT 54.804646 11.160112 34,975 60 475 -64
2018-06-22 20:17:05 GMT 54.800549 11.147544 34,975 60 475 -64
2018-06-22 20:17:02 GMT 54.797337 11.137640 35,000 60 475 -64
2018-06-22 20:16:59 GMT 54.793705 11.126404 35,000 60 474 -64
2018-06-22 20:16:56 GMT 54.789845 11.114502 35,000 60 474 -64
2018-06-22 20:16:52 GMT 54.785843 11.102250 34,975 60 474 -64
2018-06-22 20:16:49 GMT 54.781883 11.090032 34,975 60 474 -64
2018-06-22 20:16:44 GMT 54.778065 11.078047 34,975 60 474 -64
2018-06-22 20:16:41 GMT 54.774853 11.068143 34,975 60 475 -64
2018-06-22 20:16:38 GMT 54.771408 11.057573 34,975 60 475 -64
2018-06-22 20:16:35 GMT 54.768082 11.047318 34,975 60 475 -64
2018-06-22 20:16:32 GMT 54.764751 11.037098 35,000 60 475 -64
2018-06-22 20:16:29 GMT 54.762142 11.029191 35,000 60 475 -128
2018-06-22 20:16:26 GMT 54.757442 11.014626 34,975 60 475 -64
2018-06-22 20:16:22 GMT 54.754074 11.004423 35,000 60 475 -128
2018-06-22 20:16:18 GMT 54.749130 10.989155 35,000 60 475 -128
2018-06-22 20:16:15 GMT 54.746567 10.981239 35,000 60 475 -64
2018-06-22 20:16:12 GMT 54.743244 10.971014 35,000 60 474 -64
2018-06-22 20:16:09 GMT 54.740452 10.962441 34,975 60 475 -64
2018-06-22 20:16:06 GMT 54.737656 10.953869 35,000 60 474 -64
2018-06-22 20:16:02 GMT 54.733246 10.940363 35,000 60 474 -64
2018-06-22 20:15:59 GMT 54.729511 10.928816 35,000 60 473 -64
2018-06-22 20:15:56 GMT 54.726379 10.919279 35,000 60 471 0
2018-06-22 20:15:53 GMT 54.723694 10.911088 35,000 60 473 -64
2018-06-22 20:15:50 GMT 54.720337 10.900861 35,000 60 472 -64
2018-06-22 20:15:47 GMT 54.716904 10.890359 34,975 60 472 -64
2018-06-22 20:15:44 GMT 54.712986 10.878213 35,000 60 472 -64
2018-06-22 20:15:41 GMT 54.710266 10.870002 34,975 60 471 -64
2018-06-22 20:15:38 GMT 54.707165 10.860568 35,000 60 471 -64
2018-06-22 20:15:35 GMT 54.704418 10.851995 35,000 60 471 0
2018-06-22 20:15:32 GMT 54.701206 10.842174 35,000 60 471 0
2018-06-22 20:15:29 GMT 54.697906 10.832035 35,000 60 471 0
2018-06-22 20:15:26 GMT 54.693295 10.817954 34,975 60 471 0
2018-06-22 20:15:23 GMT 54.690735 10.810131 34,975 60 470 0
2018-06-22 20:15:20 GMT 54.688065 10.801984 34,975 60 471 -64
2018-06-22 20:15:16 GMT 54.683704 10.788574 34,975 60 470 -64
2018-06-22 20:15:13 GMT 54.679733 10.776538 35,000 60 469 -64
2018-06-22 20:15:09 GMT 54.675659 10.764097 34,975 60 470 -64
2018-06-22 20:15:05 GMT 54.672455 10.754404 34,975 60 468 -128
2018-06-22 20:15:02 GMT 54.668667 10.742964 35,000 60 469 -64
2018-06-22 20:14:59 GMT 54.664616 10.730646 34,975 60 469 -64
2018-06-22 20:14:56 GMT 54.661469 10.721202 35,000 60 469 -64
2018-06-22 20:14:52 GMT 54.657913 10.710505 35,000 60 468 -64
2018-06-22 20:14:48 GMT 54.653214 10.696272 34,975 60 468 -64
2018-06-22 20:14:45 GMT 54.650482 10.688162 35,000 60 468 -64
2018-06-22 20:14:42 GMT 54.646557 10.676131 35,000 60 469 -64
2018-06-22 20:14:38 GMT 54.642460 10.663896 34,975 60 467 -64
2018-06-22 20:14:35 GMT 54.639359 10.654476 35,000 60 467 -64
2018-06-22 20:14:31 GMT 54.633820 10.637593 35,000 60 467 -64
2018-06-22 20:14:28 GMT 54.632217 10.632768 34,975 60 467 -64
2018-06-22 20:14:25 GMT 54.628510 10.621437 34,975 60 467 -64
2018-06-22 20:14:22 GMT 54.626175 10.614328 35,000 60 467 -64
2018-06-22 20:14:19 GMT 54.621872 10.601403 35,000 60 466 -64
2018-06-22 20:14:15 GMT 54.618896 10.592436 34,975 60 466 -64
2018-06-22 20:14:11 GMT 54.613411 10.576005 34,975 60 466 -64
2018-06-22 20:14:07 GMT 54.610245 10.566351 35,000 60 466 -64
2018-06-22 20:14:04 GMT 54.607132 10.557054 35,000 59 467 -64
2018-06-22 20:14:01 GMT 54.603287 10.545421 35,000 60 466 -64
2018-06-22 20:13:58 GMT 54.599350 10.533558 35,000 60 465 -64
2018-06-22 20:13:55 GMT 54.596558 10.525235 35,000 60 465 -64
2018-06-22 20:13:52 GMT 54.593159 10.514915 34,975 60 466 -64
2018-06-22 20:13:48 GMT 54.588459 10.500766 35,000 60 466 -64
2018-06-22 20:13:45 GMT 54.586315 10.494357 35,000 60 466 -64
2018-06-22 20:13:42 GMT 54.581726 10.480472 35,000 60 466 -64
2018-06-22 20:13:39 GMT 54.579803 10.474737 35,000 60 466 -64
2018-06-22 20:13:36 GMT 54.576599 10.465043 35,000 60 466 -64
2018-06-22 20:13:33 GMT 54.572983 10.454137 35,000 60 466 -64
2018-06-22 20:13:29 GMT 54.569466 10.443587 34,975 60 466 0
2018-06-22 20:13:26 GMT 54.565704 10.432326 34,975 60 466 0
2018-06-22 20:13:23 GMT 54.562042 10.421421 34,975 60 467 -64
2018-06-22 20:13:20 GMT 54.558712 10.411460 34,975 60 467 -64
2018-06-22 20:13:16 GMT 54.555359 10.401468 34,975 60 467 -64
2018-06-22 20:13:13 GMT 54.552155 10.391855 35,000 60 467 -64
2018-06-22 20:13:10 GMT 54.548721 10.381515 35,000 60 467 0
2018-06-22 20:13:07 GMT 54.545746 10.372548 35,000 60 467 0
2018-06-22 20:13:04 GMT 54.541534 10.360024 34,975 59 467 -64
2018-06-22 20:13:01 GMT 54.539391 10.353616 35,000 60 466 -64
2018-06-22 20:12:58 GMT 54.535629 10.342335 34,975 59 467 -64
2018-06-22 20:12:55 GMT 54.532921 10.334306 35,000 59 467 -64
2018-06-22 20:12:52 GMT 54.528946 10.322382 35,000 59 467 -64
2018-06-22 20:12:48 GMT 54.525513 10.312123 34,975 59 467 -64
2018-06-22 20:12:45 GMT 54.522034 10.301783 34,975 60 468 0
2018-06-22 20:12:41 GMT 54.516350 10.284784 34,975 60 468 -64
2018-06-22 20:12:38 GMT 54.514069 10.278033 34,975 60 468 0
2018-06-22 20:12:34 GMT 54.509995 10.265754 34,975 60 468 -64
2018-06-22 20:12:31 GMT 54.506851 10.256486 34,975 60 468 -64
2018-06-22 20:12:28 GMT 54.503494 10.246447 34,975 59 469 -64
2018-06-22 20:12:25 GMT 54.499496 10.234597 34,975 59 469 -128
2018-06-22 20:12:22 GMT 54.496994 10.227221 35,000 59 468 -64
2018-06-22 20:12:18 GMT 54.492233 10.213085 34,975 59 468 -64
2018-06-22 20:12:15 GMT 54.489300 10.204385 34,975 59 469 -64
2018-06-22 20:12:12 GMT 54.486374 10.195716 35,000 60 468 -64
2018-06-22 20:12:09 GMT 54.483109 10.185991 35,000 59 467 -64
2018-06-22 20:12:06 GMT 54.479462 10.175117 35,000 60 468 -64
2018-06-22 20:12:03 GMT 54.475243 10.162603 34,975 59 469 -64
2018-06-22 20:12:00 GMT 54.472870 10.155529 34,975 59 469 -64
2018-06-22 20:11:57 GMT 54.469376 10.145208 34,975 59 469 -64
2018-06-22 20:11:54 GMT 54.467102 10.138442 34,975 59 469 -64
2018-06-22 20:11:51 GMT 54.462860 10.125982 34,975 59 469 -64
2018-06-22 20:11:48 GMT 54.459732 10.116631 34,975 59 468 -64
2018-06-22 20:11:45 GMT 54.456894 10.108310 34,975 59 468 -64
2018-06-22 20:11:42 GMT 54.452774 10.096112 34,975 59 468 -64
2018-06-22 20:11:39 GMT 54.450165 10.088357 35,000 59 468 -64
2018-06-22 20:11:36 GMT 54.446381 10.077126 35,000 59 468 -64
2018-06-22 20:11:33 GMT 54.443771 10.069469 35,000 59 468 -64
2018-06-22 20:11:30 GMT 54.440186 10.058872 34,975 59 468 -64
2018-06-22 20:11:27 GMT 54.437164 10.049905 34,975 59 468 -64
2018-06-22 20:11:24 GMT 54.434231 10.041254 35,000 59 468 -64
2018-06-22 20:11:21 GMT 54.430134 10.029019 35,000 59 468 -64
2018-06-22 20:11:18 GMT 54.426956 10.019774 35,000 59 468 -64
2018-06-22 20:11:15 GMT 54.424034 10.011125 35,000 59 468 -64
2018-06-22 20:11:12 GMT 54.421097 10.002486 35,000 59 468 0
2018-06-22 20:11:09 GMT 54.418404 9.994479 34,975 59 468 -64
2018-06-22 20:11:06 GMT 54.414677 9.983576 35,000 59 468 -64
2018-06-22 20:11:03 GMT 54.411530 9.974293 35,000 59 468 -64
2018-06-22 20:10:59 GMT 54.407181 9.961449 35,000 59 468 -64
2018-06-22 20:10:56 GMT 54.402603 9.948039 35,000 59 468 -64
2018-06-22 20:10:53 GMT 54.399994 9.940365 35,000 59 468 -64
2018-06-22 20:10:50 GMT 54.397266 9.932306 35,000 59 468 -64
2018-06-22 20:10:46 GMT 54.391403 9.915078 35,000 59 468 -64
2018-06-22 20:10:43 GMT 54.388641 9.907083 35,000 59 468 -64
2018-06-22 20:10:40 GMT 54.386261 9.900055 34,975 59 468 -64
2018-06-22 20:10:37 GMT 54.381912 9.887211 34,975 59 468 -64
2018-06-22 20:10:34 GMT 54.379303 9.879536 35,000 59 469 -64
2018-06-22 20:10:31 GMT 54.377106 9.873155 35,000 59 469 -64
2018-06-22 20:10:28 GMT 54.373058 9.861311 35,000 59 469 -64
2018-06-22 20:10:25 GMT 54.369690 9.851343 34,975 59 469 -64
2018-06-22 20:10:22 GMT 54.366962 9.843417 35,000 59 469 -64
2018-06-22 20:10:18 GMT 54.362122 9.829351 35,000 59 469 -64
2018-06-22 20:10:15 GMT 54.358864 9.819697 35,000 59 469 -64
2018-06-22 20:10:12 GMT 54.355682 9.810468 35,000 59 468 -64
2018-06-22 20:10:08 GMT 54.351105 9.797058 35,000 59 468 -64
2018-06-22 20:10:05 GMT 54.347397 9.786153 34,975 59 468 0
2018-06-22 20:10:02 GMT 54.344433 9.777582 35,000 59 468 0
2018-06-22 20:09:59 GMT 54.341721 9.769592 35,000 59 468 -64
2018-06-22 20:09:56 GMT 54.337215 9.756525 34,975 59 468 -64
2018-06-22 20:09:53 GMT 54.335678 9.752031 34,975 59 468 0
2018-06-22 20:09:50 GMT 54.331768 9.740545 35,000 59 468 -64
2018-06-22 20:09:47 GMT 54.328125 9.730009 35,000 59 469 -64
2018-06-22 20:09:44 GMT 54.325207 9.721402 35,000 59 469 -64
2018-06-22 20:09:41 GMT 54.321667 9.711165 34,975 59 469 -64
2018-06-22 20:09:37 GMT 54.317757 9.699679 34,975 59 469 -64
2018-06-22 20:09:34 GMT 54.313335 9.686945 34,975 60 468 -64
2018-06-22 20:09:31 GMT 54.310593 9.678955 34,975 59 471 -64
2018-06-22 20:09:28 GMT 54.307610 9.670299 35,000 59 470 -64
2018-06-22 20:09:25 GMT 54.304955 9.662642 35,000 59 470 -64
2018-06-22 20:09:22 GMT 54.301117 9.651408 35,000 59 470 -64
2018-06-22 20:09:19 GMT 54.297459 9.640836 35,000 59 470 -64
2018-06-22 20:09:16 GMT 54.293839 9.630324 35,000 59 470 -64
2018-06-22 20:09:13 GMT 54.289856 9.618853 35,000 59 470 -64
2018-06-22 20:09:09 GMT 54.286007 9.607627 35,000 59 469 -64
2018-06-22 20:09:06 GMT 54.282703 9.598139 35,000 59 469 -64
2018-06-22 20:09:03 GMT 54.278744 9.586653 34,975 59 469 -64
2018-06-22 20:09:00 GMT 54.276558 9.580240 35,000 59 469 -64
2018-06-22 20:08:56 GMT 54.272690 9.569092 34,975 59 468 0
2018-06-22 20:08:53 GMT 54.268982 9.558262 34,975 59 468 0
2018-06-22 20:08:50 GMT 54.265759 9.549058 34,975 59 468 0
2018-06-22 20:08:45 GMT 54.260078 9.532417 34,975 59 468 -64
2018-06-22 20:08:41 GMT 54.256123 9.520946 34,975 59 469 -64
2018-06-22 20:08:38 GMT 54.251816 9.508589 34,975 59 469 -64
2018-06-22 20:08:35 GMT 54.248627 9.499296 35,000 59 469 0
2018-06-22 20:08:32 GMT 54.245407 9.490069 35,000 59 469 -64
2018-06-22 20:08:29 GMT 54.241653 9.479239 35,000 59 469 -64
2018-06-22 20:08:25 GMT 54.237030 9.465899 35,000 59 469 -64
2018-06-22 20:08:22 GMT 54.234241 9.457936 35,000 59 469 -64
2018-06-22 20:08:19 GMT 54.231903 9.451224 35,000 59 469 -64
2018-06-22 20:08:16 GMT 54.228050 9.440083 34,975 59 470 -64
2018-06-22 20:08:13 GMT 54.224213 9.428938 35,000 59 470 0
2018-06-22 20:08:10 GMT 54.220974 9.419726 35,000 59 470 -64
2018-06-22 20:08:07 GMT 54.218216 9.411752 35,000 59 470 0
2018-06-22 20:08:04 GMT 54.214462 9.400923 35,000 59 470 -64
2018-06-22 20:08:01 GMT 54.211712 9.392907 34,975 59 470 -64
2018-06-22 20:07:58 GMT 54.207825 9.381775 34,975 59 470 -64
2018-06-22 20:07:54 GMT 54.203938 9.370611 35,000 59 470 -64
2018-06-22 20:07:51 GMT 54.200584 9.361079 35,000 59 470 -64
2018-06-22 20:07:48 GMT 54.197845 9.353132 34,975 59 471 -64
2018-06-22 20:07:45 GMT 54.193043 9.339429 34,975 59 471 0
2018-06-22 20:07:41 GMT 54.188389 9.326019 34,975 59 471 -64
2018-06-22 20:07:38 GMT 54.185734 9.318345 34,975 59 472 -128
2018-06-22 20:07:35 GMT 54.182613 9.309459 34,975 59 472 -64
2018-06-22 20:07:31 GMT 54.178070 9.296317 35,000 59 472 -128
2018-06-22 20:07:28 GMT 54.174957 9.287449 34,975 59 472 -64
2018-06-22 20:07:25 GMT 54.170372 9.274319 34,975 59 472 -64
2018-06-22 20:07:22 GMT 54.168137 9.267937 35,000 59 472 -64
2018-06-22 20:07:19 GMT 54.165253 9.259697 35,000 59 472 -64
2018-06-22 20:07:16 GMT 54.160904 9.247271 35,000 59 471 -64
2018-06-22 20:07:13 GMT 54.156876 9.235735 35,000 59 471 -64
2018-06-22 20:07:10 GMT 54.154732 9.229727 35,000 59 471 -64
2018-06-22 20:07:07 GMT 54.151844 9.221407 35,000 59 471 -64
2018-06-22 20:07:04 GMT 54.148590 9.212193 35,000 59 472 0
2018-06-22 20:07:01 GMT 54.144676 9.201050 35,000 59 472 0
2018-06-22 20:06:58 GMT 54.141907 9.193045 35,000 59 472 -64
2018-06-22 20:06:55 GMT 54.138672 9.183843 35,000 59 471 -64
2018-06-22 20:06:52 GMT 54.134079 9.170759 34,975 59 472 -64
2018-06-22 20:06:49 GMT 54.129822 9.158674 34,975 59 472 -64
2018-06-22 20:06:46 GMT 54.127453 9.152015 34,975 59 472 -64
2018-06-22 20:06:42 GMT 54.123215 9.139979 34,975 59 472 -64
2018-06-22 20:06:39 GMT 54.120281 9.131658 34,975 59 472 -64
2018-06-22 20:06:36 GMT 54.116592 9.121164 35,000 59 472 -64
2018-06-22 20:06:33 GMT 54.112228 9.108797 35,000 58 471 -64
2018-06-22 20:06:30 GMT 54.109760 9.101850 35,000 58 471 -64
2018-06-22 20:06:27 GMT 54.106522 9.092599 35,000 58 471 -64
2018-06-22 20:06:24 GMT 54.103058 9.082785 35,000 59 470 -64
2018-06-22 20:06:21 GMT 54.099792 9.073608 35,000 59 470 -64
2018-06-22 20:06:18 GMT 54.096539 9.064448 35,000 59 470 -64
2018-06-22 20:06:14 GMT 54.091419 9.049826 35,000 59 470 -64
2018-06-22 20:06:11 GMT 54.087833 9.039729 35,000 59 470 -64
2018-06-22 20:06:08 GMT 54.085602 9.033347 35,000 59 470 0
2018-06-22 20:06:05 GMT 54.082481 9.024542 35,000 59 470 0
2018-06-22 20:06:02 GMT 54.077682 9.010908 34,975 59 470 0
2018-06-22 20:05:59 GMT 54.075439 9.004551 35,000 59 470 -64
2018-06-22 20:05:56 GMT 54.071915 8.994428 34,975 58 476 0
2018-06-22 20:05:53 GMT 54.068653 8.985201 34,975 59 470 -64
2018-06-22 20:05:50 GMT 54.065186 8.975438 34,975 58 471 -64
2018-06-22 20:05:47 GMT 54.062183 8.966863 34,975 58 471 0
2018-06-22 20:05:44 GMT 54.059372 8.958880 34,975 58 472 -64
2018-06-22 20:05:41 GMT 54.055248 8.947153 35,000 58 477 -64
2018-06-22 20:05:38 GMT 54.051849 8.937620 35,000 58 472 -64
2018-06-22 20:05:35 GMT 54.048683 8.928734 34,975 58 473 -64
2018-06-22 20:05:32 GMT 54.044868 8.917990 35,000 58 474 -64
2018-06-22 20:05:28 GMT 54.040352 8.905227 34,975 58 474 -64
2018-06-22 20:05:25 GMT 54.036068 8.893109 35,000 58 474 -64
2018-06-22 20:05:21 GMT 54.032436 8.882931 35,000 58 475 -64
2018-06-22 20:05:18 GMT 54.028622 8.872106 35,000 58 475 0
2018-06-22 20:05:15 GMT 54.025772 8.864162 34,975 58 474 -64
2018-06-22 20:05:12 GMT 54.021927 8.853333 35,000 58 475 -64
2018-06-22 20:05:09 GMT 54.018379 8.843429 34,975 58 475 -64
2018-06-22 20:05:05 GMT 54.013504 8.829712 35,000 58 475 -64
2018-06-22 20:05:01 GMT 54.010231 8.820487 34,975 58 475 -64
2018-06-22 20:04:58 GMT 54.006832 8.810954 34,975 58 475 -64
2018-06-22 20:04:55 GMT 54.002151 8.797852 35,000 58 475 -64
2018-06-22 20:04:51 GMT 53.997849 8.785767 35,000 58 476 -64
2018-06-22 20:04:48 GMT 53.995560 8.779332 35,000 58 476 -64
2018-06-22 20:04:45 GMT 53.992126 8.769758 35,000 58 476 0
2018-06-22 20:04:42 GMT 53.989197 8.761518 34,975 58 476 -64
2018-06-22 20:04:39 GMT 53.985653 8.751580 35,000 58 476 -64
2018-06-22 20:04:36 GMT 53.982208 8.742047 35,000 58 476 -64
2018-06-22 20:04:33 GMT 53.977413 8.728638 34,975 58 476 -64
2018-06-22 20:04:30 GMT 53.973450 8.717416 34,975 58 476 -64
2018-06-22 20:04:27 GMT 53.971966 8.713289 34,975 58 476 -64
2018-06-22 20:04:24 GMT 53.968521 8.703757 34,975 58 476 -64
2018-06-22 20:04:21 GMT 53.964752 8.693246 34,975 58 477 -64
2018-06-22 20:04:18 GMT 53.960793 8.682027 34,975 58 477 -64
2018-06-22 20:04:15 GMT 53.956882 8.671202 35,000 58 477 -64
2018-06-22 20:04:10 GMT 53.951294 8.655579 34,975 58 477 -64
2018-06-22 20:04:07 GMT 53.948547 8.647967 35,000 58 477 -64
2018-06-22 20:04:04 GMT 53.944656 8.637137 35,000 58 477 -64
2018-06-22 20:03:59 GMT 53.939392 8.622463 35,000 58 477 -64
2018-06-22 20:03:56 GMT 53.934357 8.608416 34,975 58 477 -64
2018-06-22 20:03:53 GMT 53.932674 8.603668 35,000 58 477 -64
2018-06-22 20:03:50 GMT 53.928299 8.591551 35,000 58 477 -64
2018-06-22 20:03:46 GMT 53.923828 8.579067 35,000 58 477 -64
2018-06-22 20:03:43 GMT 53.921082 8.571455 34,975 58 477 -64
2018-06-22 20:03:39 GMT 53.916275 8.558036 35,000 58 477 -64
2018-06-22 20:03:36 GMT 53.912239 8.546959 34,975 58 476 0
2018-06-22 20:03:33 GMT 53.909492 8.539285 35,000 58 476 0
2018-06-22 20:03:30 GMT 53.905163 8.527168 35,000 58 477 -64
2018-06-22 20:03:27 GMT 53.902836 8.520867 34,975 58 477 -64
2018-06-22 20:03:24 GMT 53.898148 8.507812 35,000 58 477 0
2018-06-22 20:03:21 GMT 53.895401 8.500201 35,000 58 477 -64
2018-06-22 20:03:17 GMT 53.890453 8.486535 34,975 58 477 0
2018-06-22 20:03:14 GMT 53.888260 8.480504 34,975 58 478 -64
2018-06-22 20:03:11 GMT 53.884262 8.469328 34,975 58 477 -64
2018-06-22 20:03:08 GMT 53.879562 8.456334 34,975 58 477 -64
2018-06-22 20:03:04 GMT 53.876770 8.448643 35,000 58 477 -64
2018-06-22 20:03:01 GMT 53.872765 8.437581 35,000 58 477 -64
2018-06-22 20:02:58 GMT 53.869087 8.427402 35,000 58 477 -64
2018-06-22 20:02:55 GMT 53.866104 8.419082 34,975 58 477 -64
2018-06-22 20:02:52 GMT 53.862148 8.408338 35,000 58 477 -64
2018-06-22 20:02:49 GMT 53.858368 8.397871 35,000 58 477 -64
2018-06-22 20:02:46 GMT 53.854561 8.387334 35,000 58 477 -64
2018-06-22 20:02:42 GMT 53.850418 8.375944 35,000 58 481 -64
2018-06-22 20:02:37 GMT 53.844879 8.360676 35,000 58 477 -64
2018-06-22 20:02:34 GMT 53.841667 8.351790 35,000 58 478 -64
2018-06-22 20:02:31 GMT 53.838547 8.343253 35,000 58 477 -64
2018-06-22 20:02:27 GMT 53.833694 8.329912 34,975 58 478 -64
2018-06-22 20:02:24 GMT 53.830215 8.320339 34,975 58 479 -64
2018-06-22 20:02:21 GMT 53.827240 8.312099 34,975 58 478 -64
2018-06-22 20:02:18 GMT 53.822617 8.299386 34,975 58 478 -64
2018-06-22 20:02:15 GMT 53.819740 8.291446 35,000 58 479 -64
2018-06-22 20:02:12 GMT 53.816715 8.283126 35,000 58 479 -64
2018-06-22 20:02:09 GMT 53.813599 8.274588 35,000 58 479 -64
2018-06-22 20:02:06 GMT 53.810120 8.265015 35,000 58 479 -64
2018-06-22 20:02:03 GMT 53.805496 8.252223 35,000 58 479 -64
2018-06-22 20:01:59 GMT 53.801910 8.242331 34,975 58 479 -64
2018-06-22 20:01:56 GMT 53.797722 8.230860 35,000 58 481 0
2018-06-22 20:01:52 GMT 53.792725 8.217146 34,975 58 480 0
2018-06-22 20:01:49 GMT 53.789703 8.208906 34,975 58 480 -64
2018-06-22 20:01:46 GMT 53.785152 8.196447 35,000 58 480 -64
2018-06-22 20:01:43 GMT 53.782360 8.188773 35,000 58 480 -64
2018-06-22 20:01:40 GMT 53.779221 8.180185 35,000 58 481 0
2018-06-22 20:01:37 GMT 53.775375 8.169627 35,000 58 481 0
2018-06-22 20:01:33 GMT 53.770721 8.156864 34,975 58 481 -64
2018-06-22 20:01:30 GMT 53.767090 8.146990 35,000 58 481 -64
2018-06-22 20:01:27 GMT 53.764202 8.139011 34,975 58 481 -64
2018-06-22 20:01:24 GMT 53.760086 8.127842 35,000 58 481 -64
2018-06-22 20:01:21 GMT 53.757294 8.120231 34,975 58 481 -64
2018-06-22 20:01:18 GMT 53.752983 8.108395 35,000 58 480 -64
2018-06-22 20:01:15 GMT 53.749958 8.100155 35,000 58 480 -64
2018-06-22 20:01:11 GMT 53.745258 8.087392 35,000 58 480 -64
2018-06-22 20:01:08 GMT 53.741180 8.076285 34,975 58 480 -64
2018-06-22 20:01:05 GMT 53.737656 8.066711 35,000 58 480 -64
2018-06-22 20:01:02 GMT 53.734970 8.059441 35,000 58 480 -64
2018-06-22 20:00:59 GMT 53.731010 8.048616 35,000 58 480 -64
2018-06-22 20:00:56 GMT 53.727402 8.038775 34,975 58 480 -64
2018-06-22 20:00:53 GMT 53.723694 8.028652 35,000 58 479 0
2018-06-22 20:00:50 GMT 53.719482 8.017194 35,000 58 480 0
2018-06-22 20:00:47 GMT 53.717045 8.010568 34,975 58 480 0
2018-06-22 20:00:44 GMT 53.712708 7.998832 34,975 58 480 -64
2018-06-22 20:00:40 GMT 53.709087 7.988999 34,975 58 480 -64
2018-06-22 20:00:37 GMT 53.706059 7.980760 34,975 58 480 -64
2018-06-22 20:00:34 GMT 53.702568 7.971227 34,975 58 480 -64
2018-06-22 20:00:31 GMT 53.698471 7.960066 34,975 58 480 -64
2018-06-22 20:00:28 GMT 53.695633 7.952454 35,000 58 480 -64
2018-06-22 20:00:25 GMT 53.691193 7.940369 35,000 58 480 -64
2018-06-22 20:00:22 GMT 53.687347 7.929948 34,975 58 480 -64
2018-06-22 20:00:19 GMT 53.684647 7.922634 35,000 58 480 -64
2018-06-22 20:00:16 GMT 53.681396 7.913766 35,000 57 478 -64
2018-06-22 20:00:13 GMT 53.676826 7.901351 34,975 58 479 0
2018-06-22 20:00:10 GMT 53.674496 7.895050 34,975 58 479 0
2018-06-22 20:00:07 GMT 53.669842 7.882367 34,975 57 478 0
2018-06-22 20:00:04 GMT 53.667618 7.876413 34,975 57 478 -64
2018-06-22 20:00:01 GMT 53.662579 7.862818 34,975 57 478 -64
2018-06-22 19:59:58 GMT 53.660339 7.856794 35,000 57 478 0
2018-06-22 19:59:54 GMT 53.655087 7.842623 35,000 57 479 0
2018-06-22 19:59:51 GMT 53.651688 7.833487 35,000 57 478 -64
2018-06-22 19:59:48 GMT 53.648438 7.824698 35,000 57 478 -64
2018-06-22 19:59:44 GMT 53.643723 7.812064 34,975 57 479 0
2018-06-22 19:59:40 GMT 53.637535 7.795284 35,000 58 479 -64
2018-06-22 19:59:37 GMT 53.634045 7.785833 34,975 58 479 -64
2018-06-22 19:59:33 GMT 53.630970 7.777593 35,000 58 479 -64
2018-06-22 19:59:30 GMT 53.626648 7.765921 35,000 58 479 -64
2018-06-22 19:59:27 GMT 53.623756 7.758044 34,975 58 479 -64
2018-06-22 19:59:23 GMT 53.619518 7.746654 34,975 57 479 64
2018-06-22 19:59:19 GMT 53.614819 7.734052 34,975 57 479 -64
2018-06-22 19:59:16 GMT 53.610718 7.722996 34,975 57 479 0
2018-06-22 19:59:13 GMT 53.607193 7.713579 34,975 57 479 0
2018-06-22 19:59:09 GMT 53.602108 7.700043 34,975 57 479 -64
2018-06-22 19:59:06 GMT 53.597992 7.689017 34,975 57 479 0
2018-06-22 19:59:03 GMT 53.595497 7.682432 34,975 57 479 -64
2018-06-22 19:59:00 GMT 53.591858 7.672695 34,975 57 479 -64
2018-06-22 19:58:57 GMT 53.589294 7.665710 34,975 57 479 0
2018-06-22 19:58:54 GMT 53.585083 7.654410 34,975 57 479 -64
2018-06-22 19:58:51 GMT 53.580139 7.641227 34,975 57 478 -64
2018-06-22 19:58:48 GMT 53.577202 7.633317 34,975 57 478 -64
2018-06-22 19:58:45 GMT 53.573318 7.622942 35,000 57 478 -64
2018-06-22 19:58:42 GMT 53.570251 7.614781 35,000 57 478 -64
2018-06-22 19:58:39 GMT 53.567184 7.606620 35,000 57 478 -64
2018-06-22 19:58:36 GMT 53.563797 7.597531 35,000 57 478 -64
2018-06-22 19:58:33 GMT 53.559792 7.586867 35,000 57 478 -64
2018-06-22 19:58:30 GMT 53.557652 7.581213 35,000 57 478 -64
2018-06-22 19:58:27 GMT 53.553085 7.568952 35,000 57 478 -64
2018-06-22 19:58:24 GMT 53.548992 7.557947 34,975 57 478 -64
2018-06-22 19:58:21 GMT 53.546154 7.550435 35,000 57 478 -64
2018-06-22 19:58:17 GMT 53.541595 7.538191 35,000 57 478 -64
2018-06-22 19:58:14 GMT 53.538193 7.529108 35,000 57 477 -64
2018-06-22 19:58:10 GMT 53.533257 7.515941 34,975 57 478 0
2018-06-22 19:58:05 GMT 53.527348 7.500188 34,975 57 478 -64
2018-06-22 19:58:00 GMT 53.521591 7.484828 35,000 57 479 -64
2018-06-22 19:57:54 GMT 53.515102 7.467633 34,975 57 479 -64
2018-06-22 19:57:51 GMT 53.510239 7.454773 34,975 57 479 -64
2018-06-22 19:57:48 GMT 53.506943 7.445984 34,975 57 479 -64
2018-06-22 19:57:45 GMT 53.503647 7.437273 34,975 57 478 -64
2018-06-22 19:57:42 GMT 53.500122 7.427856 35,000 57 478 -64
2018-06-22 19:57:39 GMT 53.496433 7.418114 34,975 57 478 -64
2018-06-22 19:57:35 GMT 53.491837 7.405962 35,000 57 478 -64
2018-06-22 19:57:32 GMT 53.488426 7.396869 35,000 57 477 -64
2018-06-22 19:57:29 GMT 53.484890 7.387417 35,000 57 478 -64
2018-06-22 19:57:26 GMT 53.480072 7.374651 35,000 57 478 -64
2018-06-22 19:57:23 GMT 53.478558 7.370534 35,000 57 478 -64
2018-06-22 19:57:20 GMT 53.474670 7.360212 35,000 57 478 -64
2018-06-22 19:57:17 GMT 53.470551 7.349288 35,000 57 478 -64
2018-06-22 19:57:14 GMT 53.467117 7.340201 35,000 57 478 -64
2018-06-22 19:57:11 GMT 53.463711 7.331193 35,000 57 478 -64
2018-06-22 19:57:08 GMT 53.460125 7.321822 34,975 57 477 -64
2018-06-22 19:57:05 GMT 53.455536 7.309675 35,000 57 477 -64
2018-06-22 19:57:02 GMT 53.452583 7.301869 34,975 57 478 -64
2018-06-22 19:56:59 GMT 53.448299 7.290640 35,000 57 478 -64
2018-06-22 19:56:56 GMT 53.446060 7.284720 35,000 57 478 -64
2018-06-22 19:56:53 GMT 53.442764 7.276010 34,975 57 477 0
2018-06-22 19:56:49 GMT 53.438278 7.264160 34,975 57 478 0
2018-06-22 19:56:46 GMT 53.434021 7.252938 35,000 57 475 -64
2018-06-22 19:56:43 GMT 53.430450 7.243600 35,000 57 478 -64
2018-06-22 19:56:40 GMT 53.426792 7.233932 34,975 57 478 -64
2018-06-22 19:56:37 GMT 53.423630 7.225473 34,975 57 478 -64
2018-06-22 19:56:34 GMT 53.418552 7.212121 34,975 57 477 -64
2018-06-22 19:56:31 GMT 53.415115 7.203029 35,000 57 477 -64
2018-06-22 19:56:28 GMT 53.413422 7.198713 34,975 57 477 -64
2018-06-22 19:56:25 GMT 53.409058 7.187159 34,975 57 477 -64
2018-06-22 19:56:22 GMT 53.405750 7.178434 35,000 57 477 -64
2018-06-22 19:56:19 GMT 53.401108 7.166303 34,975 57 477 -64
2018-06-22 19:56:15 GMT 53.396954 7.155492 34,975 57 477 -64
2018-06-22 19:56:12 GMT 53.393181 7.145475 35,000 57 477 -64
2018-06-22 19:56:08 GMT 53.389133 7.134974 34,975 57 477 -64
2018-06-22 19:56:05 GMT 53.385361 7.125038 35,000 57 477 -64
2018-06-22 19:56:02 GMT 53.380966 7.113491 35,000 57 477 -64
2018-06-22 19:55:59 GMT 53.378586 7.107291 34,975 57 477 -64
2018-06-22 19:55:55 GMT 53.372910 7.092381 35,000 57 476 -64
2018-06-22 19:55:51 GMT 53.367691 7.078727 34,975 57 476 -64
2018-06-22 19:55:48 GMT 53.365356 7.072527 35,000 57 475 -64
2018-06-22 19:55:45 GMT 53.361202 7.061705 35,000 57 475 -64
2018-06-22 19:55:42 GMT 53.358719 7.055263 34,975 57 475 -64
2018-06-22 19:55:39 GMT 53.354691 7.044747 34,975 57 475 -64
2018-06-22 19:55:36 GMT 53.351517 7.036420 35,000 57 475 -64
2018-06-22 19:55:32 GMT 53.345947 7.021833 35,000 57 474 -64
2018-06-22 19:55:29 GMT 53.343155 7.014457 35,000 57 474 -64
2018-06-22 19:55:26 GMT 53.338997 7.003623 35,000 57 474 -64
2018-06-22 19:55:23 GMT 53.335972 6.995625 35,000 57 474 -64
2018-06-22 19:55:20 GMT 53.332077 6.985500 35,000 57 474 -64
2018-06-22 19:55:16 GMT 53.326630 6.971296 34,975 57 474 -64
2018-06-22 19:55:13 GMT 53.323563 6.963292 35,000 57 474 -64
2018-06-22 19:55:10 GMT 53.319443 6.952488 35,000 57 474 -64
2018-06-22 19:55:07 GMT 53.317703 6.947832 34,975 57 474 -64
2018-06-22 19:55:04 GMT 53.312759 6.934963 34,975 57 474 -64
2018-06-22 19:55:01 GMT 53.309921 6.927508 34,975 57 474 0
2018-06-22 19:54:58 GMT 53.306122 6.917698 35,000 57 474 -64
2018-06-22 19:54:53 GMT 53.300079 6.901999 35,000 57 474 -64
2018-06-22 19:54:49 GMT 53.295959 6.891253 34,975 57 474 -64
2018-06-22 19:54:46 GMT 53.291931 6.880816 34,975 57 474 -64
2018-06-22 19:54:43 GMT 53.289551 6.874616 34,975 57 473 -64
2018-06-22 19:54:40 GMT 53.284103 6.860491 35,000 57 473 -64
2018-06-22 19:54:36 GMT 53.280666 6.851591 35,000 57 474 -64
2018-06-22 19:54:33 GMT 53.277695 6.843933 35,000 57 474 -64
2018-06-22 19:54:30 GMT 53.272980 6.831613 35,000 57 474 -64
2018-06-22 19:54:27 GMT 53.269638 6.822981 35,000 57 474 -64
2018-06-22 19:54:23 GMT 53.265022 6.811039 34,975 57 474 -64
2018-06-22 19:54:20 GMT 53.261581 6.802107 35,000 57 474 -64
2018-06-22 19:54:17 GMT 53.256458 6.788985 35,000 57 474 -64
2018-06-22 19:54:13 GMT 53.253021 6.780055 35,000 57 474 -64
2018-06-22 19:54:10 GMT 53.250183 6.772679 35,000 57 473 -64
2018-06-22 19:54:07 GMT 53.246155 6.762242 34,975 57 473 -64
2018-06-22 19:54:04 GMT 53.241562 6.750291 34,975 57 473 0
2018-06-22 19:54:01 GMT 53.239655 6.745444 35,000 57 473 -64
2018-06-22 19:53:58 GMT 53.234673 6.732600 35,000 57 473 0
2018-06-22 19:53:55 GMT 53.231735 6.724888 34,975 57 473 0
2018-06-22 19:53:52 GMT 53.226974 6.712646 34,975 57 473 0
2018-06-22 19:53:47 GMT 53.222149 6.700125 34,975 57 473 0
2018-06-22 19:53:44 GMT 53.218460 6.690595 34,975 57 473 -64
2018-06-22 19:53:41 GMT 53.216125 6.684553 34,975 57 473 -64
2018-06-22 19:53:38 GMT 53.211723 6.673225 34,975 57 473 -64
2018-06-22 19:53:35 GMT 53.207439 6.662158 34,975 57 473 -64
2018-06-22 19:53:32 GMT 53.203537 6.652065 34,975 57 474 0
2018-06-22 19:53:28 GMT 53.199966 6.642883 35,000 57 474 -64
2018-06-22 19:53:25 GMT 53.196033 6.632834 35,000 57 474 0
2018-06-22 19:53:22 GMT 53.192726 6.624271 34,975 57 474 0
2018-06-22 19:53:19 GMT 53.188797 6.614162 35,000 57 474 -64
2018-06-22 19:53:16 GMT 53.184395 6.602864 34,975 57 474 0
2018-06-22 19:53:13 GMT 53.181656 6.595799 34,975 57 474 -64
2018-06-22 19:53:10 GMT 53.178669 6.588162 34,975 57 474 -64
2018-06-22 19:53:07 GMT 53.174622 6.577822 34,975 57 474 0
2018-06-22 19:53:04 GMT 53.171173 6.568961 34,975 57 474 -64
2018-06-22 19:53:00 GMT 53.165451 6.554286 34,975 56 474 -64
2018-06-22 19:52:57 GMT 53.163170 6.548498 34,975 56 474 -64
2018-06-22 19:52:54 GMT 53.158653 6.536865 34,975 56 474 -64
2018-06-22 19:52:51 GMT 53.154465 6.526193 35,000 56 474 -64
2018-06-22 19:52:48 GMT 53.151016 6.517316 35,000 56 474 -64
2018-06-22 19:52:44 GMT 53.147667 6.508753 34,975 56 474 -64
2018-06-22 19:52:40 GMT 53.142746 6.496216 35,000 56 474 -64
2018-06-22 19:52:37 GMT 53.139053 6.486781 34,975 56 474 -64
2018-06-22 19:52:34 GMT 53.134415 6.474871 34,975 56 474 -64
2018-06-22 19:52:31 GMT 53.132721 6.470633 35,000 56 474 -64
2018-06-22 19:52:28 GMT 53.128693 6.460275 35,000 56 474 -64
2018-06-22 19:52:24 GMT 53.122238 6.443795 35,000 56 474 -64
2018-06-22 19:52:21 GMT 53.119125 6.435869 34,975 56 474 -64
2018-06-22 19:52:17 GMT 53.115051 6.425511 35,000 56 472 -64
2018-06-22 19:52:14 GMT 53.111588 6.416743 35,000 56 472 -64
2018-06-22 19:52:11 GMT 53.108749 6.409392 35,000 56 473 -64
2018-06-22 19:52:08 GMT 53.104698 6.399132 35,000 56 473 -64
2018-06-22 19:52:05 GMT 53.100880 6.389358 35,000 56 472 -64
2018-06-22 19:52:01 GMT 53.095387 6.375463 35,000 56 472 -64
2018-06-22 19:51:58 GMT 53.092850 6.369095 35,000 56 472 -64
2018-06-22 19:51:55 GMT 53.089149 6.359671 35,000 56 472 -64
2018-06-22 19:51:52 GMT 53.084820 6.348764 34,975 56 473 -64
2018-06-22 19:51:49 GMT 53.082447 6.342721 35,000 56 473 -64
2018-06-22 19:51:46 GMT 53.077419 6.329930 34,975 56 474 0
2018-06-22 19:51:43 GMT 53.075043 6.323887 34,975 56 474 -64
2018-06-22 19:51:40 GMT 53.071564 6.315079 34,975 56 474 0
2018-06-22 19:51:37 GMT 53.067364 6.304426 34,975 56 474 -64
2018-06-22 19:51:34 GMT 53.063919 6.295624 34,975 56 474 0
2018-06-22 19:51:31 GMT 53.060303 6.286469 34,975 56 474 -64
2018-06-22 19:51:28 GMT 53.056099 6.275783 34,975 56 474 -64
2018-06-22 19:51:24 GMT 53.050606 6.261815 35,000 56 474 -64
2018-06-22 19:51:21 GMT 53.047623 6.254196 35,000 56 474 -64
2018-06-22 19:51:18 GMT 53.044968 6.247559 35,000 56 475 -64
2018-06-22 19:51:15 GMT 53.041016 6.237488 35,000 56 474 -64
2018-06-22 19:51:11 GMT 53.036819 6.226883 35,000 56 474 -64
2018-06-22 19:51:08 GMT 53.032589 6.216221 34,975 56 475 -64
2018-06-22 19:51:05 GMT 53.028770 6.206491 34,975 56 474 -64
2018-06-22 19:51:02 GMT 53.025139 6.197388 34,975 56 475 -64
2018-06-22 19:50:59 GMT 53.022022 6.189462 35,000 56 475 -64
2018-06-22 19:50:56 GMT 53.017693 6.178476 35,000 56 475 -64
2018-06-22 19:50:53 GMT 53.014938 6.171494 35,000 56 474 -64
2018-06-22 19:50:50 GMT 53.010757 6.160819 35,000 56 475 -64
2018-06-22 19:50:47 GMT 53.007870 6.153521 35,000 56 475 -64
2018-06-22 19:50:43 GMT 53.001865 6.138297 35,000 56 475 -64
2018-06-22 19:50:40 GMT 52.997864 6.128311 35,000 56 475 -64
2018-06-22 19:50:37 GMT 52.995579 6.122524 35,000 56 475 -64
2018-06-22 19:50:33 GMT 52.989944 6.108246 35,000 56 475 -64
2018-06-22 19:50:30 GMT 52.986786 6.100311 35,000 56 474 0
2018-06-22 19:50:27 GMT 52.983292 6.091527 34,975 56 474 -64
2018-06-22 19:50:24 GMT 52.979782 6.082764 35,000 56 475 0
2018-06-22 19:50:21 GMT 52.977005 6.075753 34,975 56 474 0
2018-06-22 19:50:18 GMT 52.972092 6.063309 35,000 56 474 0
2018-06-22 19:50:15 GMT 52.969162 6.056061 34,975 56 474 0
2018-06-22 19:50:12 GMT 52.965179 6.046090 34,975 56 474 -64
2018-06-22 19:50:09 GMT 52.962158 6.038513 35,000 56 474 -64
2018-06-22 19:50:06 GMT 52.958664 6.029768 34,975 56 474 -64
2018-06-22 19:50:02 GMT 52.951767 6.012497 34,975 56 474 -64
2018-06-22 19:49:59 GMT 52.948883 6.005249 34,975 56 474 -64
2018-06-22 19:49:55 GMT 52.943344 5.991364 34,975 56 474 -64
2018-06-22 19:49:52 GMT 52.941067 5.985587 35,000 56 474 -64
2018-06-22 19:49:49 GMT 52.938263 5.978699 35,000 56 474 -64
2018-06-22 19:49:46 GMT 52.933456 5.966568 35,000 56 474 -64
2018-06-22 19:49:43 GMT 52.930069 5.958099 35,000 56 474 -64
2018-06-22 19:49:40 GMT 52.927288 5.951137 35,000 56 474 -64
2018-06-22 19:49:37 GMT 52.922607 5.939331 34,975 56 474 -64
2018-06-22 19:49:32 GMT 52.916565 5.924225 34,975 56 474 -64
2018-06-22 19:49:29 GMT 52.913555 5.916687 34,975 56 474 -64
2018-06-22 19:49:26 GMT 52.910019 5.907974 34,975 56 474 -64
2018-06-22 19:49:22 GMT 52.904339 5.893773 34,975 56 474 -64
2018-06-22 19:49:19 GMT 52.902054 5.887985 35,000 56 474 -64
2018-06-22 19:49:16 GMT 52.897820 5.877450 35,000 56 475 -64
2018-06-22 19:49:13 GMT 52.894089 5.868073 34,975 56 474 -64
2018-06-22 19:49:10 GMT 52.890602 5.859323 34,975 56 475 0
2018-06-22 19:49:07 GMT 52.887085 5.850601 34,975 56 475 -64
2018-06-22 19:49:04 GMT 52.882832 5.840018 34,975 56 474 -64
2018-06-22 19:49:01 GMT 52.878571 5.829468 34,975 56 474 -64
2018-06-22 19:48:58 GMT 52.875057 5.820714 34,975 56 475 -64
2018-06-22 19:48:55 GMT 52.872169 5.813494 34,975 56 475 -64
2018-06-22 19:48:52 GMT 52.868027 5.803214 34,975 56 475 -64
2018-06-22 19:48:48 GMT 52.863419 5.791757 34,975 56 474 -64
2018-06-22 19:48:45 GMT 52.859322 5.781477 34,975 56 474 -64
2018-06-22 19:48:42 GMT 52.857010 5.775757 35,000 56 474 -64
2018-06-22 19:48:39 GMT 52.852890 5.765533 35,000 56 473 -64
2018-06-22 19:48:36 GMT 52.849358 5.756757 35,000 56 473 -64
2018-06-22 19:48:33 GMT 52.845261 5.746556 35,000 56 473 -64
2018-06-22 19:48:29 GMT 52.840988 5.736008 34,975 56 473 -64
2018-06-22 19:48:26 GMT 52.837254 5.726702 34,975 56 473 -64
2018-06-22 19:48:23 GMT 52.833252 5.716782 34,975 56 473 -64
2018-06-22 19:48:20 GMT 52.829636 5.707703 34,975 56 473 -64
2018-06-22 19:48:17 GMT 52.826130 5.699001 34,975 56 473 -64
2018-06-22 19:48:14 GMT 52.822632 5.690308 35,000 56 473 -64
2018-06-22 19:48:11 GMT 52.818123 5.679147 34,975 56 473 -64
2018-06-22 19:48:08 GMT 52.814026 5.668945 34,975 56 473 -64
2018-06-22 19:48:05 GMT 52.812073 5.664158 35,000 56 472 -64
2018-06-22 19:48:02 GMT 52.807739 5.653329 35,000 56 473 -64
2018-06-22 19:47:59 GMT 52.804688 5.645828 35,000 56 473 -64
2018-06-22 19:47:56 GMT 52.800842 5.636215 35,000 56 471 -64
2018-06-22 19:47:53 GMT 52.797314 5.627590 34,975 56 473 -64
2018-06-22 19:47:50 GMT 52.793564 5.618286 35,000 56 473 -64
2018-06-22 19:47:47 GMT 52.789585 5.608364 34,975 56 472 -64
2018-06-22 19:47:44 GMT 52.785488 5.598240 34,975 56 471 -64
2018-06-22 19:47:41 GMT 52.782089 5.589844 34,975 56 472 -64
2018-06-22 19:47:38 GMT 52.779282 5.582962 35,000 56 472 -64
2018-06-22 19:47:35 GMT 52.774933 5.572128 34,975 56 472 -64
2018-06-22 19:47:32 GMT 52.771431 5.563477 34,975 56 472 -64
2018-06-22 19:47:29 GMT 52.767654 5.554199 35,000 56 472 -64
2018-06-22 19:47:26 GMT 52.764267 5.545883 35,000 56 472 -64
2018-06-22 19:47:23 GMT 52.760025 5.535461 34,975 56 472 -64
2018-06-22 19:47:20 GMT 52.756302 5.526199 34,975 56 471 -64
2018-06-22 19:47:17 GMT 52.752182 5.516052 35,000 56 471 -64
2018-06-22 19:47:13 GMT 52.748154 5.506191 35,000 56 471 -64
2018-06-22 19:47:10 GMT 52.744804 5.497872 34,975 56 471 -64
2018-06-22 19:47:07 GMT 52.741173 5.488926 34,975 56 471 -64
2018-06-22 19:47:04 GMT 52.737671 5.480270 35,000 56 470 -64
2018-06-22 19:47:01 GMT 52.734653 5.472839 35,000 56 470 -64
2018-06-22 19:46:58 GMT 52.730511 5.462716 35,000 56 470 -64
2018-06-22 19:46:55 GMT 52.726414 5.452672 34,975 56 470 -64
2018-06-22 19:46:52 GMT 52.723995 5.446708 34,975 56 470 -64
2018-06-22 19:46:49 GMT 52.719269 5.435104 35,000 56 470 -64
2018-06-22 19:46:46 GMT 52.716843 5.429153 34,975 56 469 -64
2018-06-22 19:46:43 GMT 52.712635 5.418771 35,000 56 468 -64
2018-06-22 19:46:40 GMT 52.708073 5.407549 35,000 56 469 -64
2018-06-22 19:46:37 GMT 52.705650 5.401585 35,000 56 468 -64
2018-06-22 19:46:34 GMT 52.701691 5.391846 35,000 56 468 -64
2018-06-22 19:46:31 GMT 52.696995 5.380319 35,000 56 468 0
2018-06-22 19:46:28 GMT 52.694572 5.374433 35,000 56 468 64
2018-06-22 19:46:25 GMT 52.689651 5.362320 34,975 55 468 128
2018-06-22 19:46:22 GMT 52.687077 5.356070 34,975 55 468 1088
2018-06-22 19:46:19 GMT 52.683334 5.346985 34,975 55 468 320
2018-06-22 19:46:16 GMT 52.679585 5.337786 34,925 55 468 448
2018-06-22 19:46:13 GMT 52.675598 5.328064 34,900 55 468 768
2018-06-22 19:46:09 GMT 52.670563 5.315704 34,875 55 467 832
2018-06-22 19:46:06 GMT 52.667175 5.307465 34,800 55 468 896
2018-06-22 19:46:03 GMT 52.664127 5.300119 34,675 55 468 1024
2018-06-22 19:46:00 GMT 52.660400 5.290985 34,750 55 468 960
2018-06-22 19:45:57 GMT 52.657013 5.282745 34,675 55 468 1024
2018-06-22 19:45:54 GMT 52.653748 5.274850 34,625 55 468 1088
2018-06-22 19:45:51 GMT 52.650116 5.265982 34,575 55 468 1088
2018-06-22 19:45:48 GMT 52.644928 5.253296 34,525 56 469 1088
2018-06-22 19:45:45 GMT 52.641178 5.244167 34,325 56 470 1216
2018-06-22 19:45:42 GMT 52.639343 5.239792 34,425 56 469 1152
2018-06-22 19:45:39 GMT 52.635872 5.231219 34,375 55 469 1152
2018-06-22 19:45:36 GMT 52.631607 5.220871 34,225 56 470 1216
2018-06-22 19:45:33 GMT 52.626373 5.208147 33,975 55 470 1088
2018-06-22 19:45:30 GMT 52.623596 5.201340 34,150 56 470 1216
2018-06-22 19:45:27 GMT 52.619934 5.192490 34,075 55 470 1152
2018-06-22 19:45:24 GMT 52.616924 5.185076 34,050 55 470 1152
2018-06-22 19:45:21 GMT 52.613480 5.176836 33,950 55 471 832
2018-06-22 19:45:18 GMT 52.608765 5.165253 33,925 55 470 1088
2018-06-22 19:45:15 GMT 52.606293 5.159378 33,850 55 471 1088
2018-06-22 19:45:12 GMT 52.602028 5.148978 33,825 55 471 1088
2018-06-22 19:45:09 GMT 52.598862 5.141288 33,750 55 471 1088
2018-06-22 19:45:06 GMT 52.595078 5.132141 33,625 55 472 832
2018-06-22 19:45:03 GMT 52.591274 5.122925 33,600 55 471 832
2018-06-22 19:45:00 GMT 52.586243 5.110855 33,625 55 471 832
2018-06-22 19:44:57 GMT 52.583920 5.105190 33,575 55 471 896
2018-06-22 19:44:54 GMT 52.579376 5.094299 33,550 55 471 832
2018-06-22 19:44:51 GMT 52.575989 5.085983 33,300 55 471 832
2018-06-22 19:44:47 GMT 52.572281 5.077133 33,300 55 471 1088
2018-06-22 19:44:44 GMT 52.567997 5.066816 33,400 55 471 896
2018-06-22 19:44:41 GMT 52.563854 5.056771 33,325 55 471 896
2018-06-22 19:44:37 GMT 52.558220 5.043274 33,275 55 471 960
2018-06-22 19:44:34 GMT 52.555161 5.035858 33,225 55 470 1024
2018-06-22 19:44:31 GMT 52.552231 5.028763 32,725 55 472 1792
2018-06-22 19:44:28 GMT 52.548447 5.019653 33,100 55 471 1216
2018-06-22 19:44:25 GMT 52.544678 5.010529 33,050 55 471 1280
2018-06-22 19:44:22 GMT 52.540512 5.000458 33,000 55 471 1472
2018-06-22 19:44:19 GMT 52.536392 4.990463 32,900 55 471 1536
2018-06-22 19:44:16 GMT 52.533318 4.983006 32,850 55 472 1664
2018-06-22 19:44:13 GMT 52.529636 4.974139 32,725 55 474 1920
2018-06-22 19:44:10 GMT 52.525963 4.965271 32,675 55 474 1920
2018-06-22 19:44:07 GMT 52.523262 4.958758 32,425 55 475 1856
2018-06-22 19:44:04 GMT 52.518173 4.946594 32,275 55 478 1728
2018-06-22 19:44:01 GMT 52.515701 4.940643 32,375 55 477 1792
2018-06-22 19:43:58 GMT 52.510483 4.928131 32,300 55 478 1792
2018-06-22 19:43:55 GMT 52.507233 4.920349 32,150 55 479 1664
2018-06-22 19:43:51 GMT 52.503250 4.910736 32,075 55 479 1536
2018-06-22 19:43:48 GMT 52.498634 4.899667 32,025 55 480 1472
2018-06-22 19:43:45 GMT 52.495144 4.891270 31,900 51 477 1088
2018-06-22 19:43:42 GMT 52.491989 4.883804 31,775 54 481 1216
2018-06-22 19:43:39 GMT 52.487881 4.873849 31,800 55 481 1344
2018-06-22 19:43:36 GMT 52.482697 4.861526 31,725 51 477 1088
2018-06-22 19:43:33 GMT 52.480293 4.855879 31,625 52 478 1152
2018-06-22 19:43:30 GMT 52.476616 4.847717 31,600 51 477 1088
2018-06-22 19:43:27 GMT 52.472076 4.838409 31,550 49 475 960
2018-06-22 19:43:24 GMT 52.467819 4.830170 31,500 44 468 1088
2018-06-22 19:43:21 GMT 52.462830 4.821167 31,100 44 468 1088
2018-06-22 19:43:18 GMT 52.457657 4.812546 31,400 44 468 1088
2018-06-22 19:43:14 GMT 52.453629 4.806137 31,350 42 466 1152
2018-06-22 19:43:11 GMT 52.446579 4.795685 31,225 39 463 1280
2018-06-22 19:43:08 GMT 52.442818 4.790510 30,975 29 452 896
2018-06-22 19:43:05 GMT 52.436813 4.782663 31,150 36 461 1088
2018-06-22 19:43:02 GMT 52.433090 4.778033 31,100 35 460 960
2018-06-22 19:42:59 GMT 52.428246 4.772382 31,050 33 457 832
2018-06-22 19:42:56 GMT 52.422821 4.766388 30,950 25 447 960
2018-06-22 19:42:53 GMT 52.417465 4.760895 30,725 25 448 960
2018-06-22 19:42:50 GMT 52.411533 4.755118 30,925 29 453 960
2018-06-22 19:42:47 GMT 52.406040 4.750096 30,775 27 449 1024
2018-06-22 19:42:44 GMT 52.400711 4.745560 30,825 26 450 1024
2018-06-22 19:42:41 GMT 52.394917 4.740914 30,750 25 448 960
2018-06-22 19:42:38 GMT 52.390076 4.737148 30,725 25 447 960
2018-06-22 19:42:35 GMT 52.382206 4.731105 30,675 25 447 960
2018-06-22 19:42:32 GMT 52.377548 4.727478 30,500 25 446 1024
2018-06-22 19:42:29 GMT 52.373062 4.724045 30,575 25 447 960
2018-06-22 19:42:26 GMT 52.367065 4.719391 30,525 25 446 1024
2018-06-22 19:42:23 GMT 52.360886 4.714626 30,425 25 446 1024
2018-06-22 19:42:20 GMT 52.355301 4.710388 30,425 25 446 1024
2018-06-22 19:42:16 GMT 52.348389 4.705048 30,350 25 446 1024
2018-06-22 19:42:13 GMT 52.342804 4.700775 30,250 25 445 1024
2018-06-22 19:42:10 GMT 52.337219 4.696426 30,200 25 445 1024
2018-06-22 19:42:07 GMT 52.332779 4.692993 30,225 25 445 1024
2018-06-22 19:42:04 GMT 52.325684 4.687576 30,150 25 444 1024
2018-06-22 19:42:01 GMT 52.321976 4.684677 30,125 25 444 1024
2018-06-22 19:41:58 GMT 52.314194 4.678726 30,025 25 444 1024
2018-06-22 19:41:55 GMT 52.307877 4.673843 29,925 25 444 1024
2018-06-22 19:41:52 GMT 52.303627 4.670602 29,950 25 443 1024
2018-06-22 19:41:49 GMT 52.298264 4.666443 29,875 25 441 960
2018-06-22 19:41:46 GMT 52.290848 4.660797 29,825 25 443 960
2018-06-22 19:41:43 GMT 52.285473 4.656634 29,775 25 441 960
2018-06-22 19:41:40 GMT 52.281967 4.653931 29,750 25 441 1024
2018-06-22 19:41:37 GMT 52.275330 4.648895 29,675 25 441 1088
2018-06-22 19:41:34 GMT 52.269058 4.644012 29,625 25 441 1088
2018-06-22 19:41:31 GMT 52.265549 4.641331 29,575 25 441 1088
2018-06-22 19:41:28 GMT 52.259857 4.636993 29,500 25 440 1024
2018-06-22 19:41:25 GMT 52.254143 4.632621 29,450 25 439 960
2018-06-22 19:41:22 GMT 52.247314 4.627380 29,425 25 439 960
2018-06-22 19:41:19 GMT 52.243111 4.624146 29,275 25 438 1024
2018-06-22 19:41:16 GMT 52.236126 4.618809 29,325 25 439 960
2018-06-22 19:41:13 GMT 52.231377 4.615121 29,275 25 438 1024
2018-06-22 19:41:10 GMT 52.227001 4.611747 29,050 25 437 1152
2018-06-22 19:41:07 GMT 52.220581 4.606781 28,900 25 416 1472
2018-06-22 19:41:04 GMT 52.216763 4.603821 29,025 25 437 1152
2018-06-22 19:41:01 GMT 52.210373 4.598923 29,025 25 437 1152
2018-06-22 19:40:57 GMT 52.203049 4.593277 28,950 25 437 1152
2018-06-22 19:40:54 GMT 52.196136 4.588013 28,925 25 437 1152
2018-06-22 19:40:51 GMT 52.191376 4.584351 28,875 25 436 1088
2018-06-22 19:40:48 GMT 52.185928 4.580154 28,725 25 435 1152
2018-06-22 19:40:45 GMT 52.180115 4.575653 27,675 25 429 1280
2018-06-22 19:40:42 GMT 52.174255 4.571228 28,700 25 435 1152
2018-06-22 19:40:39 GMT 52.170071 4.568037 28,625 25 435 1152
2018-06-22 19:40:36 GMT 52.164459 4.563751 28,575 25 435 1152
2018-06-22 19:40:33 GMT 52.160110 4.560394 28,475 25 434 1152
2018-06-22 19:40:30 GMT 52.152657 4.554696 28,475 25 433 1088
2018-06-22 19:40:27 GMT 52.148483 4.551544 28,400 25 433 1088
2018-06-22 19:40:24 GMT 52.143036 4.547348 28,350 25 433 1152
2018-06-22 19:40:21 GMT 52.137062 4.542847 28,300 25 433 1152
2018-06-22 19:40:18 GMT 52.133106 4.539786 28,250 25 432 1152
2018-06-22 19:40:15 GMT 52.125893 4.534215 28,175 25 431 1216
2018-06-22 19:40:12 GMT 52.119186 4.529190 27,225 25 416 1472
2018-06-22 19:40:09 GMT 52.116302 4.526978 28,050 25 430 1280
2018-06-22 19:40:06 GMT 52.109116 4.521484 28,000 25 430 1280
2018-06-22 19:40:03 GMT 52.105316 4.518598 27,825 25 429 1280
2018-06-22 19:40:00 GMT 52.098312 4.513245 27,850 25 430 1280
2018-06-22 19:39:57 GMT 52.093815 4.509809 27,775 25 429 1280
2018-06-22 19:39:54 GMT 52.088043 4.505415 27,750 25 429 1280
2018-06-22 19:39:49 GMT 52.079060 4.498587 27,650 25 429 1344
2018-06-22 19:39:46 GMT 52.074032 4.494742 27,550 25 428 1408
2018-06-22 19:39:43 GMT 52.068100 4.490204 27,200 25 428 1408
2018-06-22 19:39:39 GMT 52.061836 4.485482 27,425 25 428 1344
2018-06-22 19:39:36 GMT 52.055557 4.480667 27,325 25 428 1280
2018-06-22 19:39:33 GMT 52.051987 4.477921 27,250 25 420 1408
2018-06-22 19:39:30 GMT 52.043747 4.471664 27,200 25 427 1280
2018-06-22 19:39:27 GMT 52.040749 4.469395 27,150 25 427 1344
2018-06-22 19:39:24 GMT 52.033951 4.464216 27,075 25 427 1280
2018-06-22 19:39:21 GMT 52.029099 4.460526 27,050 25 427 1280
2018-06-22 19:39:17 GMT 52.023056 4.455948 26,925 25 426 1344
2018-06-22 19:39:14 GMT 52.016647 4.451065 26,850 25 426 1344
2018-06-22 19:39:11 GMT 52.010239 4.446182 26,800 25 425 1344
2018-06-22 19:39:08 GMT 52.006668 4.443512 26,700 25 424 1344
2018-06-22 19:39:05 GMT 52.000626 4.438934 26,650 25 425 1344
2018-06-22 19:39:02 GMT 51.996368 4.435654 26,600 25 425 1344
2018-06-22 19:38:59 GMT 51.988747 4.429923 26,525 25 424 1344
2018-06-22 19:38:56 GMT 51.983231 4.425735 26,450 25 424 1344
2018-06-22 19:38:53 GMT 51.979855 4.423174 26,375 25 422 1408
2018-06-22 19:38:50 GMT 51.974396 4.419022 26,175 25 422 1408
2018-06-22 19:38:47 GMT 51.969616 4.415405 26,250 25 422 1408
2018-06-22 19:38:44 GMT 51.963612 4.410854 26,175 25 422 1408
2018-06-22 19:38:41 GMT 51.958832 4.407272 26,125 25 421 1408
2018-06-22 19:38:38 GMT 51.952995 4.402849 26,075 24 421 1408
2018-06-22 19:38:35 GMT 51.947891 4.399033 25,975 25 420 1408
2018-06-22 19:38:32 GMT 51.941032 4.393825 25,925 25 420 1408
2018-06-22 19:38:29 GMT 51.937683 4.391327 25,825 25 419 1408
2018-06-22 19:38:26 GMT 51.930466 4.385821 25,450 25 419 1344
2018-06-22 19:38:23 GMT 51.926788 4.383087 25,675 25 419 1344
2018-06-22 19:38:20 GMT 51.921890 4.379349 25,625 25 418 1344
2018-06-22 19:38:17 GMT 51.916626 4.375381 25,550 25 416 1472
2018-06-22 19:38:14 GMT 51.911362 4.371414 25,475 25 417 1408
2018-06-22 19:38:11 GMT 51.904724 4.366379 25,450 25 417 1408
2018-06-22 19:38:08 GMT 51.899323 4.362279 25,300 25 416 1472
2018-06-22 19:38:04 GMT 51.894108 4.358355 25,225 24 414 1472
2018-06-22 19:38:01 GMT 51.887497 4.353333 25,200 24 415 1472
2018-06-22 19:37:58 GMT 51.884171 4.350883 25,100 24 414 1536
2018-06-22 19:37:55 GMT 51.879166 4.347076 24,775 25 411 1472
2018-06-22 19:37:52 GMT 51.872879 4.342346 24,950 25 413 1536
2018-06-22 19:37:49 GMT 51.866642 4.337692 24,900 25 413 1536
2018-06-22 19:37:46 GMT 51.862335 4.334403 24,825 25 413 1536
2018-06-22 19:37:43 GMT 51.858170 4.331286 24,650 24 412 1536
2018-06-22 19:37:40 GMT 51.851791 4.326477 24,650 24 412 1472
2018-06-22 19:37:35 GMT 51.842972 4.319854 24,575 24 412 1472
2018-06-22 19:37:32 GMT 51.837799 4.315920 24,425 25 411 1408
2018-06-22 19:37:29 GMT 51.833450 4.312668 24,450 25 411 1408
2018-06-22 19:37:26 GMT 51.828979 4.309311 24,350 25 410 1408
2018-06-22 19:37:23 GMT 51.821594 4.303746 24,250 24 409 1408
2018-06-22 19:37:20 GMT 51.816101 4.299663 24,200 24 409 1472
2018-06-22 19:37:17 GMT 51.812874 4.297180 24,100 25 408 1472
2018-06-22 19:37:14 GMT 51.806534 4.292388 24,075 24 408 1536
2018-06-22 19:37:11 GMT 51.800213 4.287643 23,950 24 407 1600
2018-06-22 19:37:08 GMT 51.796967 4.285262 23,925 24 407 1600
2018-06-22 19:37:05 GMT 51.790668 4.280472 23,800 24 406 1536
2018-06-22 19:37:02 GMT 51.785545 4.276657 23,750 24 405 1536
2018-06-22 19:36:59 GMT 51.781311 4.273533 23,675 24 405 1536
2018-06-22 19:36:56 GMT 51.776375 4.269791 23,600 24 404 1600
2018-06-22 19:36:53 GMT 51.771103 4.265887 23,500 24 404 1600
2018-06-22 19:36:50 GMT 51.764832 4.261169 23,425 24 404 1664
2018-06-22 19:36:47 GMT 51.761627 4.258835 23,350 24 403 1664
2018-06-22 19:36:44 GMT 51.757553 4.255792 23,300 24 403 1664
2018-06-22 19:36:41 GMT 51.750633 4.250565 23,150 24 402 1728
2018-06-22 19:36:38 GMT 51.746429 4.247478 23,050 24 402 1728
2018-06-22 19:36:35 GMT 51.741184 4.243546 23,000 24 402 1728
2018-06-22 19:36:32 GMT 51.735783 4.239502 22,950 24 401 1728
2018-06-22 19:36:29 GMT 51.730591 4.235601 22,825 25 401 1792
2018-06-22 19:36:26 GMT 51.727032 4.232941 22,775 25 401 1792
2018-06-22 19:36:23 GMT 51.720840 4.228326 22,675 24 400 1856
2018-06-22 19:36:20 GMT 51.715485 4.224243 22,575 24 400 1856
2018-06-22 19:36:17 GMT 51.709293 4.219589 22,475 25 399 1920
2018-06-22 19:36:14 GMT 51.706921 4.217834 22,400 25 399 1920
2018-06-22 19:36:11 GMT 51.701065 4.213480 22,075 24 399 1920
2018-06-22 19:36:08 GMT 51.695068 4.208951 22,225 24 399 1920
2018-06-22 19:36:05 GMT 51.690533 4.205627 21,875 24 397 1728
2018-06-22 19:36:02 GMT 51.685043 4.201528 22,050 24 398 1792
2018-06-22 19:35:59 GMT 51.681015 4.198485 21,950 24 397 1728
2018-06-22 19:35:56 GMT 51.675171 4.194183 21,850 24 397 1728
2018-06-22 19:35:53 GMT 51.670193 4.190445 21,775 24 396 1728
2018-06-22 19:35:50 GMT 51.664883 4.186478 21,500 24 395 1920
2018-06-22 19:35:47 GMT 51.661743 4.184084 21,600 24 395 1792
2018-06-22 19:35:44 GMT 51.655426 4.179407 21,550 24 395 1920
2018-06-22 19:35:41 GMT 51.652267 4.177017 21,475 24 395 1920
2018-06-22 19:35:38 GMT 51.644306 4.171143 21,325 24 395 2112
2018-06-22 19:35:34 GMT 51.638855 4.167085 21,025 24 394 2112
2018-06-22 19:35:31 GMT 51.635193 4.164338 21,075 24 394 2112
2018-06-22 19:35:28 GMT 51.628601 4.159439 20,975 24 394 2112
2018-06-22 19:35:25 GMT 51.623611 4.155727 20,900 24 394 2112
2018-06-22 19:35:22 GMT 51.618843 4.152222 20,775 24 394 2176
2018-06-22 19:35:19 GMT 51.614044 4.148601 20,700 24 394 2176
2018-06-22 19:35:16 GMT 51.608093 4.144221 20,450 24 393 1984
2018-06-22 19:35:13 GMT 51.604923 4.141922 20,275 24 393 1984
2018-06-22 19:35:10 GMT 51.598160 4.136946 20,375 24 394 1920
2018-06-22 19:35:07 GMT 51.592529 4.132789 19,975 24 393 1792
2018-06-22 19:35:04 GMT 51.588593 4.129820 20,175 24 392 1856
2018-06-22 19:35:01 GMT 51.583008 4.125663 20,100 25 392 1920
2018-06-22 19:34:58 GMT 51.579880 4.123306 19,975 25 392 1984
2018-06-22 19:34:55 GMT 51.573166 4.118166 19,900 25 391 1984
2018-06-22 19:34:52 GMT 51.568954 4.114900 19,800 24 390 1920
2018-06-22 19:34:49 GMT 51.565659 4.112450 19,750 23 390 1856
2018-06-22 19:34:46 GMT 51.558746 4.107551 19,550 21 388 1792
2018-06-22 19:34:42 GMT 51.553711 4.104581 19,475 17 385 1792
2018-06-22 19:34:38 GMT 51.547756 4.101486 19,450 15 384 1792
2018-06-22 19:34:35 GMT 51.541615 4.098816 18,900 11 381 1920
2018-06-22 19:34:32 GMT 51.537643 4.097381 18,975 4 378 1920
2018-06-22 19:34:29 GMT 51.530163 4.095383 19,125 7 380 1920
2018-06-22 19:34:26 GMT 51.525318 4.094391 18,900 2 377 1856
2018-06-22 19:34:23 GMT 51.520248 4.093743 18,950 2 377 1856
2018-06-22 19:34:20 GMT 51.515396 4.093521 18,825 353 373 1920
2018-06-22 19:34:17 GMT 51.510178 4.093669 18,775 356 375 1792
2018-06-22 19:34:14 GMT 51.504272 4.094263 18,625 354 374 1856
2018-06-22 19:34:11 GMT 51.499996 4.095078 18,600 353 373 1984
2018-06-22 19:34:08 GMT 51.494705 4.096342 18,450 351 373 2048
2018-06-22 19:34:05 GMT 51.490311 4.097529 18,400 351 372 2048
2018-06-22 19:34:02 GMT 51.484028 4.099197 18,250 351 371 2176
2018-06-22 19:33:59 GMT 51.479977 4.100342 18,150 351 371 2176
2018-06-22 19:33:56 GMT 51.474701 4.101760 18,075 351 371 2112
2018-06-22 19:33:53 GMT 51.469830 4.103088 17,950 351 370 2048
2018-06-22 19:33:50 GMT 51.464905 4.104433 17,875 351 369 2048
2018-06-22 19:33:46 GMT 51.456005 4.106903 17,700 351 368 2176
2018-06-22 19:33:43 GMT 51.453140 4.107699 17,550 351 367 2240
2018-06-22 19:33:40 GMT 51.448151 4.109109 17,525 351 367 2240
2018-06-22 19:33:37 GMT 51.442795 4.110594 17,425 351 367 2240
2018-06-22 19:33:33 GMT 51.436111 4.112450 17,275 351 366 2240
2018-06-22 19:33:30 GMT 51.430115 4.114157 17,150 351 365 2304
2018-06-22 19:33:27 GMT 51.425930 4.115295 16,825 351 364 2176
2018-06-22 19:33:24 GMT 51.421463 4.116533 16,900 351 364 2240
2018-06-22 19:33:21 GMT 51.415833 4.118091 16,775 351 364 2176
2018-06-22 19:33:18 GMT 51.410522 4.119576 16,725 351 364 2176
2018-06-22 19:33:15 GMT 51.405212 4.120987 16,600 351 363 2176
2018-06-22 19:33:12 GMT 51.401917 4.121877 16,275 351 361 2240
2018-06-22 19:33:09 GMT 51.395325 4.123733 16,400 351 362 2240
2018-06-22 19:33:06 GMT 51.391205 4.124832 16,300 351 362 2240
2018-06-22 19:33:02 GMT 51.384918 4.126511 16,150 351 361 2176
2018-06-22 19:32:59 GMT 51.380032 4.127884 16,050 351 360 2176
2018-06-22 19:32:56 GMT 51.374588 4.129375 15,950 351 360 2176
2018-06-22 19:32:53 GMT 51.369690 4.130711 15,775 351 356 2624
2018-06-22 19:32:50 GMT 51.363785 4.132270 15,700 351 357 2304
2018-06-22 19:32:46 GMT 51.356476 4.134216 15,525 351 357 2432
2018-06-22 19:32:42 GMT 51.350937 4.135742 15,325 351 356 2624
2018-06-22 19:32:38 GMT 51.344746 4.137421 15,225 351 357 2432
2018-06-22 19:32:35 GMT 51.339066 4.138951 15,100 351 356 2560
2018-06-22 19:32:31 GMT 51.334854 4.140138 14,875 352 352 2432
2018-06-22 19:32:28 GMT 51.329956 4.141475 14,775 351 353 2432
2018-06-22 19:32:25 GMT 51.322678 4.143448 14,675 351 355 2496
2018-06-22 19:32:22 GMT 51.318768 4.144516 14,250 351 355 2432
2018-06-22 19:32:18 GMT 51.313927 4.145889 14,350 351 345 2368
2018-06-22 19:32:15 GMT 51.307457 4.147644 14,225 351 353 2432
2018-06-22 19:32:12 GMT 51.302765 4.148972 14,175 351 355 2432
2018-06-22 19:32:08 GMT 51.297913 4.150308 14,025 351 345 2368
2018-06-22 19:32:04 GMT 51.290325 4.152298 13,825 351 353 2432
2018-06-22 19:32:01 GMT 51.285965 4.153426 13,675 351 345 2368
2018-06-22 19:31:58 GMT 51.281944 4.154434 13,575 351 345 2368
2018-06-22 19:31:53 GMT 51.272682 4.156723 13,375 352 350 2432
2018-06-22 19:31:49 GMT 51.266258 4.158325 13,175 352 349 2496
2018-06-22 19:31:46 GMT 51.262299 4.159290 13,175 352 349 2496
2018-06-22 19:31:43 GMT 51.256062 4.160843 13,025 352 348 2560
2018-06-22 19:31:40 GMT 51.252247 4.161835 12,875 351 347 2496
2018-06-22 19:31:37 GMT 51.247971 4.162853 12,725 351 347 2432
2018-06-22 19:31:33 GMT 51.239136 4.165155 12,575 351 345 2368
2018-06-22 19:31:30 GMT 51.235977 4.165971 12,500 351 345 2368
2018-06-22 19:31:27 GMT 51.230301 4.167381 12,375 351 344 2304
2018-06-22 19:31:23 GMT 51.225430 4.168625 12,150 351 343 2240
2018-06-22 19:31:20 GMT 51.219315 4.170202 12,100 351 342 2240
2018-06-22 19:31:16 GMT 51.213089 4.171761 11,975 352 341 2176
2018-06-22 19:31:13 GMT 51.209789 4.172592 11,850 352 339 1920
2018-06-22 19:31:10 GMT 51.204205 4.173965 11,775 352 338 1728
2018-06-22 19:31:06 GMT 51.199127 4.175102 11,600 352 336 1408
2018-06-22 19:31:03 GMT 51.192947 4.176586 11,300 337 310 1216
2018-06-22 19:30:59 GMT 51.187351 4.178085 11,500 331 278 960
2018-06-22 19:30:56 GMT 51.183487 4.179382 11,400 347 327 1216
2018-06-22 19:30:53 GMT 51.178070 4.181411 11,400 345 323 1216
2018-06-22 19:30:50 GMT 51.175014 4.182739 11,350 344 321 1216
2018-06-22 19:30:47 GMT 51.171291 4.184418 11,225 340 314 1280
2018-06-22 19:30:44 GMT 51.165146 4.187622 11,225 341 315 1280
2018-06-22 19:30:41 GMT 51.162956 4.188919 11,150 337 310 1216
2018-06-22 19:30:38 GMT 51.158524 4.191655 11,125 338 311 1216
2018-06-22 19:30:35 GMT 51.153927 4.194794 11,000 335 305 1152
2018-06-22 19:30:31 GMT 51.149185 4.198410 10,900 331 299 1216
2018-06-22 19:30:28 GMT 51.145363 4.201660 10,925 332 301 1216
2018-06-22 19:30:25 GMT 51.141586 4.204943 10,750 331 294 1280
2018-06-22 19:30:22 GMT 51.137283 4.208803 10,775 331 294 1280
2018-06-22 19:30:18 GMT 51.132111 4.213480 10,700 331 290 1152
2018-06-22 19:30:14 GMT 51.129440 4.215851 10,650 331 288 1152
2018-06-22 19:30:11 GMT 51.125298 4.219513 10,550 331 282 1216
2018-06-22 19:30:08 GMT 51.122551 4.221954 10,525 331 281 1152
2018-06-22 19:30:05 GMT 51.118919 4.225235 10,075 331 274 1152
2018-06-22 19:30:01 GMT 51.114265 4.229431 10,325 331 270 1856
2018-06-22 19:29:58 GMT 51.111099 4.232260 10,300 331 267 2688
2018-06-22 19:29:55 GMT 51.107746 4.235229 10,150 331 267 2688
2018-06-22 19:29:52 GMT 51.104370 4.238199 10,000 331 267 2688
2018-06-22 19:29:49 GMT 51.101231 4.240952 9,875 331 267 2688
2018-06-22 19:29:46 GMT 51.097134 4.244614 9,750 331 267 2624
2018-06-22 19:29:43 GMT 51.094109 4.247284 9,550 331 266 2560
2018-06-22 19:29:40 GMT 51.091312 4.249802 9,475 331 265 2560
2018-06-22 19:29:37 GMT 51.088520 4.252243 9,425 331 265 2560
2018-06-22 19:29:34 GMT 51.085007 4.255421 9,175 331 264 2624
2018-06-22 19:29:31 GMT 51.081909 4.258270 9,175 331 263 2624
2018-06-22 19:29:28 GMT 51.078415 4.261433 9,000 331 264 2624
2018-06-22 19:29:25 GMT 51.075115 4.264374 8,850 331 263 2624
2018-06-22 19:29:22 GMT 51.072464 4.266778 8,675 331 263 2688
2018-06-22 19:29:18 GMT 51.067944 4.270859 8,600 331 262 2688
2018-06-22 19:29:15 GMT 51.064545 4.273911 8,450 331 261 2688
2018-06-22 19:29:12 GMT 51.061523 4.276577 8,125 331 260 2432
2018-06-22 19:29:09 GMT 51.058136 4.279620 7,975 331 258 2368
2018-06-22 19:29:06 GMT 51.055328 4.282150 7,975 331 258 2368
2018-06-22 19:29:03 GMT 51.051453 4.285559 7,900 331 257 2496
2018-06-22 19:28:58 GMT 51.047470 4.289122 7,775 331 257 2496
2018-06-22 19:28:54 GMT 51.042938 4.293130 7,600 331 255 2560
2018-06-22 19:28:51 GMT 51.039459 4.296248 7,450 331 252 2496
2018-06-22 19:28:48 GMT 51.036987 4.298475 7,325 331 245 2368
2018-06-22 19:28:45 GMT 51.032913 4.302112 7,175 331 252 2496
2018-06-22 19:28:42 GMT 51.030376 4.304352 6,975 331 250 2432
2018-06-22 19:28:39 GMT 51.028328 4.306107 6,825 331 249 2496
2018-06-22 19:28:34 GMT 51.021973 4.311763 6,475 331 246 2496
2018-06-22 19:28:31 GMT 51.019485 4.313965 6,525 331 246 2560
2018-06-22 19:28:28 GMT 51.015900 4.317169 6,400 331 246 2496
2018-06-22 19:28:23 GMT 51.010849 4.321635 6,275 331 245 2240
2018-06-22 19:28:20 GMT 51.008102 4.324159 6,075 331 244 2432
2018-06-22 19:28:16 GMT 51.004822 4.327087 5,950 331 242 3072
2018-06-22 19:28:13 GMT 51.001095 4.330444 5,800 331 243 3008
2018-06-22 19:28:10 GMT 50.999222 4.332102 5,650 331 242 3072
2018-06-22 19:28:06 GMT 50.995045 4.335861 5,525 331 242 3072
2018-06-22 19:28:00 GMT 50.988808 4.341431 5,175 331 241 3072
2018-06-22 19:27:56 GMT 50.984894 4.344864 5,025 331 240 3072
2018-06-22 19:27:53 GMT 50.982880 4.346726 4,925 331 240 3008
2018-06-22 19:27:50 GMT 50.979172 4.349992 4,675 331 239 2752
2018-06-22 19:27:46 GMT 50.975693 4.353110 4,575 331 239 2496
2018-06-22 19:27:43 GMT 50.972744 4.355774 4,450 331 237 2368
2018-06-22 19:27:39 GMT 50.968323 4.359665 4,275 331 234 2112
2018-06-22 19:27:35 GMT 50.965027 4.362612 4,125 331 231 1536
2018-06-22 19:27:31 GMT 50.961319 4.365952 4,075 331 227 1152
2018-06-22 19:27:28 GMT 50.958618 4.368402 3,975 331 220 1216
2018-06-22 19:27:25 GMT 50.955734 4.370925 3,950 331 217 1472
2018-06-22 19:27:22 GMT 50.953629 4.372856 3,900 331 214 1728
2018-06-22 19:27:18 GMT 50.949371 4.376716 3,750 331 210 1536
2018-06-22 19:27:15 GMT 50.946808 4.379017 3,650 331 207 1216
2018-06-22 19:27:11 GMT 50.943928 4.381638 3,525 331 198 1216
2018-06-22 19:27:08 GMT 50.941833 4.383545 3,575 331 198 1216
2018-06-22 19:27:05 GMT 50.939392 4.385772 3,500 331 194 1344
2018-06-22 19:27:02 GMT 50.936600 4.388296 3,425 331 189 1088
2018-06-22 19:26:59 GMT 50.935089 4.389632 3,300 334 172 2176
2018-06-22 19:26:54 GMT 50.930878 4.393195 3,175 334 177 1792
2018-06-22 19:26:51 GMT 50.928616 4.395065 3,175 334 174 1856
2018-06-22 19:26:46 GMT 50.924286 4.398391 3,000 335 173 1984
2018-06-22 19:26:43 GMT 50.922935 4.399414 2,925 334 172 2176
2018-06-22 19:26:39 GMT 50.920235 4.401550 2,775 335 171 2496
2018-06-22 19:26:35 GMT 50.916870 4.404033 2,575 337 172 2816
2018-06-22 19:26:32 GMT 50.914322 4.405823 2,400 337 173 2816
2018-06-22 19:26:29 GMT 50.913208 4.406631 2,225 339 174 2304

Making use of Plane Finder data

You are free to use the raw flight data, aircraft information and images provided in this report for your own purposes provided the data is correctly attributed to Plane Finder. We ask that you please credit Plane Finder and link to planefinder.net in close proximity to the content.

Optionally one of the following logos (no smaller then 150x24px) can be used and must link to planefinder.net

Embedding the Plane Finder map

You are welcome to embed the Plane Finder playback map on your website to offer visitors a more interactive experience. We suggest using the following HTML code:

<iframe src="//planefinder.net/data/report/NH232-JA823A-7700-squawk-2018-06-22/map" width="800" height="600" seamless="seamless"></iframe>

Where our data comes from

Plane Finder has a global network of data feeds and antenna radars that receive data broadcast directly from aircraft. The primary technologies used are ADS-B and MLAT. We also show feeds from the FAA and a FLARM glider feed.

Click here to find out more about the Plane Finder network.

How we collect our data